PWSweather.com
Personal Weather Stations
Station Observations
HVALPSUND
Hvalpsund, FarsoeDK 9640

HvalpsundFarsoeDK 9640

Lat: 56.705311, Lon: 9.203638

Elevation: 5

Station Type: Vantage Pro2

http://hvalpsundvejr.dk

High Low Average
Temperature 42.7°F5.9°C 27.8°F-2.3°C 36.0°F2.2°C
Dew Point 31.7°F-0.2°C 24.6°F-4.1°C 27.8°F-2.3°C
Winds 8.7 mph 14.0 kmh Calm Calm 3.0 mph S4.8 kmh S
Wind Gusts 10.0 mph16.1 kmh -- 5.0 mph8.0 kmh
Humidity 90% 51% 73%
Pressure 29.77 in1008.1 mb 29.62 in1003.0 mb -
Precipitation 0.00 in0.0 mm - -
Hour Temp Dew Point Humidity Winds Wind Gusts Pressure Precip Precip Rate Daily Precip Total
12:00 AM 32.4°F0.2°C 27.8°F-2.3°C 83% 4.6 mph WSW7.4 kmh WSW 7.0 mph11.3 kmh 29.77 in1008.1 mb 0.00 in0.0 mm 0.00 in0.0 mm 0.00 in0.0 mm
12:01 AM 32.6°F0.3°C 28.0°F-2.2°C 83% 4.4 mph WSW7.1 kmh WSW 7.0 mph11.3 kmh 29.77 in1008.1 mb 0.00 in0.0 mm 0.00 in0.0 mm 0.00 in0.0 mm
12:02 AM 32.6°F0.3°C 28.0°F-2.2°C 83% 4.7 mph WSW7.6 kmh WSW 7.0 mph11.3 kmh 29.77 in1008.1 mb 0.00 in0.0 mm 0.00 in0.0 mm 0.00 in0.0 mm
12:03 AM 32.7°F0.4°C 28.1°F-2.2°C 83% 4.1 mph WSW6.6 kmh WSW 7.0 mph11.3 kmh 29.77 in1008.1 mb 0.00 in0.0 mm 0.00 in0.0 mm 0.00 in0.0 mm
12:04 AM 32.8°F0.4°C 28.2°F-2.1°C 83% 3.2 mph WSW5.1 kmh WSW 5.0 mph8.0 kmh 29.77 in1008.1 mb 0.00 in0.0 mm 0.00 in0.0 mm 0.00 in0.0 mm
12:05 AM 32.9°F0.5°C 28.3°F-2.1°C 83% 3.4 mph WSW5.5 kmh WSW 4.0 mph6.4 kmh 29.77 in1008.1 mb 0.00 in0.0 mm 0.00 in0.0 mm 0.00 in0.0 mm
12:06 AM 33.0°F0.6°C 28.1°F-2.2°C 82% 3.1 mph WSW5.0 kmh WSW 4.0 mph6.4 kmh 29.77 in1008.1 mb 0.00 in0.0 mm 0.00 in0.0 mm 0.00 in0.0 mm
12:07 AM 33.0°F0.6°C 28.1°F-2.2°C 82% 2.9 mph WSW4.7 kmh WSW 4.0 mph6.4 kmh 29.77 in1008.1 mb 0.00 in0.0 mm 0.00 in0.0 mm 0.00 in0.0 mm
12:08 AM 33.1°F0.6°C 28.2°F-2.1°C 82% 3.3 mph WSW5.3 kmh WSW 4.0 mph6.4 kmh 29.77 in1008.1 mb 0.00 in0.0 mm 0.00 in0.0 mm 0.00 in0.0 mm
12:09 AM 33.1°F0.6°C 28.2°F-2.1°C 82% 3.5 mph WSW5.6 kmh WSW 4.0 mph6.4 kmh 29.77 in1008.1 mb 0.00 in0.0 mm 0.00 in0.0 mm 0.00 in0.0 mm
12:10 AM 33.2°F0.7°C 28.3°F-2.1°C 82% 3.5 mph WSW5.6 kmh WSW 4.0 mph6.4 kmh 29.77 in1008.1 mb 0.00 in0.0 mm 0.00 in0.0 mm 0.00 in0.0 mm
12:11 AM 33.2°F0.7°C 28.3°F-2.1°C 82% 3.9 mph WSW6.3 kmh WSW 5.0 mph8.0 kmh 29.77 in1008.1 mb 0.00 in0.0 mm 0.00 in0.0 mm 0.00 in0.0 mm
12:12 AM 33.3°F0.7°C 28.4°F-2.0°C 82% 4.2 mph WSW6.8 kmh WSW 5.0 mph8.0 kmh 29.77 in1008.1 mb 0.00 in0.0 mm 0.00 in0.0 mm 0.00 in0.0 mm
12:13 AM 33.3°F0.7°C 28.1°F-2.2°C 81% 4.5 mph WSW7.2 kmh WSW 5.0 mph8.0 kmh 29.77 in1008.1 mb 0.00 in0.0 mm 0.00 in0.0 mm 0.00 in0.0 mm
12:14 AM 33.3°F0.7°C 28.1°F-2.2°C 81% 3.8 mph WSW6.1 kmh WSW 5.0 mph8.0 kmh 29.77 in1008.1 mb 0.00 in0.0 mm 0.00 in0.0 mm 0.00 in0.0 mm
12:15 AM 33.4°F0.8°C 28.2°F-2.1°C 81% 3.1 mph WSW5.0 kmh WSW 4.0 mph6.4 kmh 29.77 in1008.1 mb 0.00 in0.0 mm 0.00 in0.0 mm 0.00 in0.0 mm
12:16 AM 33.4°F0.8°C 28.2°F-2.1°C 81% 4.6 mph WSW7.4 kmh WSW 7.0 mph11.3 kmh 29.77 in1008.1 mb 0.00 in0.0 mm 0.00 in0.0 mm 0.00 in0.0 mm
12:17 AM 33.5°F0.8°C 28.3°F-2.1°C 81% 4.9 mph WSW7.9 kmh WSW 8.0 mph12.9 kmh 29.77 in1008.1 mb 0.00 in0.0 mm 0.00 in0.0 mm 0.00 in0.0 mm
12:18 AM 33.5°F0.8°C 28.3°F-2.1°C 81% 4.8 mph WSW7.7 kmh WSW 8.0 mph12.9 kmh 29.77 in1008.1 mb 0.00 in0.0 mm 0.00 in0.0 mm 0.00 in0.0 mm
12:19 AM 33.6°F0.9°C 28.4°F-2.0°C 81% 3.9 mph WSW6.3 kmh WSW 7.0 mph11.3 kmh 29.77 in1008.1 mb 0.00 in0.0 mm 0.00 in0.0 mm 0.00 in0.0 mm
12:20 AM 33.6°F0.9°C 28.1°F-2.2°C 80% 4.6 mph WSW7.4 kmh WSW 5.0 mph8.0 kmh 29.77 in1008.1 mb 0.00 in0.0 mm 0.00 in0.0 mm 0.00 in0.0 mm
12:21 AM 33.6°F0.9°C 28.1°F-2.2°C 80% 4.2 mph WSW6.8 kmh WSW 6.0 mph9.7 kmh 29.76 in1007.8 mb 0.00 in0.0 mm 0.00 in0.0 mm 0.00 in0.0 mm
12:22 AM 33.6°F0.9°C 28.1°F-2.2°C 80% 4.9 mph WSW7.9 kmh WSW 6.0 mph9.7 kmh 29.77 in1008.1 mb 0.00 in0.0 mm 0.00 in0.0 mm 0.00 in0.0 mm
12:23 AM 33.6°F0.9°C 28.1°F-2.2°C 80% 3.8 mph WSW6.1 kmh WSW 6.0 mph9.7 kmh 29.77 in1008.1 mb 0.00 in0.0 mm 0.00 in0.0 mm 0.00 in0.0 mm
12:24 AM 33.7°F0.9°C 28.2°F-2.1°C 80% 3.9 mph WSW6.3 kmh WSW 6.0 mph9.7 kmh 29.77 in1008.1 mb 0.00 in0.0 mm 0.00 in0.0 mm 0.00 in0.0 mm
12:25 AM 33.6°F0.9°C 28.1°F-2.2°C 80% 4.1 mph WSW6.6 kmh WSW 6.0 mph9.7 kmh 29.77 in1008.1 mb 0.00 in0.0 mm 0.00 in0.0 mm 0.00 in0.0 mm
12:26 AM 33.7°F0.9°C 28.2°F-2.1°C 80% 3.6 mph WSW5.8 kmh WSW 6.0 mph9.7 kmh 29.77 in1008.1 mb 0.00 in0.0 mm 0.00 in0.0 mm 0.00 in0.0 mm
12:27 AM 33.6°F0.9°C 28.1°F-2.2°C 80% 5.5 mph WSW8.9 kmh WSW 7.0 mph11.3 kmh 29.77 in1008.1 mb 0.00 in0.0 mm 0.00 in0.0 mm 0.00 in0.0 mm
12:28 AM 33.7°F0.9°C 28.2°F-2.1°C 80% 5.4 mph WSW8.7 kmh WSW 7.0 mph11.3 kmh 29.77 in1008.1 mb 0.00 in0.0 mm 0.00 in0.0 mm 0.00 in0.0 mm
12:29 AM 33.6°F0.9°C 28.1°F-2.2°C 80% 4.6 mph WSW7.4 kmh WSW 7.0 mph11.3 kmh 29.77 in1008.1 mb 0.00 in0.0 mm 0.00 in0.0 mm 0.00 in0.0 mm
12:30 AM 33.6°F0.9°C 28.1°F-2.2°C 80% 3.6 mph WSW5.8 kmh WSW 7.0 mph11.3 kmh 29.77 in1008.1 mb 0.00 in0.0 mm 0.00 in0.0 mm 0.00 in0.0 mm
12:31 AM 33.5°F0.8°C 28.0°F-2.2°C 80% 3.5 mph WSW5.6 kmh WSW 5.0 mph8.0 kmh 29.77 in1008.1 mb 0.00 in0.0 mm 0.00 in0.0 mm 0.00 in0.0 mm
12:32 AM 33.4°F0.8°C 27.9°F-2.3°C 80% 3.8 mph WSW6.1 kmh WSW 5.0 mph8.0 kmh 29.76 in1007.8 mb 0.00 in0.0 mm 0.00 in0.0 mm 0.00 in0.0 mm
12:33 AM 33.3°F0.7°C 27.5°F-2.5°C 79% 3.9 mph WSW6.3 kmh WSW 4.0 mph6.4 kmh 29.77 in1008.1 mb 0.00 in0.0 mm 0.00 in0.0 mm 0.00 in0.0 mm
12:34 AM 33.2°F0.7°C 27.4°F-2.6°C 79% 3.9 mph WSW6.3 kmh WSW 4.0 mph6.4 kmh 29.77 in1008.1 mb 0.00 in0.0 mm 0.00 in0.0 mm 0.00 in0.0 mm
12:35 AM 33.0°F0.6°C 27.2°F-2.7°C 79% 4.0 mph WSW6.4 kmh WSW 5.0 mph8.0 kmh 29.77 in1008.1 mb 0.00 in0.0 mm 0.00 in0.0 mm 0.00 in0.0 mm
12:36 AM 32.9°F0.5°C 27.1°F-2.7°C 79% 3.8 mph WSW6.1 kmh WSW 5.0 mph8.0 kmh 29.77 in1008.1 mb 0.00 in0.0 mm 0.00 in0.0 mm 0.00 in0.0 mm
12:37 AM 32.8°F0.4°C 27.0°F-2.8°C 79% 3.5 mph WSW5.6 kmh WSW 5.0 mph8.0 kmh 29.77 in1008.1 mb 0.00 in0.0 mm 0.00 in0.0 mm 0.00 in0.0 mm
12:38 AM 32.7°F0.4°C 26.9°F-2.8°C 79% 3.9 mph WSW6.3 kmh WSW 5.0 mph8.0 kmh 29.77 in1008.1 mb 0.00 in0.0 mm 0.00 in0.0 mm 0.00 in0.0 mm
12:39 AM 32.6°F0.3°C 27.1°F-2.7°C 80% 4.0 mph WSW6.4 kmh WSW 7.0 mph11.3 kmh 29.77 in1008.1 mb 0.00 in0.0 mm 0.00 in0.0 mm 0.00 in0.0 mm
12:40 AM 32.6°F0.3°C 27.1°F-2.7°C 80% 4.0 mph WSW6.4 kmh WSW 7.0 mph11.3 kmh 29.77 in1008.1 mb 0.00 in0.0 mm 0.00 in0.0 mm 0.00 in0.0 mm
12:41 AM 32.5°F0.3°C 27.0°F-2.8°C 80% 4.1 mph WSW6.6 kmh WSW 5.0 mph8.0 kmh 29.77 in1008.1 mb 0.00 in0.0 mm 0.00 in0.0 mm 0.00 in0.0 mm
12:42 AM 32.4°F0.2°C 26.9°F-2.8°C 80% 4.2 mph WSW6.8 kmh WSW 5.0 mph8.0 kmh 29.77 in1008.1 mb 0.00 in0.0 mm 0.00 in0.0 mm 0.00 in0.0 mm
12:43 AM 32.3°F0.2°C 26.8°F-2.9°C 80% 4.0 mph WSW6.4 kmh WSW 5.0 mph8.0 kmh 29.77 in1008.1 mb 0.00 in0.0 mm 0.00 in0.0 mm 0.00 in0.0 mm
12:44 AM 32.3°F0.2°C 26.8°F-2.9°C 80% 4.2 mph WSW6.8 kmh WSW 5.0 mph8.0 kmh 29.77 in1008.1 mb 0.00 in0.0 mm 0.00 in0.0 mm 0.00 in0.0 mm
12:45 AM 32.2°F0.1°C 26.7°F-2.9°C 80% 3.8 mph WSW6.1 kmh WSW 5.0 mph8.0 kmh 29.77 in1008.1 mb 0.00 in0.0 mm 0.00 in0.0 mm 0.00 in0.0 mm
12:46 AM 32.1°F0.1°C 26.6°F-3.0°C 80% 3.8 mph WSW6.1 kmh WSW 5.0 mph8.0 kmh 29.76 in1007.8 mb 0.00 in0.0 mm 0.00 in0.0 mm 0.00 in0.0 mm
12:47 AM 32.1°F0.1°C 26.6°F-3.0°C 80% 3.5 mph WSW5.6 kmh WSW 4.0 mph6.4 kmh 29.77 in1008.1 mb 0.00 in0.0 mm 0.00 in0.0 mm 0.00 in0.0 mm
12:48 AM 32.1°F0.1°C 26.6°F-3.0°C 80% 3.5 mph WSW5.6 kmh WSW 4.0 mph6.4 kmh 29.76 in1007.8 mb 0.00 in0.0 mm 0.00 in0.0 mm 0.00 in0.0 mm
12:49 AM 32.0°F0.0°C 26.5°F-3.1°C 80% 3.5 mph WSW5.6 kmh WSW 4.0 mph6.4 kmh 29.76 in1007.8 mb 0.00 in0.0 mm 0.00 in0.0 mm 0.00 in0.0 mm
12:50 AM 32.0°F0.0°C 26.5°F-3.1°C 80% 3.2 mph WSW5.1 kmh WSW 4.0 mph6.4 kmh 29.76 in1007.8 mb 0.00 in0.0 mm 0.00 in0.0 mm 0.00 in0.0 mm
12:51 AM 32.0°F0.0°C 26.8°F-2.9°C 81% 3.6 mph WSW5.8 kmh WSW 4.0 mph6.4 kmh 29.76 in1007.8 mb 0.00 in0.0 mm 0.00 in0.0 mm 0.00 in0.0 mm
12:52 AM 31.9°F-0.1°C 26.7°F-2.9°C 81% 3.7 mph WSW6.0 kmh WSW 4.0 mph6.4 kmh 29.76 in1007.8 mb 0.00 in0.0 mm 0.00 in0.0 mm 0.00 in0.0 mm
12:53 AM 31.9°F-0.1°C 26.7°F-2.9°C 81% 3.7 mph WSW6.0 kmh WSW 4.0 mph6.4 kmh 29.76 in1007.8 mb 0.00 in0.0 mm 0.00 in0.0 mm 0.00 in0.0 mm
12:54 AM 31.8°F-0.1°C 26.6°F-3.0°C 81% 3.9 mph WSW6.3 kmh WSW 5.0 mph8.0 kmh 29.76 in1007.8 mb 0.00 in0.0 mm 0.00 in0.0 mm 0.00 in0.0 mm
12:55 AM 31.8°F-0.1°C 26.6°F-3.0°C 81% 3.9 mph WSW6.3 kmh WSW 5.0 mph8.0 kmh 29.76 in1007.8 mb 0.00 in0.0 mm 0.00 in0.0 mm 0.00 in0.0 mm
12:56 AM 31.8°F-0.1°C 26.6°F-3.0°C 81% 3.3 mph WSW5.3 kmh WSW 5.0 mph8.0 kmh 29.76 in1007.8 mb 0.00 in0.0 mm 0.00 in0.0 mm 0.00 in0.0 mm
12:57 AM 31.8°F-0.1°C 26.6°F-3.0°C 81% 3.1 mph WSW5.0 kmh WSW 4.0 mph6.4 kmh 29.76 in1007.8 mb 0.00 in0.0 mm 0.00 in0.0 mm 0.00 in0.0 mm
12:58 AM 31.8°F-0.1°C 26.6°F-3.0°C 81% 3.5 mph WSW5.6 kmh WSW 4.0 mph6.4 kmh 29.76 in1007.8 mb 0.00 in0.0 mm 0.00 in0.0 mm 0.00 in0.0 mm
12:59 AM 31.7°F-0.2°C 26.5°F-3.1°C 81% 3.1 mph WSW5.0 kmh WSW 4.0 mph6.4 kmh 29.76 in1007.8 mb 0.00 in0.0 mm 0.00 in0.0 mm 0.00 in0.0 mm
01:00 AM 31.7°F-0.2°C 26.5°F-3.1°C 81% 3.0 mph SW4.8 kmh SW 4.0 mph6.4 kmh 29.76 in1007.8 mb 0.00 in0.0 mm 0.00 in0.0 mm 0.00 in0.0 mm
01:01 AM 31.7°F-0.2°C 26.5°F-3.1°C 81% 3.2 mph SW5.1 kmh SW 4.0 mph6.4 kmh 29.76 in1007.8 mb 0.00 in0.0 mm 0.00 in0.0 mm 0.00 in0.0 mm
01:02 AM 31.6°F-0.2°C 26.2°F-3.2°C 80% 2.9 mph SW4.7 kmh SW 4.0 mph6.4 kmh 29.76 in1007.8 mb 0.00 in0.0 mm 0.00 in0.0 mm 0.00 in0.0 mm
01:03 AM 31.5°F-0.3°C 26.1°F-3.3°C 80% 2.5 mph SW4.0 kmh SW 4.0 mph6.4 kmh 29.76 in1007.8 mb 0.00 in0.0 mm 0.00 in0.0 mm 0.00 in0.0 mm
01:04 AM 31.5°F-0.3°C 26.1°F-3.3°C 80% 2.7 mph SW4.3 kmh SW 4.0 mph6.4 kmh 29.76 in1007.8 mb 0.00 in0.0 mm 0.00 in0.0 mm 0.00 in0.0 mm
01:05 AM 31.4°F-0.3°C 26.0°F-3.3°C 80% 2.5 mph SW4.0 kmh SW 4.0 mph6.4 kmh 29.76 in1007.8 mb 0.00 in0.0 mm 0.00 in0.0 mm 0.00 in0.0 mm
01:06 AM 31.3°F-0.4°C 25.9°F-3.4°C 80% 2.7 mph SW4.3 kmh SW 4.0 mph6.4 kmh 29.76 in1007.8 mb 0.00 in0.0 mm 0.00 in0.0 mm 0.00 in0.0 mm
01:07 AM 31.3°F-0.4°C 25.9°F-3.4°C 80% 2.6 mph SW4.2 kmh SW 4.0 mph6.4 kmh 29.76 in1007.8 mb 0.00 in0.0 mm 0.00 in0.0 mm 0.00 in0.0 mm
01:08 AM 31.3°F-0.4°C 26.2°F-3.2°C 81% 3.0 mph SW4.8 kmh SW 4.0 mph6.4 kmh 29.76 in1007.8 mb 0.00 in0.0 mm 0.00 in0.0 mm 0.00 in0.0 mm
01:09 AM 31.2°F-0.4°C 26.1°F-3.3°C 81% 2.9 mph SW4.7 kmh SW 4.0 mph6.4 kmh 29.76 in1007.8 mb 0.00 in0.0 mm 0.00 in0.0 mm 0.00 in0.0 mm
01:10 AM 31.1°F-0.5°C 26.0°F-3.3°C 81% 3.0 mph SW4.8 kmh SW 4.0 mph6.4 kmh 29.76 in1007.8 mb 0.00 in0.0 mm 0.00 in0.0 mm 0.00 in0.0 mm
01:11 AM 31.0°F-0.6°C 25.9°F-3.4°C 81% 3.1 mph SW5.0 kmh SW 4.0 mph6.4 kmh 29.76 in1007.8 mb 0.00 in0.0 mm 0.00 in0.0 mm 0.00 in0.0 mm
01:12 AM 31.0°F-0.6°C 25.9°F-3.4°C 81% 3.3 mph SW5.3 kmh SW 4.0 mph6.4 kmh 29.76 in1007.8 mb 0.00 in0.0 mm 0.00 in0.0 mm 0.00 in0.0 mm
01:13 AM 31.0°F-0.6°C 25.9°F-3.4°C 81% 3.3 mph SW5.3 kmh SW 4.0 mph6.4 kmh 29.76 in1007.8 mb 0.00 in0.0 mm 0.00 in0.0 mm 0.00 in0.0 mm
01:14 AM 31.0°F-0.6°C 25.9°F-3.4°C 81% 3.2 mph SW5.1 kmh SW 4.0 mph6.4 kmh 29.76 in1007.8 mb 0.00 in0.0 mm 0.00 in0.0 mm 0.00 in0.0 mm
01:15 AM 30.9°F-0.6°C 25.8°F-3.4°C 81% 2.8 mph SW4.5 kmh SW 4.0 mph6.4 kmh 29.76 in1007.8 mb 0.00 in0.0 mm 0.00 in0.0 mm 0.00 in0.0 mm
01:16 AM 30.8°F-0.7°C 25.7°F-3.5°C 81% 3.1 mph SW5.0 kmh SW 4.0 mph6.4 kmh 29.76 in1007.8 mb 0.00 in0.0 mm 0.00 in0.0 mm 0.00 in0.0 mm
01:17 AM 30.8°F-0.7°C 26.0°F-3.3°C 82% 3.0 mph SW4.8 kmh SW 4.0 mph6.4 kmh 29.76 in1007.8 mb 0.00 in0.0 mm 0.00 in0.0 mm 0.00 in0.0 mm
01:18 AM 30.8°F-0.7°C 26.0°F-3.3°C 82% 2.9 mph SW4.7 kmh SW 4.0 mph6.4 kmh 29.76 in1007.8 mb 0.00 in0.0 mm 0.00 in0.0 mm 0.00 in0.0 mm
01:19 AM 30.8°F-0.7°C 26.0°F-3.3°C 82% 2.6 mph SW4.2 kmh SW 4.0 mph6.4 kmh 29.76 in1007.8 mb 0.00 in0.0 mm 0.00 in0.0 mm 0.00 in0.0 mm
01:20 AM 30.8°F-0.7°C 26.0°F-3.3°C 82% 2.7 mph SW4.3 kmh SW 4.0 mph6.4 kmh 29.76 in1007.8 mb 0.00 in0.0 mm 0.00 in0.0 mm 0.00 in0.0 mm
01:21 AM 30.8°F-0.7°C 26.0°F-3.3°C 82% 2.9 mph SW4.7 kmh SW 4.0 mph6.4 kmh 29.76 in1007.8 mb 0.00 in0.0 mm 0.00 in0.0 mm 0.00 in0.0 mm
01:22 AM 30.8°F-0.7°C 26.0°F-3.3°C 82% 3.5 mph SW5.6 kmh SW 4.0 mph6.4 kmh 29.76 in1007.8 mb 0.00 in0.0 mm 0.00 in0.0 mm 0.00 in0.0 mm
01:23 AM 30.7°F-0.7°C 25.9°F-3.4°C 82% 2.9 mph SW4.7 kmh SW 4.0 mph6.4 kmh 29.76 in1007.8 mb 0.00 in0.0 mm 0.00 in0.0 mm 0.00 in0.0 mm
01:24 AM 30.7°F-0.7°C 25.9°F-3.4°C 82% 2.7 mph SW4.3 kmh SW 4.0 mph6.4 kmh 29.76 in1007.8 mb 0.00 in0.0 mm 0.00 in0.0 mm 0.00 in0.0 mm
01:25 AM 30.6°F-0.8°C 25.8°F-3.4°C 82% 3.2 mph SW5.1 kmh SW 4.0 mph6.4 kmh 29.76 in1007.8 mb 0.00 in0.0 mm 0.00 in0.0 mm 0.00 in0.0 mm
01:26 AM 30.6°F-0.8°C 25.8°F-3.4°C 82% 2.5 mph SW4.0 kmh SW 4.0 mph6.4 kmh 29.76 in1007.8 mb 0.00 in0.0 mm 0.00 in0.0 mm 0.00 in0.0 mm
01:27 AM 30.5°F-0.8°C 25.7°F-3.5°C 82% 2.6 mph SW4.2 kmh SW 3.0 mph4.8 kmh 29.76 in1007.8 mb 0.00 in0.0 mm 0.00 in0.0 mm 0.00 in0.0 mm
01:28 AM 30.5°F-0.8°C 25.7°F-3.5°C 82% 2.6 mph SW4.2 kmh SW 3.0 mph4.8 kmh 29.76 in1007.8 mb 0.00 in0.0 mm 0.00 in0.0 mm 0.00 in0.0 mm
01:29 AM 30.4°F-0.9°C 25.6°F-3.6°C 82% 2.3 mph SW3.7 kmh SW 3.0 mph4.8 kmh 29.76 in1007.8 mb 0.00 in0.0 mm 0.00 in0.0 mm 0.00 in0.0 mm
01:30 AM 30.4°F-0.9°C 25.6°F-3.6°C 82% 2.4 mph SW3.9 kmh SW 3.0 mph4.8 kmh 29.75 in1007.5 mb 0.00 in0.0 mm 0.00 in0.0 mm 0.00 in0.0 mm
01:31 AM 30.3°F-0.9°C 25.5°F-3.6°C 82% 2.2 mph SW3.5 kmh SW 3.0 mph4.8 kmh 29.75 in1007.5 mb 0.00 in0.0 mm 0.00 in0.0 mm 0.00 in0.0 mm
01:32 AM 30.2°F-1.0°C 25.4°F-3.7°C 82% 2.6 mph SW4.2 kmh SW 4.0 mph6.4 kmh 29.75 in1007.5 mb 0.00 in0.0 mm 0.00 in0.0 mm 0.00 in0.0 mm
01:33 AM 30.2°F-1.0°C 25.4°F-3.7°C 82% 2.4 mph SW3.9 kmh SW 4.0 mph6.4 kmh 29.75 in1007.5 mb 0.00 in0.0 mm 0.00 in0.0 mm 0.00 in0.0 mm
01:34 AM 30.2°F-1.0°C 25.4°F-3.7°C 82% 2.2 mph SW3.5 kmh SW 3.0 mph4.8 kmh 29.75 in1007.5 mb 0.00 in0.0 mm 0.00 in0.0 mm 0.00 in0.0 mm
01:35 AM 30.0°F-1.1°C 25.5°F-3.6°C 83% 2.3 mph SW3.7 kmh SW 3.0 mph4.8 kmh 29.75 in1007.5 mb 0.00 in0.0 mm 0.00 in0.0 mm 0.00 in0.0 mm
01:36 AM 29.9°F-1.2°C 25.1°F-3.8°C 82% 2.1 mph SW3.4 kmh SW 3.0 mph4.8 kmh 29.75 in1007.5 mb 0.00 in0.0 mm 0.00 in0.0 mm 0.00 in0.0 mm
01:37 AM 29.9°F-1.2°C 25.1°F-3.8°C 82% 2.6 mph SW4.2 kmh SW 4.0 mph6.4 kmh 29.75 in1007.5 mb 0.00 in0.0 mm 0.00 in0.0 mm 0.00 in0.0 mm
01:38 AM 29.8°F-1.2°C 25.0°F-3.9°C 82% 3.2 mph SW5.1 kmh SW 4.0 mph6.4 kmh 29.75 in1007.5 mb 0.00 in0.0 mm 0.00 in0.0 mm 0.00 in0.0 mm
01:39 AM 29.8°F-1.2°C 25.3°F-3.7°C 83% 3.2 mph SW5.1 kmh SW 4.0 mph6.4 kmh 29.75 in1007.5 mb 0.00 in0.0 mm 0.00 in0.0 mm 0.00 in0.0 mm
01:40 AM 29.7°F-1.3°C 25.2°F-3.8°C 83% 3.2 mph SW5.1 kmh SW 4.0 mph6.4 kmh 29.75 in1007.5 mb 0.00 in0.0 mm 0.00 in0.0 mm 0.00 in0.0 mm
01:41 AM 29.7°F-1.3°C 25.2°F-3.8°C 83% 3.6 mph SW5.8 kmh SW 4.0 mph6.4 kmh 29.75 in1007.5 mb 0.00 in0.0 mm 0.00 in0.0 mm 0.00 in0.0 mm
01:42 AM 29.6°F-1.3°C 25.1°F-3.8°C 83% 3.7 mph SW6.0 kmh SW 4.0 mph6.4 kmh 29.75 in1007.5 mb 0.00 in0.0 mm 0.00 in0.0 mm 0.00 in0.0 mm
01:43 AM 29.6°F-1.3°C 25.1°F-3.8°C 83% 3.6 mph SW5.8 kmh SW 5.0 mph8.0 kmh 29.75 in1007.5 mb 0.00 in0.0 mm 0.00 in0.0 mm 0.00 in0.0 mm
01:44 AM 29.6°F-1.3°C 25.4°F-3.7°C 84% 3.5 mph SW5.6 kmh SW 5.0 mph8.0 kmh 29.75 in1007.5 mb 0.00 in0.0 mm 0.00 in0.0 mm 0.00 in0.0 mm
01:45 AM 29.6°F-1.3°C 25.4°F-3.7°C 84% 3.1 mph SW5.0 kmh SW 5.0 mph8.0 kmh 29.75 in1007.5 mb 0.00 in0.0 mm 0.00 in0.0 mm 0.00 in0.0 mm
01:46 AM 29.6°F-1.3°C 25.4°F-3.7°C 84% 2.8 mph SW4.5 kmh SW 4.0 mph6.4 kmh 29.75 in1007.5 mb 0.00 in0.0 mm 0.00 in0.0 mm 0.00 in0.0 mm
01:47 AM 29.6°F-1.3°C 25.4°F-3.7°C 84% 2.0 mph SW3.2 kmh SW 4.0 mph6.4 kmh 29.75 in1007.5 mb 0.00 in0.0 mm 0.00 in0.0 mm 0.00 in0.0 mm
01:48 AM 29.6°F-1.3°C 25.4°F-3.7°C 84% 2.5 mph SW4.0 kmh SW 3.0 mph4.8 kmh 29.75 in1007.5 mb 0.00 in0.0 mm 0.00 in0.0 mm 0.00 in0.0 mm
01:49 AM 29.6°F-1.3°C 25.4°F-3.7°C 84% 2.0 mph SW3.2 kmh SW 3.0 mph4.8 kmh 29.75 in1007.5 mb 0.00 in0.0 mm 0.00 in0.0 mm 0.00 in0.0 mm
01:50 AM 29.5°F-1.4°C 25.3°F-3.7°C 84% 2.0 mph SW3.2 kmh SW 3.0 mph4.8 kmh 29.75 in1007.5 mb 0.00 in0.0 mm 0.00 in0.0 mm 0.00 in0.0 mm
01:51 AM 29.6°F-1.3°C 25.4°F-3.7°C 84% 1.5 mph SW2.4 kmh SW 3.0 mph4.8 kmh 29.75 in1007.5 mb 0.00 in0.0 mm 0.00 in0.0 mm 0.00 in0.0 mm
01:52 AM 29.5°F-1.4°C 25.3°F-3.7°C 84% 2.1 mph SW3.4 kmh SW 3.0 mph4.8 kmh 29.75 in1007.5 mb 0.00 in0.0 mm 0.00 in0.0 mm 0.00 in0.0 mm
01:53 AM 29.5°F-1.4°C 25.3°F-3.7°C 84% 1.9 mph SW3.1 kmh SW 3.0 mph4.8 kmh 29.75 in1007.5 mb 0.00 in0.0 mm 0.00 in0.0 mm 0.00 in0.0 mm
01:54 AM 29.4°F-1.4°C 25.2°F-3.8°C 84% 1.9 mph SW3.1 kmh SW 3.0 mph4.8 kmh 29.75 in1007.5 mb 0.00 in0.0 mm 0.00 in0.0 mm 0.00 in0.0 mm
01:55 AM 29.4°F-1.4°C 25.2°F-3.8°C 84% 1.6 mph SW2.6 kmh SW 3.0 mph4.8 kmh 29.75 in1007.5 mb 0.00 in0.0 mm 0.00 in0.0 mm 0.00 in0.0 mm
01:56 AM 29.4°F-1.4°C 25.2°F-3.8°C 84% 2.2 mph SW3.5 kmh SW 3.0 mph4.8 kmh 29.75 in1007.5 mb 0.00 in0.0 mm 0.00 in0.0 mm 0.00 in0.0 mm
01:57 AM 29.4°F-1.4°C 25.2°F-3.8°C 84% 2.2 mph SW3.5 kmh SW 3.0 mph4.8 kmh 29.75 in1007.5 mb 0.00 in0.0 mm 0.00 in0.0 mm 0.00 in0.0 mm
01:58 AM 29.4°F-1.4°C 25.5°F-3.6°C 85% 1.9 mph SW3.1 kmh SW 3.0 mph4.8 kmh 29.75 in1007.5 mb 0.00 in0.0 mm 0.00 in0.0 mm 0.00 in0.0 mm
01:59 AM 29.4°F-1.4°C 25.5°F-3.6°C 85% 2.0 mph SW3.2 kmh SW 3.0 mph4.8 kmh 29.75 in1007.5 mb 0.00 in0.0 mm 0.00 in0.0 mm 0.00 in0.0 mm
02:00 AM 29.4°F-1.4°C 25.5°F-3.6°C 85% 2.0 mph SW3.2 kmh SW 3.0 mph4.8 kmh 29.75 in1007.5 mb 0.00 in0.0 mm 0.00 in0.0 mm 0.00 in0.0 mm
02:01 AM 29.4°F-1.4°C 25.5°F-3.6°C 85% 1.6 mph SW2.6 kmh SW 3.0 mph4.8 kmh 29.75 in1007.5 mb 0.00 in0.0 mm 0.00 in0.0 mm 0.00 in0.0 mm
02:02 AM 29.5°F-1.4°C 25.6°F-3.6°C 85% 1.8 mph SW2.9 kmh SW 2.0 mph3.2 kmh 29.75 in1007.5 mb 0.00 in0.0 mm 0.00 in0.0 mm 0.00 in0.0 mm
02:03 AM 29.4°F-1.4°C 25.5°F-3.6°C 85% 2.1 mph SW3.4 kmh SW 3.0 mph4.8 kmh 29.75 in1007.5 mb 0.00 in0.0 mm 0.00 in0.0 mm 0.00 in0.0 mm
02:04 AM 29.4°F-1.4°C 25.5°F-3.6°C 85% 2.2 mph SW3.5 kmh SW 3.0 mph4.8 kmh 29.75 in1007.5 mb 0.00 in0.0 mm 0.00 in0.0 mm 0.00 in0.0 mm
02:05 AM 29.4°F-1.4°C 25.5°F-3.6°C 85% 2.2 mph SW3.5 kmh SW 3.0 mph4.8 kmh 29.75 in1007.5 mb 0.00 in0.0 mm 0.00 in0.0 mm 0.00 in0.0 mm
02:06 AM 29.3°F-1.5°C 25.4°F-3.7°C 85% 2.6 mph SW4.2 kmh SW 3.0 mph4.8 kmh 29.75 in1007.5 mb 0.00 in0.0 mm 0.00 in0.0 mm 0.00 in0.0 mm
02:07 AM 29.3°F-1.5°C 25.4°F-3.7°C 85% 2.4 mph SW3.9 kmh SW 3.0 mph4.8 kmh 29.75 in1007.5 mb 0.00 in0.0 mm 0.00 in0.0 mm 0.00 in0.0 mm
02:08 AM 29.3°F-1.5°C 25.4°F-3.7°C 85% 2.3 mph SW3.7 kmh SW 3.0 mph4.8 kmh 29.75 in1007.5 mb 0.00 in0.0 mm 0.00 in0.0 mm 0.00 in0.0 mm
02:09 AM 29.2°F-1.6°C 25.3°F-3.7°C 85% 2.5 mph SW4.0 kmh SW 3.0 mph4.8 kmh 29.75 in1007.5 mb 0.00 in0.0 mm 0.00 in0.0 mm 0.00 in0.0 mm
02:10 AM 29.1°F-1.6°C 25.2°F-3.8°C 85% 2.4 mph SW3.9 kmh SW 3.0 mph4.8 kmh 29.75 in1007.5 mb 0.00 in0.0 mm 0.00 in0.0 mm 0.00 in0.0 mm
02:11 AM 29.1°F-1.6°C 25.2°F-3.8°C 85% 3.2 mph SW5.1 kmh SW 4.0 mph6.4 kmh 29.75 in1007.5 mb 0.00 in0.0 mm 0.00 in0.0 mm 0.00 in0.0 mm
02:12 AM 29.1°F-1.6°C 25.2°F-3.8°C 85% 3.4 mph SSW5.5 kmh SSW 4.0 mph6.4 kmh 29.75 in1007.5 mb 0.00 in0.0 mm 0.00 in0.0 mm 0.00 in0.0 mm
02:13 AM 29.1°F-1.6°C 25.2°F-3.8°C 85% 2.9 mph SSW4.7 kmh SSW 4.0 mph6.4 kmh 29.75 in1007.5 mb 0.00 in0.0 mm 0.00 in0.0 mm 0.00 in0.0 mm
02:14 AM 29.0°F-1.7°C 25.1°F-3.8°C 85% 3.5 mph SSW5.6 kmh SSW 4.0 mph6.4 kmh 29.75 in1007.5 mb 0.00 in0.0 mm 0.00 in0.0 mm 0.00 in0.0 mm
02:15 AM 29.0°F-1.7°C 25.1°F-3.8°C 85% 3.6 mph SSW5.8 kmh SSW 4.0 mph6.4 kmh 29.75 in1007.5 mb 0.00 in0.0 mm 0.00 in0.0 mm 0.00 in0.0 mm
02:16 AM 28.9°F-1.7°C 25.0°F-3.9°C 85% 3.5 mph S5.6 kmh S 4.0 mph6.4 kmh 29.75 in1007.5 mb 0.00 in0.0 mm 0.00 in0.0 mm 0.00 in0.0 mm
02:17 AM 28.9°F-1.7°C 25.0°F-3.9°C 85% 2.8 mph S4.5 kmh S 4.0 mph6.4 kmh 29.75 in1007.5 mb 0.00 in0.0 mm 0.00 in0.0 mm 0.00 in0.0 mm
02:18 AM 28.8°F-1.8°C 24.9°F-3.9°C 85% 3.5 mph S5.6 kmh S 4.0 mph6.4 kmh 29.75 in1007.5 mb 0.00 in0.0 mm 0.00 in0.0 mm 0.00 in0.0 mm
02:19 AM 28.8°F-1.8°C 24.9°F-3.9°C 85% 3.3 mph S5.3 kmh S 4.0 mph6.4 kmh 29.75 in1007.5 mb 0.00 in0.0 mm 0.00 in0.0 mm 0.00 in0.0 mm
02:20 AM 28.8°F-1.8°C 24.9°F-3.9°C 85% 3.2 mph S5.1 kmh S 4.0 mph6.4 kmh 29.75 in1007.5 mb 0.00 in0.0 mm 0.00 in0.0 mm 0.00 in0.0 mm
02:21 AM 28.8°F-1.8°C 24.9°F-3.9°C 85% 3.2 mph S5.1 kmh S 4.0 mph6.4 kmh 29.75 in1007.5 mb 0.00 in0.0 mm 0.00 in0.0 mm 0.00 in0.0 mm
02:22 AM 28.7°F-1.8°C 24.8°F-4.0°C 85% 2.9 mph S4.7 kmh S 4.0 mph6.4 kmh 29.75 in1007.5 mb 0.00 in0.0 mm 0.00 in0.0 mm 0.00 in0.0 mm
02:23 AM 28.7°F-1.8°C 24.8°F-4.0°C 85% 2.7 mph S4.3 kmh S 3.0 mph4.8 kmh 29.75 in1007.5 mb 0.00 in0.0 mm 0.00 in0.0 mm 0.00 in0.0 mm
02:24 AM 28.7°F-1.8°C 24.8°F-4.0°C 85% 2.4 mph S3.9 kmh S 3.0 mph4.8 kmh 29.75 in1007.5 mb 0.00 in0.0 mm 0.00 in0.0 mm 0.00 in0.0 mm
02:25 AM 28.6°F-1.9°C 24.7°F-4.1°C 85% 2.7 mph S4.3 kmh S 3.0 mph4.8 kmh 29.75 in1007.5 mb 0.00 in0.0 mm 0.00 in0.0 mm 0.00 in0.0 mm
02:26 AM 28.6°F-1.9°C 24.7°F-4.1°C 85% 2.4 mph S3.9 kmh S 3.0 mph4.8 kmh 29.75 in1007.5 mb 0.00 in0.0 mm 0.00 in0.0 mm 0.00 in0.0 mm
02:27 AM 28.5°F-1.9°C 24.6°F-4.1°C 85% 2.6 mph S4.2 kmh S 3.0 mph4.8 kmh 29.75 in1007.5 mb 0.00 in0.0 mm 0.00 in0.0 mm 0.00 in0.0 mm
02:28 AM 28.6°F-1.9°C 25.0°F-3.9°C 86% 3.0 mph S4.8 kmh S 4.0 mph6.4 kmh 29.75 in1007.5 mb 0.00 in0.0 mm 0.00 in0.0 mm 0.00 in0.0 mm
02:29 AM 28.5°F-1.9°C 24.9°F-3.9°C 86% 3.1 mph S5.0 kmh S 4.0 mph6.4 kmh 29.75 in1007.5 mb 0.00 in0.0 mm 0.00 in0.0 mm 0.00 in0.0 mm
02:30 AM 28.5°F-1.9°C 24.9°F-3.9°C 86% 3.6 mph S5.8 kmh S 4.0 mph6.4 kmh 29.75 in1007.5 mb 0.00 in0.0 mm 0.00 in0.0 mm 0.00 in0.0 mm
02:31 AM 28.6°F-1.9°C 25.0°F-3.9°C 86% 2.9 mph S4.7 kmh S 4.0 mph6.4 kmh 29.75 in1007.5 mb 0.00 in0.0 mm 0.00 in0.0 mm 0.00 in0.0 mm
02:32 AM 28.5°F-1.9°C 24.9°F-3.9°C 86% 3.4 mph S5.5 kmh S 4.0 mph6.4 kmh 29.75 in1007.5 mb 0.00 in0.0 mm 0.00 in0.0 mm 0.00 in0.0 mm
02:33 AM 28.4°F-2.0°C 24.8°F-4.0°C 86% 3.7 mph S6.0 kmh S 4.0 mph6.4 kmh 29.75 in1007.5 mb 0.00 in0.0 mm 0.00 in0.0 mm 0.00 in0.0 mm
02:34 AM 28.4°F-2.0°C 24.8°F-4.0°C 86% 3.5 mph S5.6 kmh S 4.0 mph6.4 kmh 29.75 in1007.5 mb 0.00 in0.0 mm 0.00 in0.0 mm 0.00 in0.0 mm
02:35 AM 28.3°F-2.1°C 24.7°F-4.1°C 86% 3.5 mph S5.6 kmh S 4.0 mph6.4 kmh 29.75 in1007.5 mb 0.00 in0.0 mm 0.00 in0.0 mm 0.00 in0.0 mm
02:36 AM 28.4°F-2.0°C 24.8°F-4.0°C 86% 3.6 mph S5.8 kmh S 4.0 mph6.4 kmh 29.74 in1007.1 mb 0.00 in0.0 mm 0.00 in0.0 mm 0.00 in0.0 mm
02:37 AM 28.3°F-2.1°C 24.7°F-4.1°C 86% 3.5 mph S5.6 kmh S 4.0 mph6.4 kmh 29.75 in1007.5 mb 0.00 in0.0 mm 0.00 in0.0 mm 0.00 in0.0 mm
02:38 AM 28.3°F-2.1°C 24.7°F-4.1°C 86% 3.7 mph S6.0 kmh S 4.0 mph6.4 kmh 29.75 in1007.5 mb 0.00 in0.0 mm 0.00 in0.0 mm 0.00 in0.0 mm
02:39 AM 28.3°F-2.1°C 24.7°F-4.1°C 86% 3.7 mph S6.0 kmh S 5.0 mph8.0 kmh 29.74 in1007.1 mb 0.00 in0.0 mm 0.00 in0.0 mm 0.00 in0.0 mm
02:40 AM 28.3°F-2.1°C 24.9°F-3.9°C 87% 3.1 mph S5.0 kmh S 5.0 mph8.0 kmh 29.74 in1007.1 mb 0.00 in0.0 mm 0.00 in0.0 mm 0.00 in0.0 mm
02:41 AM 28.3°F-2.1°C 24.9°F-3.9°C 87% 3.2 mph S5.1 kmh S 4.0 mph6.4 kmh 29.74 in1007.1 mb 0.00 in0.0 mm 0.00 in0.0 mm 0.00 in0.0 mm
02:42 AM 28.3°F-2.1°C 24.9°F-3.9°C 87% 2.9 mph S4.7 kmh S 4.0 mph6.4 kmh 29.74 in1007.1 mb 0.00 in0.0 mm 0.00 in0.0 mm 0.00 in0.0 mm
02:43 AM 28.4°F-2.0°C 25.0°F-3.9°C 87% 3.2 mph S5.1 kmh S 4.0 mph6.4 kmh 29.75 in1007.5 mb 0.00 in0.0 mm 0.00 in0.0 mm 0.00 in0.0 mm
02:44 AM 28.4°F-2.0°C 25.0°F-3.9°C 87% 3.3 mph S5.3 kmh S 4.0 mph6.4 kmh 29.74 in1007.1 mb 0.00 in0.0 mm 0.00 in0.0 mm 0.00 in0.0 mm
02:45 AM 28.4°F-2.0°C 25.0°F-3.9°C 87% 3.0 mph S4.8 kmh S 5.0 mph8.0 kmh 29.75 in1007.5 mb 0.00 in0.0 mm 0.00 in0.0 mm 0.00 in0.0 mm
02:46 AM 28.5°F-1.9°C 25.1°F-3.8°C 87% 2.7 mph S4.3 kmh S 5.0 mph8.0 kmh 29.75 in1007.5 mb 0.00 in0.0 mm 0.00 in0.0 mm 0.00 in0.0 mm
02:47 AM 28.5°F-1.9°C 25.1°F-3.8°C 87% 2.6 mph S4.2 kmh S 4.0 mph6.4 kmh 29.75 in1007.5 mb 0.00 in0.0 mm 0.00 in0.0 mm 0.00 in0.0 mm
02:48 AM 28.6°F-1.9°C 25.5°F-3.6°C 88% 2.9 mph S4.7 kmh S 4.0 mph6.4 kmh 29.74 in1007.1 mb 0.00 in0.0 mm 0.00 in0.0 mm 0.00 in0.0 mm
02:49 AM 28.7°F-1.8°C 25.6°F-3.6°C 88% 2.5 mph S4.0 kmh S 4.0 mph6.4 kmh 29.74 in1007.1 mb 0.00 in0.0 mm 0.00 in0.0 mm 0.00 in0.0 mm
02:50 AM 28.8°F-1.8°C 25.4°F-3.7°C 87% 2.0 mph S3.2 kmh S 4.0 mph6.4 kmh 29.74 in1007.1 mb 0.00 in0.0 mm 0.00 in0.0 mm 0.00 in0.0 mm
02:51 AM 28.8°F-1.8°C 25.7°F-3.5°C 88% 2.1 mph S3.4 kmh S 3.0 mph4.8 kmh 29.74 in1007.1 mb 0.00 in0.0 mm 0.00 in0.0 mm 0.00 in0.0 mm
02:52 AM 28.8°F-1.8°C 25.7°F-3.5°C 88% 2.2 mph S3.5 kmh S 3.0 mph4.8 kmh 29.74 in1007.1 mb 0.00 in0.0 mm 0.00 in0.0 mm 0.00 in0.0 mm
02:53 AM 28.8°F-1.8°C 25.4°F-3.7°C 87% 2.0 mph S3.2 kmh S 3.0 mph4.8 kmh 29.74 in1007.1 mb 0.00 in0.0 mm 0.00 in0.0 mm 0.00 in0.0 mm
02:54 AM 28.8°F-1.8°C 25.4°F-3.7°C 87% 2.4 mph S3.9 kmh S 3.0 mph4.8 kmh 29.74 in1007.1 mb 0.00 in0.0 mm 0.00 in0.0 mm 0.00 in0.0 mm
02:55 AM 28.8°F-1.8°C 25.4°F-3.7°C 87% 2.1 mph S3.4 kmh S 3.0 mph4.8 kmh 29.74 in1007.1 mb 0.00 in0.0 mm 0.00 in0.0 mm 0.00 in0.0 mm
02:56 AM 28.8°F-1.8°C 25.4°F-3.7°C 87% 1.7 mph S2.7 kmh S 3.0 mph4.8 kmh 29.74 in1007.1 mb 0.00 in0.0 mm 0.00 in0.0 mm 0.00 in0.0 mm
02:57 AM 28.7°F-1.8°C 25.3°F-3.7°C 87% 2.0 mph S3.2 kmh S 3.0 mph4.8 kmh 29.74 in1007.1 mb 0.00 in0.0 mm 0.00 in0.0 mm 0.00 in0.0 mm
02:58 AM 28.7°F-1.8°C 25.3°F-3.7°C 87% 2.5 mph S4.0 kmh S 3.0 mph4.8 kmh 29.74 in1007.1 mb 0.00 in0.0 mm 0.00 in0.0 mm 0.00 in0.0 mm
02:59 AM 28.6°F-1.9°C 25.2°F-3.8°C 87% 2.6 mph S4.2 kmh S 3.0 mph4.8 kmh 29.74 in1007.1 mb 0.00 in0.0 mm 0.00 in0.0 mm 0.00 in0.0 mm
03:00 AM 28.5°F-1.9°C 25.1°F-3.8°C 87% 2.5 mph S4.0 kmh S 3.0 mph4.8 kmh 29.74 in1007.1 mb 0.00 in0.0 mm 0.00 in0.0 mm 0.00 in0.0 mm
03:01 AM 28.4°F-2.0°C 25.0°F-3.9°C 87% 2.5 mph S4.0 kmh S 3.0 mph4.8 kmh 29.74 in1007.1 mb 0.00 in0.0 mm 0.00 in0.0 mm 0.00 in0.0 mm
03:02 AM 28.3°F-2.1°C 24.9°F-3.9°C 87% 2.8 mph S4.5 kmh S 4.0 mph6.4 kmh 29.74 in1007.1 mb 0.00 in0.0 mm 0.00 in0.0 mm 0.00 in0.0 mm
03:03 AM 28.3°F-2.1°C 24.9°F-3.9°C 87% 3.0 mph S4.8 kmh S 4.0 mph6.4 kmh 29.74 in1007.1 mb 0.00 in0.0 mm 0.00 in0.0 mm 0.00 in0.0 mm
03:04 AM 28.3°F-2.1°C 24.9°F-3.9°C 87% 2.0 mph S3.2 kmh S 3.0 mph4.8 kmh 29.74 in1007.1 mb 0.00 in0.0 mm 0.00 in0.0 mm 0.00 in0.0 mm
03:05 AM 28.2°F-2.1°C 24.8°F-4.0°C 87% 3.0 mph S4.8 kmh S 4.0 mph6.4 kmh 29.74 in1007.1 mb 0.00 in0.0 mm 0.00 in0.0 mm 0.00 in0.0 mm
03:06 AM 28.2°F-2.1°C 25.1°F-3.8°C 88% 2.8 mph S4.5 kmh S 4.0 mph6.4 kmh 29.74 in1007.1 mb 0.00 in0.0 mm 0.00 in0.0 mm 0.00 in0.0 mm
03:07 AM 28.2°F-2.1°C 25.1°F-3.8°C 88% 3.0 mph S4.8 kmh S 4.0 mph6.4 kmh 29.74 in1007.1 mb 0.00 in0.0 mm 0.00 in0.0 mm 0.00 in0.0 mm
03:08 AM 28.2°F-2.1°C 25.1°F-3.8°C 88% 2.7 mph S4.3 kmh S 4.0 mph6.4 kmh 29.74 in1007.1 mb 0.00 in0.0 mm 0.00 in0.0 mm 0.00 in0.0 mm
03:09 AM 28.1°F-2.2°C 25.0°F-3.9°C 88% 2.6 mph S4.2 kmh S 4.0 mph6.4 kmh 29.74 in1007.1 mb 0.00 in0.0 mm 0.00 in0.0 mm 0.00 in0.0 mm
03:10 AM 28.1°F-2.2°C 25.0°F-3.9°C 88% 2.1 mph S3.4 kmh S 3.0 mph4.8 kmh 29.74 in1007.1 mb 0.00 in0.0 mm 0.00 in0.0 mm 0.00 in0.0 mm
03:11 AM 28.1°F-2.2°C 24.7°F-4.1°C 87% 2.0 mph S3.2 kmh S 3.0 mph4.8 kmh 29.74 in1007.1 mb 0.00 in0.0 mm 0.00 in0.0 mm 0.00 in0.0 mm
03:12 AM 28.0°F-2.2°C 24.6°F-4.1°C 87% 2.0 mph S3.2 kmh S 3.0 mph4.8 kmh 29.74 in1007.1 mb 0.00 in0.0 mm 0.00 in0.0 mm 0.00 in0.0 mm
03:13 AM 28.0°F-2.2°C 24.6°F-4.1°C 87% 2.1 mph S3.4 kmh S 3.0 mph4.8 kmh 29.74 in1007.1 mb 0.00 in0.0 mm 0.00 in0.0 mm 0.00 in0.0 mm
03:14 AM 27.9°F-2.3°C 24.8°F-4.0°C 88% 1.8 mph S2.9 kmh S 3.0 mph4.8 kmh 29.74 in1007.1 mb 0.00 in0.0 mm 0.00 in0.0 mm 0.00 in0.0 mm
03:15 AM 27.9°F-2.3°C 24.8°F-4.0°C 88% 1.9 mph S3.1 kmh S 3.0 mph4.8 kmh 29.73 in1006.8 mb 0.00 in0.0 mm 0.00 in0.0 mm 0.00 in0.0 mm
03:16 AM 27.9°F-2.3°C 24.8°F-4.0°C 88% 2.0 mph S3.2 kmh S 3.0 mph4.8 kmh 29.73 in1006.8 mb 0.00 in0.0 mm 0.00 in0.0 mm 0.00 in0.0 mm
03:17 AM 27.9°F-2.3°C 24.8°F-4.0°C 88% 2.5 mph S4.0 kmh S 4.0 mph6.4 kmh 29.73 in1006.8 mb 0.00 in0.0 mm 0.00 in0.0 mm 0.00 in0.0 mm
03:18 AM 27.9°F-2.3°C 24.8°F-4.0°C 88% 2.6 mph S4.2 kmh S 4.0 mph6.4 kmh 29.74 in1007.1 mb 0.00 in0.0 mm 0.00 in0.0 mm 0.00 in0.0 mm
03:19 AM 28.0°F-2.2°C 24.9°F-3.9°C 88% 3.3 mph S5.3 kmh S 4.0 mph6.4 kmh 29.73 in1006.8 mb 0.00 in0.0 mm 0.00 in0.0 mm 0.00 in0.0 mm
03:20 AM 27.9°F-2.3°C 24.8°F-4.0°C 88% 3.2 mph S5.1 kmh S 4.0 mph6.4 kmh 29.73 in1006.8 mb 0.00 in0.0 mm 0.00 in0.0 mm 0.00 in0.0 mm
03:21 AM 27.9°F-2.3°C 24.8°F-4.0°C 88% 3.0 mph S4.8 kmh S 4.0 mph6.4 kmh 29.73 in1006.8 mb 0.00 in0.0 mm 0.00 in0.0 mm 0.00 in0.0 mm
03:22 AM 27.9°F-2.3°C 24.8°F-4.0°C 88% 2.5 mph S4.0 kmh S 3.0 mph4.8 kmh 29.73 in1006.8 mb 0.00 in0.0 mm 0.00 in0.0 mm 0.00 in0.0 mm
03:23 AM 27.9°F-2.3°C 24.8°F-4.0°C 88% 2.5 mph S4.0 kmh S 4.0 mph6.4 kmh 29.73 in1006.8 mb 0.00 in0.0 mm 0.00 in0.0 mm 0.00 in0.0 mm
03:24 AM 27.9°F-2.3°C 24.8°F-4.0°C 88% 2.5 mph S4.0 kmh S 4.0 mph6.4 kmh 29.73 in1006.8 mb 0.00 in0.0 mm 0.00 in0.0 mm 0.00 in0.0 mm
03:25 AM 28.0°F-2.2°C 24.9°F-3.9°C 88% 2.1 mph S3.4 kmh S 3.0 mph4.8 kmh 29.73 in1006.8 mb 0.00 in0.0 mm 0.00 in0.0 mm 0.00 in0.0 mm
03:26 AM 28.0°F-2.2°C 24.9°F-3.9°C 88% 2.1 mph S3.4 kmh S 3.0 mph4.8 kmh 29.73 in1006.8 mb 0.00 in0.0 mm 0.00 in0.0 mm 0.00 in0.0 mm
03:27 AM 28.0°F-2.2°C 24.9°F-3.9°C 88% 1.9 mph S3.1 kmh S 3.0 mph4.8 kmh 29.73 in1006.8 mb 0.00 in0.0 mm 0.00 in0.0 mm 0.00 in0.0 mm
03:28 AM 28.1°F-2.2°C 25.0°F-3.9°C 88% 2.0 mph S3.2 kmh S 3.0 mph4.8 kmh 29.73 in1006.8 mb 0.00 in0.0 mm 0.00 in0.0 mm 0.00 in0.0 mm
03:29 AM 28.1°F-2.2°C 25.0°F-3.9°C 88% 2.2 mph S3.5 kmh S 3.0 mph4.8 kmh 29.73 in1006.8 mb 0.00 in0.0 mm 0.00 in0.0 mm 0.00 in0.0 mm
03:30 AM 28.1°F-2.2°C 25.0°F-3.9°C 88% 2.3 mph S3.7 kmh S 3.0 mph4.8 kmh 29.73 in1006.8 mb 0.00 in0.0 mm 0.00 in0.0 mm 0.00 in0.0 mm
03:31 AM 28.1°F-2.2°C 25.0°F-3.9°C 88% 2.2 mph S3.5 kmh S 3.0 mph4.8 kmh 29.73 in1006.8 mb 0.00 in0.0 mm 0.00 in0.0 mm 0.00 in0.0 mm
03:32 AM 28.0°F-2.2°C 24.9°F-3.9°C 88% 2.2 mph S3.5 kmh S 3.0 mph4.8 kmh 29.73 in1006.8 mb 0.00 in0.0 mm 0.00 in0.0 mm 0.00 in0.0 mm
03:33 AM 28.0°F-2.2°C 24.9°F-3.9°C 88% 2.4 mph S3.9 kmh S 4.0 mph6.4 kmh 29.73 in1006.8 mb 0.00 in0.0 mm 0.00 in0.0 mm 0.00 in0.0 mm
03:34 AM 28.0°F-2.2°C 24.9°F-3.9°C 88% 2.3 mph S3.7 kmh S 4.0 mph6.4 kmh 29.73 in1006.8 mb 0.00 in0.0 mm 0.00 in0.0 mm 0.00 in0.0 mm
03:35 AM 27.9°F-2.3°C 24.8°F-4.0°C 88% 2.0 mph S3.2 kmh S 3.0 mph4.8 kmh 29.73 in1006.8 mb 0.00 in0.0 mm 0.00 in0.0 mm 0.00 in0.0 mm
03:36 AM 27.9°F-2.3°C 24.8°F-4.0°C 88% 2.1 mph S3.4 kmh S 3.0 mph4.8 kmh 29.73 in1006.8 mb 0.00 in0.0 mm 0.00 in0.0 mm 0.00 in0.0 mm
03:37 AM 28.0°F-2.2°C 24.9°F-3.9°C 88% 2.4 mph S3.9 kmh S 3.0 mph4.8 kmh 29.73 in1006.8 mb 0.00 in0.0 mm 0.00 in0.0 mm 0.00 in0.0 mm
03:38 AM 28.0°F-2.2°C 24.9°F-3.9°C 88% 2.5 mph S4.0 kmh S 3.0 mph4.8 kmh 29.73 in1006.8 mb 0.00 in0.0 mm 0.00 in0.0 mm 0.00 in0.0 mm
03:39 AM 27.9°F-2.3°C 25.1°F-3.8°C 89% 2.7 mph S4.3 kmh S 3.0 mph4.8 kmh 29.73 in1006.8 mb 0.00 in0.0 mm 0.00 in0.0 mm 0.00 in0.0 mm
03:40 AM 28.0°F-2.2°C 25.2°F-3.8°C 89% 3.8 mph S6.1 kmh S 5.0 mph8.0 kmh 29.73 in1006.8 mb 0.00 in0.0 mm 0.00 in0.0 mm 0.00 in0.0 mm
03:41 AM 28.1°F-2.2°C 25.3°F-3.7°C 89% 4.2 mph S6.8 kmh S 5.0 mph8.0 kmh 29.73 in1006.8 mb 0.00 in0.0 mm 0.00 in0.0 mm 0.00 in0.0 mm
03:42 AM 28.1°F-2.2°C 25.3°F-3.7°C 89% 4.4 mph SSW7.1 kmh SSW 5.0 mph8.0 kmh 29.73 in1006.8 mb 0.00 in0.0 mm 0.00 in0.0 mm 0.00 in0.0 mm
03:43 AM 28.2°F-2.1°C 25.4°F-3.7°C 89% 4.1 mph SSW6.6 kmh SSW 5.0 mph8.0 kmh 29.73 in1006.8 mb 0.00 in0.0 mm 0.00 in0.0 mm 0.00 in0.0 mm
03:44 AM 28.2°F-2.1°C 25.4°F-3.7°C 89% 4.2 mph SSW6.8 kmh SSW 5.0 mph8.0 kmh 29.73 in1006.8 mb 0.00 in0.0 mm 0.00 in0.0 mm 0.00 in0.0 mm
03:45 AM 28.2°F-2.1°C 25.4°F-3.7°C 89% 4.3 mph SSW6.9 kmh SSW 5.0 mph8.0 kmh 29.73 in1006.8 mb 0.00 in0.0 mm 0.00 in0.0 mm 0.00 in0.0 mm
03:46 AM 28.3°F-2.1°C 25.5°F-3.6°C 89% 3.5 mph SSW5.6 kmh SSW 5.0 mph8.0 kmh 29.73 in1006.8 mb 0.00 in0.0 mm 0.00 in0.0 mm 0.00 in0.0 mm
03:47 AM 28.4°F-2.0°C 25.6°F-3.6°C 89% 2.8 mph SSW4.5 kmh SSW 5.0 mph8.0 kmh 29.73 in1006.8 mb 0.00 in0.0 mm 0.00 in0.0 mm 0.00 in0.0 mm
03:48 AM 28.4°F-2.0°C 25.6°F-3.6°C 89% 2.4 mph SSW3.9 kmh SSW 4.0 mph6.4 kmh 29.73 in1006.8 mb 0.00 in0.0 mm 0.00 in0.0 mm 0.00 in0.0 mm
03:49 AM 28.4°F-2.0°C 25.6°F-3.6°C 89% 2.8 mph SSW4.5 kmh SSW 4.0 mph6.4 kmh 29.73 in1006.8 mb 0.00 in0.0 mm 0.00 in0.0 mm 0.00 in0.0 mm
03:50 AM 28.4°F-2.0°C 25.6°F-3.6°C 89% 2.9 mph SSW4.7 kmh SSW 4.0 mph6.4 kmh 29.73 in1006.8 mb 0.00 in0.0 mm 0.00 in0.0 mm 0.00 in0.0 mm
03:51 AM 28.4°F-2.0°C 25.6°F-3.6°C 89% 1.9 mph SSW3.1 kmh SSW 4.0 mph6.4 kmh 29.73 in1006.8 mb 0.00 in0.0 mm 0.00 in0.0 mm 0.00 in0.0 mm
03:52 AM 28.4°F-2.0°C 25.6°F-3.6°C 89% 1.9 mph SSW3.1 kmh SSW 3.0 mph4.8 kmh 29.73 in1006.8 mb 0.00 in0.0 mm 0.00 in0.0 mm 0.00 in0.0 mm
03:53 AM 28.4°F-2.0°C 25.6°F-3.6°C 89% 1.8 mph SSW2.9 kmh SSW 2.0 mph3.2 kmh 29.73 in1006.8 mb 0.00 in0.0 mm 0.00 in0.0 mm 0.00 in0.0 mm
03:54 AM 28.3°F-2.1°C 25.5°F-3.6°C 89% 1.7 mph SSW2.7 kmh SSW 2.0 mph3.2 kmh 29.73 in1006.8 mb 0.00 in0.0 mm 0.00 in0.0 mm 0.00 in0.0 mm
03:55 AM 28.3°F-2.1°C 25.5°F-3.6°C 89% 1.8 mph SSW2.9 kmh SSW 2.0 mph3.2 kmh 29.73 in1006.8 mb 0.00 in0.0 mm 0.00 in0.0 mm 0.00 in0.0 mm
03:56 AM 28.3°F-2.1°C 25.5°F-3.6°C 89% 2.2 mph SSW3.5 kmh SSW 3.0 mph4.8 kmh 29.73 in1006.8 mb 0.00 in0.0 mm 0.00 in0.0 mm 0.00 in0.0 mm
03:57 AM 28.3°F-2.1°C 25.5°F-3.6°C 89% 2.0 mph SSW3.2 kmh SSW 3.0 mph4.8 kmh 29.73 in1006.8 mb 0.00 in0.0 mm 0.00 in0.0 mm 0.00 in0.0 mm
03:58 AM 28.2°F-2.1°C 25.4°F-3.7°C 89% 1.9 mph SSW3.1 kmh SSW 3.0 mph4.8 kmh 29.73 in1006.8 mb 0.00 in0.0 mm 0.00 in0.0 mm 0.00 in0.0 mm
03:59 AM 28.2°F-2.1°C 25.4°F-3.7°C 89% 1.8 mph SSW2.9 kmh SSW 3.0 mph4.8 kmh 29.73 in1006.8 mb 0.00 in0.0 mm 0.00 in0.0 mm 0.00 in0.0 mm
04:00 AM 28.2°F-2.1°C 25.4°F-3.7°C 89% 1.9 mph SSW3.1 kmh SSW 3.0 mph4.8 kmh 29.73 in1006.8 mb 0.00 in0.0 mm 0.00 in0.0 mm 0.00 in0.0 mm
04:01 AM 28.1°F-2.2°C 25.0°F-3.9°C 88% 2.0 mph SSW3.2 kmh SSW 3.0 mph4.8 kmh 29.73 in1006.8 mb 0.00 in0.0 mm 0.00 in0.0 mm 0.00 in0.0 mm
04:02 AM 27.9°F-2.3°C 24.8°F-4.0°C 88% 1.5 mph SSW2.4 kmh SSW 3.0 mph4.8 kmh 29.73 in1006.8 mb 0.00 in0.0 mm 0.00 in0.0 mm 0.00 in0.0 mm
04:03 AM 27.9°F-2.3°C 24.8°F-4.0°C 88% 1.6 mph SSW2.6 kmh SSW 2.0 mph3.2 kmh 29.73 in1006.8 mb 0.00 in0.0 mm 0.00 in0.0 mm 0.00 in0.0 mm
04:04 AM 27.8°F-2.3°C 24.7°F-4.1°C 88% 1.5 mph SSW2.4 kmh SSW 2.0 mph3.2 kmh 29.73 in1006.8 mb 0.00 in0.0 mm 0.00 in0.0 mm 0.00 in0.0 mm
04:05 AM 27.8°F-2.3°C 24.7°F-4.1°C 88% 2.0 mph SSW3.2 kmh SSW 3.0 mph4.8 kmh 29.73 in1006.8 mb 0.00 in0.0 mm 0.00 in0.0 mm 0.00 in0.0 mm
04:06 AM 27.8°F-2.3°C 25.0°F-3.9°C 89% 2.8 mph SSW4.5 kmh SSW 3.0 mph4.8 kmh 29.73 in1006.8 mb 0.00 in0.0 mm 0.00 in0.0 mm 0.00 in0.0 mm
04:07 AM 27.8°F-2.3°C 25.0°F-3.9°C 89% 2.7 mph SSW4.3 kmh SSW 3.0 mph4.8 kmh 29.73 in1006.8 mb 0.00 in0.0 mm 0.00 in0.0 mm 0.00 in0.0 mm
04:08 AM 27.9°F-2.3°C 25.1°F-3.8°C 89% 2.6 mph SSW4.2 kmh SSW 3.0 mph4.8 kmh 29.73 in1006.8 mb 0.00 in0.0 mm 0.00 in0.0 mm 0.00 in0.0 mm
04:09 AM 28.0°F-2.2°C 25.2°F-3.8°C 89% 3.4 mph SSW5.5 kmh SSW 4.0 mph6.4 kmh 29.73 in1006.8 mb 0.00 in0.0 mm 0.00 in0.0 mm 0.00 in0.0 mm
04:10 AM 28.1°F-2.2°C 25.3°F-3.7°C 89% 3.1 mph SSW5.0 kmh SSW 4.0 mph6.4 kmh 29.73 in1006.8 mb 0.00 in0.0 mm 0.00 in0.0 mm 0.00 in0.0 mm
04:11 AM 28.2°F-2.1°C 25.7°F-3.5°C 90% 3.5 mph SSW5.6 kmh SSW 5.0 mph8.0 kmh 29.73 in1006.8 mb 0.00 in0.0 mm 0.00 in0.0 mm 0.00 in0.0 mm
04:12 AM 28.3°F-2.1°C 25.8°F-3.4°C 90% 3.5 mph SSW5.6 kmh SSW 5.0 mph8.0 kmh 29.73 in1006.8 mb 0.00 in0.0 mm 0.00 in0.0 mm 0.00 in0.0 mm
04:13 AM 28.4°F-2.0°C 25.8°F-3.4°C 90% 3.1 mph SSW5.0 kmh SSW 4.0 mph6.4 kmh 29.73 in1006.8 mb 0.00 in0.0 mm 0.00 in0.0 mm 0.00 in0.0 mm
04:14 AM 28.4°F-2.0°C 25.8°F-3.4°C 90% 3.5 mph SSW5.6 kmh SSW 4.0 mph6.4 kmh 29.73 in1006.8 mb 0.00 in0.0 mm 0.00 in0.0 mm 0.00 in0.0 mm
04:15 AM 28.5°F-1.9°C 25.9°F-3.4°C 90% 3.4 mph SSW5.5 kmh SSW 4.0 mph6.4 kmh 29.73 in1006.8 mb 0.00 in0.0 mm 0.00 in0.0 mm 0.00 in0.0 mm
04:16 AM 28.7°F-1.8°C 26.1°F-3.3°C 90% 3.8 mph SSW6.1 kmh SSW 5.0 mph8.0 kmh 29.73 in1006.8 mb 0.00 in0.0 mm 0.00 in0.0 mm 0.00 in0.0 mm
04:17 AM 28.8°F-1.8°C 26.2°F-3.2°C 90% 3.1 mph SSW5.0 kmh SSW 5.0 mph8.0 kmh 29.73 in1006.8 mb 0.00 in0.0 mm 0.00 in0.0 mm 0.00 in0.0 mm
04:18 AM 28.9°F-1.7°C 26.3°F-3.2°C 90% 2.7 mph SSW4.3 kmh SSW 4.0 mph6.4 kmh 29.73 in1006.8 mb 0.00 in0.0 mm 0.00 in0.0 mm 0.00 in0.0 mm
04:19 AM 28.9°F-1.7°C 26.3°F-3.2°C 90% 2.6 mph SSW4.2 kmh SSW 3.0 mph4.8 kmh 29.73 in1006.8 mb 0.00 in0.0 mm 0.00 in0.0 mm 0.00 in0.0 mm
04:20 AM 29.0°F-1.7°C 26.4°F-3.1°C 90% 1.8 mph SSW2.9 kmh SSW 3.0 mph4.8 kmh 29.73 in1006.8 mb 0.00 in0.0 mm 0.00 in0.0 mm 0.00 in0.0 mm
04:21 AM 29.1°F-1.6°C 26.5°F-3.1°C 90% 1.7 mph SSW2.7 kmh SSW 2.0 mph3.2 kmh 29.73 in1006.8 mb 0.00 in0.0 mm 0.00 in0.0 mm 0.00 in0.0 mm
04:22 AM 29.1°F-1.6°C 26.3°F-3.2°C 89% 1.7 mph SSW2.7 kmh SSW 3.0 mph4.8 kmh 29.73 in1006.8 mb 0.00 in0.0 mm 0.00 in0.0 mm 0.00 in0.0 mm
04:23 AM 29.1°F-1.6°C 26.3°F-3.2°C 89% 2.1 mph SSW3.4 kmh SSW 3.0 mph4.8 kmh 29.73 in1006.8 mb 0.00 in0.0 mm 0.00 in0.0 mm 0.00 in0.0 mm
04:24 AM 29.1°F-1.6°C 26.3°F-3.2°C 89% 1.1 mph SSW1.8 kmh SSW 3.0 mph4.8 kmh 29.73 in1006.8 mb 0.00 in0.0 mm 0.00 in0.0 mm 0.00 in0.0 mm
04:25 AM 29.1°F-1.6°C 26.3°F-3.2°C 89% 1.0 mph SSW1.6 kmh SSW 2.0 mph3.2 kmh 29.73 in1006.8 mb 0.00 in0.0 mm 0.00 in0.0 mm 0.00 in0.0 mm
04:26 AM 29.0°F-1.7°C 26.2°F-3.2°C 89% 1.4 mph SSW2.3 kmh SSW 3.0 mph4.8 kmh 29.73 in1006.8 mb 0.00 in0.0 mm 0.00 in0.0 mm 0.00 in0.0 mm
04:27 AM 29.0°F-1.7°C 26.2°F-3.2°C 89% 2.2 mph SSW3.5 kmh SSW 3.0 mph4.8 kmh 29.73 in1006.8 mb 0.00 in0.0 mm 0.00 in0.0 mm 0.00 in0.0 mm
04:28 AM 28.9°F-1.7°C 26.1°F-3.3°C 89% 3.7 mph SSW6.0 kmh SSW 5.0 mph8.0 kmh 29.73 in1006.8 mb 0.00 in0.0 mm 0.00 in0.0 mm 0.00 in0.0 mm
04:29 AM 29.0°F-1.7°C 26.2°F-3.2°C 89% 2.6 mph SSW4.2 kmh SSW 5.0 mph8.0 kmh 29.73 in1006.8 mb 0.00 in0.0 mm 0.00 in0.0 mm 0.00 in0.0 mm
04:30 AM 29.0°F-1.7°C 26.2°F-3.2°C 89% 2.4 mph SSW3.9 kmh SSW 3.0 mph4.8 kmh 29.73 in1006.8 mb 0.00 in0.0 mm 0.00 in0.0 mm 0.00 in0.0 mm
04:31 AM 29.0°F-1.7°C 26.2°F-3.2°C 89% 2.5 mph SSW4.0 kmh SSW 3.0 mph4.8 kmh 29.73 in1006.8 mb 0.00 in0.0 mm 0.00 in0.0 mm 0.00 in0.0 mm
04:32 AM 29.0°F-1.7°C 26.2°F-3.2°C 89% 2.4 mph SSW3.9 kmh SSW 3.0 mph4.8 kmh 29.73 in1006.8 mb 0.00 in0.0 mm 0.00 in0.0 mm 0.00 in0.0 mm
04:33 AM 29.1°F-1.6°C 26.3°F-3.2°C 89% 2.4 mph SSW3.9 kmh SSW 3.0 mph4.8 kmh 29.73 in1006.8 mb 0.00 in0.0 mm 0.00 in0.0 mm 0.00 in0.0 mm
04:34 AM 29.3°F-1.5°C 26.5°F-3.1°C 89% 3.3 mph SSW5.3 kmh SSW 4.0 mph6.4 kmh 29.73 in1006.8 mb 0.00 in0.0 mm 0.00 in0.0 mm 0.00 in0.0 mm
04:35 AM 29.4°F-1.4°C 26.8°F-2.9°C 90% 3.6 mph SSW5.8 kmh SSW 4.0 mph6.4 kmh 29.73 in1006.8 mb 0.00 in0.0 mm 0.00 in0.0 mm 0.00 in0.0 mm
04:36 AM 29.7°F-1.3°C 27.1°F-2.7°C 90% 3.4 mph SSW5.5 kmh SSW 5.0 mph8.0 kmh 29.73 in1006.8 mb 0.00 in0.0 mm 0.00 in0.0 mm 0.00 in0.0 mm
04:37 AM 29.8°F-1.2°C 27.2°F-2.7°C 90% 2.9 mph SSW4.7 kmh SSW 5.0 mph8.0 kmh 29.73 in1006.8 mb 0.00 in0.0 mm 0.00 in0.0 mm 0.00 in0.0 mm
04:38 AM 30.0°F-1.1°C 27.4°F-2.6°C 90% 2.7 mph SSW4.3 kmh SSW 4.0 mph6.4 kmh 29.73 in1006.8 mb 0.00 in0.0 mm 0.00 in0.0 mm 0.00 in0.0 mm
04:39 AM 30.1°F-1.1°C 27.5°F-2.5°C 90% 2.7 mph SSW4.3 kmh SSW 4.0 mph6.4 kmh 29.73 in1006.8 mb 0.00 in0.0 mm 0.00 in0.0 mm 0.00 in0.0 mm
04:40 AM 30.2°F-1.0°C 27.6°F-2.4°C 90% 2.6 mph SSW4.2 kmh SSW 3.0 mph4.8 kmh 29.73 in1006.8 mb 0.00 in0.0 mm 0.00 in0.0 mm 0.00 in0.0 mm
04:41 AM 30.3°F-0.9°C 27.5°F-2.5°C 89% 3.3 mph SSW5.3 kmh SSW 5.0 mph8.0 kmh 29.73 in1006.8 mb 0.00 in0.0 mm 0.00 in0.0 mm 0.00 in0.0 mm
04:42 AM 30.3°F-0.9°C 27.5°F-2.5°C 89% 3.2 mph SSW5.1 kmh SSW 5.0 mph8.0 kmh 29.73 in1006.8 mb 0.00 in0.0 mm 0.00 in0.0 mm 0.00 in0.0 mm
04:43 AM 30.4°F-0.9°C 27.6°F-2.4°C 89% 2.9 mph SSW4.7 kmh SSW 4.0 mph6.4 kmh 29.73 in1006.8 mb 0.00 in0.0 mm 0.00 in0.0 mm 0.00 in0.0 mm
04:44 AM 30.4°F-0.9°C 27.6°F-2.4°C 89% 1.8 mph SSW2.9 kmh SSW 4.0 mph6.4 kmh 29.73 in1006.8 mb 0.00 in0.0 mm 0.00 in0.0 mm 0.00 in0.0 mm
04:45 AM 30.4°F-0.9°C 27.6°F-2.4°C 89% 2.6 mph SSW4.2 kmh SSW 3.0 mph4.8 kmh 29.73 in1006.8 mb 0.00 in0.0 mm 0.00 in0.0 mm 0.00 in0.0 mm
04:46 AM 30.5°F-0.8°C 27.7°F-2.4°C 89% 2.5 mph SSW4.0 kmh SSW 4.0 mph6.4 kmh 29.73 in1006.8 mb 0.00 in0.0 mm 0.00 in0.0 mm 0.00 in0.0 mm
04:47 AM 30.5°F-0.8°C 27.7°F-2.4°C 89% 2.2 mph SSW3.5 kmh SSW 4.0 mph6.4 kmh 29.73 in1006.8 mb 0.00 in0.0 mm 0.00 in0.0 mm 0.00 in0.0 mm
04:48 AM 30.5°F-0.8°C 27.7°F-2.4°C 89% 2.0 mph SSW3.2 kmh SSW 3.0 mph4.8 kmh 29.73 in1006.8 mb 0.00 in0.0 mm 0.00 in0.0 mm 0.00 in0.0 mm
04:49 AM 30.5°F-0.8°C 27.7°F-2.4°C 89% 2.0 mph SSW3.2 kmh SSW 3.0 mph4.8 kmh 29.73 in1006.8 mb 0.00 in0.0 mm 0.00 in0.0 mm 0.00 in0.0 mm
04:50 AM 30.5°F-0.8°C 27.4°F-2.6°C 88% 2.6 mph SSW4.2 kmh SSW 3.0 mph4.8 kmh 29.73 in1006.8 mb 0.00 in0.0 mm 0.00 in0.0 mm 0.00 in0.0 mm
04:51 AM 30.6°F-0.8°C 27.5°F-2.5°C 88% 2.5 mph SSW4.0 kmh SSW 3.0 mph4.8 kmh 29.73 in1006.8 mb 0.00 in0.0 mm 0.00 in0.0 mm 0.00 in0.0 mm
04:52 AM 30.6°F-0.8°C 27.5°F-2.5°C 88% 2.0 mph SSW3.2 kmh SSW 3.0 mph4.8 kmh 29.73 in1006.8 mb 0.00 in0.0 mm 0.00 in0.0 mm 0.00 in0.0 mm
04:53 AM 30.6°F-0.8°C 27.5°F-2.5°C 88% 2.6 mph SSW4.2 kmh SSW 3.0 mph4.8 kmh 29.73 in1006.8 mb 0.00 in0.0 mm 0.00 in0.0 mm 0.00 in0.0 mm
04:54 AM 30.6°F-0.8°C 27.5°F-2.5°C 88% 3.1 mph SSW5.0 kmh SSW 4.0 mph6.4 kmh 29.73 in1006.8 mb 0.00 in0.0 mm 0.00 in0.0 mm 0.00 in0.0 mm
04:55 AM 30.6°F-0.8°C 27.5°F-2.5°C 88% 3.3 mph SSW5.3 kmh SSW 4.0 mph6.4 kmh 29.73 in1006.8 mb 0.00 in0.0 mm 0.00 in0.0 mm 0.00 in0.0 mm
04:56 AM 30.6°F-0.8°C 27.5°F-2.5°C 88% 2.8 mph SSW4.5 kmh SSW 4.0 mph6.4 kmh 29.73 in1006.8 mb 0.00 in0.0 mm 0.00 in0.0 mm 0.00 in0.0 mm
04:57 AM 30.7°F-0.7°C 27.6°F-2.4°C 88% 3.2 mph SSW5.1 kmh SSW 4.0 mph6.4 kmh 29.73 in1006.8 mb 0.00 in0.0 mm 0.00 in0.0 mm 0.00 in0.0 mm
04:58 AM 30.7°F-0.7°C 27.6°F-2.4°C 88% 2.4 mph SSW3.9 kmh SSW 4.0 mph6.4 kmh 29.73 in1006.8 mb 0.00 in0.0 mm 0.00 in0.0 mm 0.00 in0.0 mm
04:59 AM 30.7°F-0.7°C 27.6°F-2.4°C 88% 2.9 mph SSW4.7 kmh SSW 4.0 mph6.4 kmh 29.73 in1006.8 mb 0.00 in0.0 mm 0.00 in0.0 mm 0.00 in0.0 mm
05:00 AM 30.7°F-0.7°C 27.6°F-2.4°C 88% 2.5 mph SSW4.0 kmh SSW 4.0 mph6.4 kmh 29.73 in1006.8 mb 0.00 in0.0 mm 0.00 in0.0 mm 0.00 in0.0 mm
05:01 AM 30.7°F-0.7°C 27.6°F-2.4°C 88% 2.6 mph SSW4.2 kmh SSW 3.0 mph4.8 kmh 29.73 in1006.8 mb 0.00 in0.0 mm 0.00 in0.0 mm 0.00 in0.0 mm
05:02 AM 30.7°F-0.7°C 27.3°F-2.6°C 87% 2.0 mph SSW3.2 kmh SSW 3.0 mph4.8 kmh 29.73 in1006.8 mb 0.00 in0.0 mm 0.00 in0.0 mm 0.00 in0.0 mm
05:03 AM 30.7°F-0.7°C 27.3°F-2.6°C 87% 1.7 mph SSW2.7 kmh SSW 3.0 mph4.8 kmh 29.73 in1006.8 mb 0.00 in0.0 mm 0.00 in0.0 mm 0.00 in0.0 mm
05:04 AM 30.7°F-0.7°C 27.3°F-2.6°C 87% 1.8 mph SSW2.9 kmh SSW 2.0 mph3.2 kmh 29.73 in1006.8 mb 0.00 in0.0 mm 0.00 in0.0 mm 0.00 in0.0 mm
05:05 AM 30.7°F-0.7°C 27.3°F-2.6°C 87% 1.5 mph SSW2.4 kmh SSW 2.0 mph3.2 kmh 29.73 in1006.8 mb 0.00 in0.0 mm 0.00 in0.0 mm 0.00 in0.0 mm
05:06 AM 30.6°F-0.8°C 27.2°F-2.7°C 87% 2.1 mph SSW3.4 kmh SSW 3.0 mph4.8 kmh 29.73 in1006.8 mb 0.00 in0.0 mm 0.00 in0.0 mm 0.00 in0.0 mm
05:07 AM 30.5°F-0.8°C 26.8°F-2.9°C 86% 1.1 mph SSW1.8 kmh SSW 3.0 mph4.8 kmh 29.73 in1006.8 mb 0.00 in0.0 mm 0.00 in0.0 mm 0.00 in0.0 mm
05:08 AM 30.4°F-0.9°C 26.7°F-2.9°C 86% 1.0 mph SSW1.6 kmh SSW 2.0 mph3.2 kmh 29.73 in1006.8 mb 0.00 in0.0 mm 0.00 in0.0 mm 0.00 in0.0 mm
05:09 AM 30.2°F-1.0°C 26.2°F-3.2°C 85% 1.1 mph SSW1.8 kmh SSW 2.0 mph3.2 kmh 29.73 in1006.8 mb 0.00 in0.0 mm 0.00 in0.0 mm 0.00 in0.0 mm
05:10 AM 30.1°F-1.1°C 26.1°F-3.3°C 85% 1.1 mph SSW1.8 kmh SSW 2.0 mph3.2 kmh 29.73 in1006.8 mb 0.00 in0.0 mm 0.00 in0.0 mm 0.00 in0.0 mm
05:11 AM 29.9°F-1.2°C 26.0°F-3.3°C 85% 1.3 mph SSW2.1 kmh SSW 2.0 mph3.2 kmh 29.73 in1006.8 mb 0.00 in0.0 mm 0.00 in0.0 mm 0.00 in0.0 mm
05:12 AM 29.7°F-1.3°C 25.8°F-3.4°C 85% 1.7 mph SSW2.7 kmh SSW 3.0 mph4.8 kmh 29.73 in1006.8 mb 0.00 in0.0 mm 0.00 in0.0 mm 0.00 in0.0 mm
05:13 AM 29.7°F-1.3°C 25.8°F-3.4°C 85% 0.5 mph SSW0.8 kmh SSW 3.0 mph4.8 kmh 29.73 in1006.8 mb 0.00 in0.0 mm 0.00 in0.0 mm 0.00 in0.0 mm
05:14 AM 29.5°F-1.4°C 25.6°F-3.6°C 85% 0.9 mph SSW1.4 kmh SSW 1.0 mph1.6 kmh 29.73 in1006.8 mb 0.00 in0.0 mm 0.00 in0.0 mm 0.00 in0.0 mm
05:15 AM 29.4°F-1.4°C 25.5°F-3.6°C 85% 1.1 mph SSW1.8 kmh SSW 2.0 mph3.2 kmh 29.73 in1006.8 mb 0.00 in0.0 mm 0.00 in0.0 mm 0.00 in0.0 mm
05:16 AM 29.3°F-1.5°C 25.4°F-3.7°C 85% 1.5 mph SSW2.4 kmh SSW 2.0 mph3.2 kmh 29.73 in1006.8 mb 0.00 in0.0 mm 0.00 in0.0 mm 0.00 in0.0 mm
05:17 AM 29.1°F-1.6°C 25.2°F-3.8°C 85% 1.6 mph SSW2.6 kmh SSW 2.0 mph3.2 kmh 29.73 in1006.8 mb 0.00 in0.0 mm 0.00 in0.0 mm 0.00 in0.0 mm
05:18 AM 29.0°F-1.7°C 25.1°F-3.8°C 85% 0.9 mph SSW1.4 kmh SSW 2.0 mph3.2 kmh 29.73 in1006.8 mb 0.00 in0.0 mm 0.00 in0.0 mm 0.00 in0.0 mm
05:19 AM 28.9°F-1.7°C 25.0°F-3.9°C 85% 1.1 mph SSW1.8 kmh SSW 2.0 mph3.2 kmh 29.73 in1006.8 mb 0.00 in0.0 mm 0.00 in0.0 mm 0.00 in0.0 mm
05:20 AM 28.9°F-1.7°C 25.0°F-3.9°C 85% 1.3 mph SSW2.1 kmh SSW 2.0 mph3.2 kmh 29.73 in1006.8 mb 0.00 in0.0 mm 0.00 in0.0 mm 0.00 in0.0 mm
05:21 AM 28.9°F-1.7°C 25.2°F-3.8°C 86% 1.4 mph SSW2.3 kmh SSW 2.0 mph3.2 kmh 29.73 in1006.8 mb 0.00 in0.0 mm 0.00 in0.0 mm 0.00 in0.0 mm
05:22 AM 28.7°F-1.8°C 25.1°F-3.8°C 86% 1.4 mph SSW2.3 kmh SSW 2.0 mph3.2 kmh 29.73 in1006.8 mb 0.00 in0.0 mm 0.00 in0.0 mm 0.00 in0.0 mm
05:23 AM 28.7°F-1.8°C 25.1°F-3.8°C 86% 1.9 mph SSW3.1 kmh SSW 3.0 mph4.8 kmh 29.73 in1006.8 mb 0.00 in0.0 mm 0.00 in0.0 mm 0.00 in0.0 mm
05:24 AM 28.7°F-1.8°C 25.1°F-3.8°C 86% 1.8 mph SSW2.9 kmh SSW 3.0 mph4.8 kmh 29.73 in1006.8 mb 0.00 in0.0 mm 0.00 in0.0 mm 0.00 in0.0 mm
05:25 AM 28.7°F-1.8°C 25.1°F-3.8°C 86% 1.5 mph SSW2.4 kmh SSW 3.0 mph4.8 kmh 29.73 in1006.8 mb 0.00 in0.0 mm 0.00 in0.0 mm 0.00 in0.0 mm
05:26 AM 28.6°F-1.9°C 25.0°F-3.9°C 86% 1.0 mph SSW1.6 kmh SSW 2.0 mph3.2 kmh 29.73 in1006.8 mb 0.00 in0.0 mm 0.00 in0.0 mm 0.00 in0.0 mm
05:27 AM 28.6°F-1.9°C 25.0°F-3.9°C 86% 1.2 mph SSW1.9 kmh SSW 2.0 mph3.2 kmh 29.73 in1006.8 mb 0.00 in0.0 mm 0.00 in0.0 mm 0.00 in0.0 mm
05:28 AM 28.6°F-1.9°C 25.0°F-3.9°C 86% 1.5 mph SSW2.4 kmh SSW 2.0 mph3.2 kmh 29.73 in1006.8 mb 0.00 in0.0 mm 0.00 in0.0 mm 0.00 in0.0 mm
05:29 AM 28.5°F-1.9°C 24.9°F-3.9°C 86% 1.5 mph SSW2.4 kmh SSW 3.0 mph4.8 kmh 29.73 in1006.8 mb 0.00 in0.0 mm 0.00 in0.0 mm 0.00 in0.0 mm
05:30 AM 28.5°F-1.9°C 24.9°F-3.9°C 86% 1.7 mph SSW2.7 kmh SSW 3.0 mph4.8 kmh 29.73 in1006.8 mb 0.00 in0.0 mm 0.00 in0.0 mm 0.00 in0.0 mm
05:31 AM 28.4°F-2.0°C 24.8°F-4.0°C 86% 0.4 mph SSW0.6 kmh SSW 3.0 mph4.8 kmh 29.73 in1006.8 mb 0.00 in0.0 mm 0.00 in0.0 mm 0.00 in0.0 mm
05:32 AM 28.4°F-2.0°C 24.8°F-4.0°C 86% Calm Calm 1.0 mph1.6 kmh 29.73 in1006.8 mb 0.00 in0.0 mm 0.00 in0.0 mm 0.00 in0.0 mm
05:33 AM 28.3°F-2.1°C 24.7°F-4.1°C 86% 0.1 mph SSW0.2 kmh SSW 1.0 mph1.6 kmh 29.73 in1006.8 mb 0.00 in0.0 mm 0.00 in0.0 mm 0.00 in0.0 mm
05:34 AM 28.3°F-2.1°C 24.7°F-4.1°C 86% 0.7 mph SSW1.1 kmh SSW 2.0 mph3.2 kmh 29.73 in1006.8 mb 0.00 in0.0 mm 0.00 in0.0 mm 0.00 in0.0 mm
05:35 AM 28.2°F-2.1°C 24.6°F-4.1°C 86% 1.8 mph SSW2.9 kmh SSW 2.0 mph3.2 kmh 29.73 in1006.8 mb 0.00 in0.0 mm 0.00 in0.0 mm 0.00 in0.0 mm
05:36 AM 28.2°F-2.1°C 24.6°F-4.1°C 86% 0.7 mph SSW1.1 kmh SSW 2.0 mph3.2 kmh 29.73 in1006.8 mb 0.00 in0.0 mm 0.00 in0.0 mm 0.00 in0.0 mm
05:37 AM 28.2°F-2.1°C 24.6°F-4.1°C 86% 1.6 mph SSW2.6 kmh SSW 3.0 mph4.8 kmh 29.73 in1006.8 mb 0.00 in0.0 mm 0.00 in0.0 mm 0.00 in0.0 mm
05:38 AM 28.2°F-2.1°C 24.6°F-4.1°C 86% 1.4 mph SSW2.3 kmh SSW 3.0 mph4.8 kmh 29.73 in1006.8 mb 0.00 in0.0 mm 0.00 in0.0 mm 0.00 in0.0 mm
05:39 AM 28.2°F-2.1°C 24.6°F-4.1°C 86% 0.1 mph SSW0.2 kmh SSW 3.0 mph4.8 kmh 29.73 in1006.8 mb 0.00 in0.0 mm 0.00 in0.0 mm 0.00 in0.0 mm
05:40 AM 28.2°F-2.1°C 24.6°F-4.1°C 86% 0.6 mph SSW1.0 kmh SSW 2.0 mph3.2 kmh 29.73 in1006.8 mb 0.00 in0.0 mm 0.00 in0.0 mm 0.00 in0.0 mm
05:41 AM 28.2°F-2.1°C 24.6°F-4.1°C 86% 0.8 mph SSW1.3 kmh SSW 2.0 mph3.2 kmh 29.73 in1006.8 mb 0.00 in0.0 mm 0.00 in0.0 mm 0.00 in0.0 mm
05:42 AM 28.2°F-2.1°C 24.8°F-4.0°C 87% 0.2 mph SSW0.3 kmh SSW 2.0 mph3.2 kmh 29.73 in1006.8 mb 0.00 in0.0 mm 0.00 in0.0 mm 0.00 in0.0 mm
05:43 AM 28.2°F-2.1°C 24.8°F-4.0°C 87% 1.2 mph SSW1.9 kmh SSW 2.0 mph3.2 kmh 29.73 in1006.8 mb 0.00 in0.0 mm 0.00 in0.0 mm 0.00 in0.0 mm
05:44 AM 28.2°F-2.1°C 24.8°F-4.0°C 87% 0.9 mph SSW1.4 kmh SSW 2.0 mph3.2 kmh 29.73 in1006.8 mb 0.00 in0.0 mm 0.00 in0.0 mm 0.00 in0.0 mm
05:45 AM 28.2°F-2.1°C 24.8°F-4.0°C 87% Calm Calm -- 29.73 in1006.8 mb 0.00 in0.0 mm 0.00 in0.0 mm 0.00 in0.0 mm
05:46 AM 28.3°F-2.1°C 24.9°F-3.9°C 87% 1.0 mph SSW1.6 kmh SSW 1.0 mph1.6 kmh 29.73 in1006.8 mb 0.00 in0.0 mm 0.00 in0.0 mm 0.00 in0.0 mm
05:47 AM 28.3°F-2.1°C 24.9°F-3.9°C 87% 2.0 mph SSW3.2 kmh SSW 2.0 mph3.2 kmh 29.73 in1006.8 mb 0.00 in0.0 mm 0.00 in0.0 mm 0.00 in0.0 mm
05:48 AM 28.3°F-2.1°C 24.7°F-4.1°C 86% 1.5 mph SSW2.4 kmh SSW 3.0 mph4.8 kmh 29.73 in1006.8 mb 0.00 in0.0 mm 0.00 in0.0 mm 0.00 in0.0 mm
05:49 AM 28.3°F-2.1°C 24.7°F-4.1°C 86% 1.7 mph SSW2.7 kmh SSW 3.0 mph4.8 kmh 29.73 in1006.8 mb 0.00 in0.0 mm 0.00 in0.0 mm 0.00 in0.0 mm
05:50 AM 28.3°F-2.1°C 24.7°F-4.1°C 86% 2.4 mph SSW3.9 kmh SSW 4.0 mph6.4 kmh 29.73 in1006.8 mb 0.00 in0.0 mm 0.00 in0.0 mm 0.00 in0.0 mm
05:51 AM 28.3°F-2.1°C 24.7°F-4.1°C 86% 2.4 mph SSW3.9 kmh SSW 4.0 mph6.4 kmh 29.73 in1006.8 mb 0.00 in0.0 mm 0.00 in0.0 mm 0.00 in0.0 mm
05:52 AM 28.3°F-2.1°C 24.9°F-3.9°C 87% 2.6 mph SSW4.2 kmh SSW 3.0 mph4.8 kmh 29.73 in1006.8 mb 0.00 in0.0 mm 0.00 in0.0 mm 0.00 in0.0 mm
05:53 AM 28.3°F-2.1°C 24.9°F-3.9°C 87% 2.8 mph SSW4.5 kmh SSW 4.0 mph6.4 kmh 29.73 in1006.8 mb 0.00 in0.0 mm 0.00 in0.0 mm 0.00 in0.0 mm
05:54 AM 28.3°F-2.1°C 24.9°F-3.9°C 87% 2.9 mph SSW4.7 kmh SSW 4.0 mph6.4 kmh 29.73 in1006.8 mb 0.00 in0.0 mm 0.00 in0.0 mm 0.00 in0.0 mm
05:55 AM 28.4°F-2.0°C 25.0°F-3.9°C 87% 3.6 mph SSW5.8 kmh SSW 4.0 mph6.4 kmh 29.73 in1006.8 mb 0.00 in0.0 mm 0.00 in0.0 mm 0.00 in0.0 mm
05:56 AM 28.4°F-2.0°C 25.0°F-3.9°C 87% 3.2 mph SSW5.1 kmh SSW 4.0 mph6.4 kmh 29.73 in1006.8 mb 0.00 in0.0 mm 0.00 in0.0 mm 0.00 in0.0 mm
05:57 AM 28.4°F-2.0°C 25.0°F-3.9°C 87% 2.4 mph SSW3.9 kmh SSW 4.0 mph6.4 kmh 29.73 in1006.8 mb 0.00 in0.0 mm 0.00 in0.0 mm 0.00 in0.0 mm
05:58 AM 28.5°F-1.9°C 25.1°F-3.8°C 87% 2.7 mph SSW4.3 kmh SSW 3.0 mph4.8 kmh 29.73 in1006.8 mb 0.00 in0.0 mm 0.00 in0.0 mm 0.00 in0.0 mm
05:59 AM 28.6°F-1.9°C 25.2°F-3.8°C 87% 2.3 mph SSW3.7 kmh SSW 4.0 mph6.4 kmh 29.73 in1006.8 mb 0.00 in0.0 mm 0.00 in0.0 mm 0.00 in0.0 mm
06:00 AM 28.9°F-1.7°C 25.8°F-3.4°C 88% 2.7 mph SSW4.3 kmh SSW 4.0 mph6.4 kmh 29.73 in1006.8 mb 0.00 in0.0 mm 0.00 in0.0 mm 0.00 in0.0 mm
06:01 AM 29.1°F-1.6°C 26.0°F-3.3°C 88% 2.3 mph SSW3.7 kmh SSW 4.0 mph6.4 kmh 29.73 in1006.8 mb 0.00 in0.0 mm 0.00 in0.0 mm 0.00 in0.0 mm
06:02 AM 29.3°F-1.5°C 26.2°F-3.2°C 88% 2.7 mph SSW4.3 kmh SSW 3.0 mph4.8 kmh 29.73 in1006.8 mb 0.00 in0.0 mm 0.00 in0.0 mm 0.00 in0.0 mm
06:03 AM 29.5°F-1.4°C 26.4°F-3.1°C 88% 2.7 mph SSW4.3 kmh SSW 3.0 mph4.8 kmh 29.73 in1006.8 mb 0.00 in0.0 mm 0.00 in0.0 mm 0.00 in0.0 mm
06:04 AM 29.7°F-1.3°C 26.3°F-3.2°C 87% 3.3 mph SSW5.3 kmh SSW 4.0 mph6.4 kmh 29.73 in1006.8 mb 0.00 in0.0 mm 0.00 in0.0 mm 0.00 in0.0 mm
06:05 AM 30.0°F-1.1°C 26.6°F-3.0°C 87% 2.7 mph SSW4.3 kmh SSW 4.0 mph6.4 kmh 29.73 in1006.8 mb 0.00 in0.0 mm 0.00 in0.0 mm 0.00 in0.0 mm
06:06 AM 30.2°F-1.0°C 26.8°F-2.9°C 87% 2.9 mph SSW4.7 kmh SSW 3.0 mph4.8 kmh 29.73 in1006.8 mb 0.00 in0.0 mm 0.00 in0.0 mm 0.00 in0.0 mm
06:07 AM 30.3°F-0.9°C 26.6°F-3.0°C 86% 3.0 mph SSW4.8 kmh SSW 4.0 mph6.4 kmh 29.73 in1006.8 mb 0.00 in0.0 mm 0.00 in0.0 mm 0.00 in0.0 mm
06:08 AM 30.4°F-0.9°C 26.7°F-2.9°C 86% 3.0 mph SSW4.8 kmh SSW 4.0 mph6.4 kmh 29.73 in1006.8 mb 0.00 in0.0 mm 0.00 in0.0 mm 0.00 in0.0 mm
06:09 AM 30.6°F-0.8°C 26.9°F-2.8°C 86% 3.1 mph SSW5.0 kmh SSW 4.0 mph6.4 kmh 29.73 in1006.8 mb 0.00 in0.0 mm 0.00 in0.0 mm 0.00 in0.0 mm
06:10 AM 30.6°F-0.8°C 26.6°F-3.0°C 85% 3.6 mph SW5.8 kmh SW 5.0 mph8.0 kmh 29.73 in1006.8 mb 0.00 in0.0 mm 0.00 in0.0 mm 0.00 in0.0 mm
06:11 AM 30.8°F-0.7°C 26.8°F-2.9°C 85% 3.1 mph W5.0 kmh W 5.0 mph8.0 kmh 29.73 in1006.8 mb 0.00 in0.0 mm 0.00 in0.0 mm 0.00 in0.0 mm
06:12 AM 30.8°F-0.7°C 26.8°F-2.9°C 85% 2.4 mph W3.9 kmh W 4.0 mph6.4 kmh 29.73 in1006.8 mb 0.00 in0.0 mm 0.00 in0.0 mm 0.00 in0.0 mm
06:13 AM 30.9°F-0.6°C 26.9°F-2.8°C 85% 2.3 mph W3.7 kmh W 3.0 mph4.8 kmh 29.73 in1006.8 mb 0.00 in0.0 mm 0.00 in0.0 mm 0.00 in0.0 mm
06:14 AM 31.0°F-0.6°C 26.7°F-2.9°C 84% 3.0 mph W4.8 kmh W 4.0 mph6.4 kmh 29.73 in1006.8 mb 0.00 in0.0 mm 0.00 in0.0 mm 0.00 in0.0 mm
06:15 AM 31.0°F-0.6°C 26.7°F-2.9°C 84% 4.5 mph WNW7.2 kmh WNW 6.0 mph9.7 kmh 29.73 in1006.8 mb 0.00 in0.0 mm 0.00 in0.0 mm 0.00 in0.0 mm
06:16 AM 31.1°F-0.5°C 26.8°F-2.9°C 84% 3.4 mph WNW5.5 kmh WNW 6.0 mph9.7 kmh 29.73 in1006.8 mb 0.00 in0.0 mm 0.00 in0.0 mm 0.00 in0.0 mm
06:17 AM 31.2°F-0.4°C 26.9°F-2.8°C 84% 3.8 mph WNW6.1 kmh WNW 5.0 mph8.0 kmh 29.73 in1006.8 mb 0.00 in0.0 mm 0.00 in0.0 mm 0.00 in0.0 mm
06:18 AM 31.2°F-0.4°C 26.6°F-3.0°C 83% 2.9 mph WNW4.7 kmh WNW 5.0 mph8.0 kmh 29.73 in1006.8 mb 0.00 in0.0 mm 0.00 in0.0 mm 0.00 in0.0 mm
06:19 AM 31.3°F-0.4°C 26.7°F-2.9°C 83% 2.7 mph WNW4.3 kmh WNW 4.0 mph6.4 kmh 29.73 in1006.8 mb 0.00 in0.0 mm 0.00 in0.0 mm 0.00 in0.0 mm
06:20 AM 31.4°F-0.3°C 26.8°F-2.9°C 83% 2.7 mph WNW4.3 kmh WNW 4.0 mph6.4 kmh 29.73 in1006.8 mb 0.00 in0.0 mm 0.00 in0.0 mm 0.00 in0.0 mm
06:21 AM 31.4°F-0.3°C 26.6°F-3.0°C 82% 2.5 mph WNW4.0 kmh WNW 4.0 mph6.4 kmh 29.73 in1006.8 mb 0.00 in0.0 mm 0.00 in0.0 mm 0.00 in0.0 mm
06:22 AM 31.5°F-0.3°C 26.7°F-2.9°C 82% 2.3 mph WNW3.7 kmh WNW 3.0 mph4.8 kmh 29.73 in1006.8 mb 0.00 in0.0 mm 0.00 in0.0 mm 0.00 in0.0 mm
06:23 AM 31.5°F-0.3°C 26.7°F-2.9°C 82% 2.9 mph WNW4.7 kmh WNW 4.0 mph6.4 kmh 29.73 in1006.8 mb 0.00 in0.0 mm 0.00 in0.0 mm 0.00 in0.0 mm
06:24 AM 31.6°F-0.2°C 26.7°F-2.9°C 82% 2.6 mph WNW4.2 kmh WNW 4.0 mph6.4 kmh 29.73 in1006.8 mb 0.00 in0.0 mm 0.00 in0.0 mm 0.00 in0.0 mm
06:25 AM 31.6°F-0.2°C 26.7°F-2.9°C 82% 2.9 mph WNW4.7 kmh WNW 4.0 mph6.4 kmh 29.73 in1006.8 mb 0.00 in0.0 mm 0.00 in0.0 mm 0.00 in0.0 mm
06:26 AM 31.6°F-0.2°C 26.7°F-2.9°C 82% 3.5 mph WNW5.6 kmh WNW 5.0 mph8.0 kmh 29.73 in1006.8 mb 0.00 in0.0 mm 0.00 in0.0 mm 0.00 in0.0 mm
06:27 AM 31.6°F-0.2°C 26.5°F-3.1°C 81% 2.7 mph WNW4.3 kmh WNW 5.0 mph8.0 kmh 29.73 in1006.8 mb 0.00 in0.0 mm 0.00 in0.0 mm 0.00 in0.0 mm
06:28 AM 31.7°F-0.2°C 26.5°F-3.1°C 81% 1.9 mph WNW3.1 kmh WNW 3.0 mph4.8 kmh 29.73 in1006.8 mb 0.00 in0.0 mm 0.00 in0.0 mm 0.00 in0.0 mm
06:29 AM 31.7°F-0.2°C 26.5°F-3.1°C 81% 1.8 mph WNW2.9 kmh WNW 3.0 mph4.8 kmh 29.73 in1006.8 mb 0.00 in0.0 mm 0.00 in0.0 mm 0.00 in0.0 mm
06:30 AM 31.7°F-0.2°C 26.5°F-3.1°C 81% 1.1 mph WNW1.8 kmh WNW 3.0 mph4.8 kmh 29.73 in1006.8 mb 0.00 in0.0 mm 0.00 in0.0 mm 0.00 in0.0 mm
06:31 AM 31.8°F-0.1°C 26.6°F-3.0°C 81% 0.4 mph WNW0.6 kmh WNW 2.0 mph3.2 kmh 29.73 in1006.8 mb 0.00 in0.0 mm 0.00 in0.0 mm 0.00 in0.0 mm
06:32 AM 31.8°F-0.1°C 26.6°F-3.0°C 81% 0.4 mph WNW0.6 kmh WNW 1.0 mph1.6 kmh 29.73 in1006.8 mb 0.00 in0.0 mm 0.00 in0.0 mm 0.00 in0.0 mm
06:33 AM 31.7°F-0.2°C 26.5°F-3.1°C 81% 0.6 mph WNW1.0 kmh WNW 3.0 mph4.8 kmh 29.73 in1006.8 mb 0.00 in0.0 mm 0.00 in0.0 mm 0.00 in0.0 mm
06:34 AM 31.7°F-0.2°C 26.5°F-3.1°C 81% 1.8 mph WNW2.9 kmh WNW 4.0 mph6.4 kmh 29.73 in1006.8 mb 0.00 in0.0 mm 0.00 in0.0 mm 0.00 in0.0 mm
06:35 AM 31.8°F-0.1°C 26.6°F-3.0°C 81% 2.5 mph WNW4.0 kmh WNW 4.0 mph6.4 kmh 29.73 in1006.8 mb 0.00 in0.0 mm 0.00 in0.0 mm 0.00 in0.0 mm
06:36 AM 31.7°F-0.2°C 26.5°F-3.1°C 81% 2.4 mph WNW3.9 kmh WNW 3.0 mph4.8 kmh 29.73 in1006.8 mb 0.00 in0.0 mm 0.00 in0.0 mm 0.00 in0.0 mm
06:37 AM 31.7°F-0.2°C 26.2°F-3.2°C 80% 2.4 mph WNW3.9 kmh WNW 3.0 mph4.8 kmh 29.73 in1006.8 mb 0.00 in0.0 mm 0.00 in0.0 mm 0.00 in0.0 mm
06:38 AM 31.7°F-0.2°C 26.5°F-3.1°C 81% 2.2 mph WNW3.5 kmh WNW 3.0 mph4.8 kmh 29.73 in1006.8 mb 0.00 in0.0 mm 0.00 in0.0 mm 0.00 in0.0 mm
06:39 AM 31.7°F-0.2°C 26.5°F-3.1°C 81% 2.3 mph WNW3.7 kmh WNW 3.0 mph4.8 kmh 29.73 in1006.8 mb 0.00 in0.0 mm 0.00 in0.0 mm 0.00 in0.0 mm
06:40 AM 31.8°F-0.1°C 26.6°F-3.0°C 81% 2.5 mph WNW4.0 kmh WNW 3.0 mph4.8 kmh 29.73 in1006.8 mb 0.00 in0.0 mm 0.00 in0.0 mm 0.00 in0.0 mm
06:41 AM 31.7°F-0.2°C 26.2°F-3.2°C 80% 2.3 mph WNW3.7 kmh WNW 3.0 mph4.8 kmh 29.73 in1006.8 mb 0.00 in0.0 mm 0.00 in0.0 mm 0.00 in0.0 mm
06:42 AM 31.8°F-0.1°C 26.6°F-3.0°C 81% 2.0 mph WNW3.2 kmh WNW 3.0 mph4.8 kmh 29.73 in1006.8 mb 0.00 in0.0 mm 0.00 in0.0 mm 0.00 in0.0 mm
06:43 AM 31.8°F-0.1°C 26.6°F-3.0°C 81% 1.6 mph WNW2.6 kmh WNW 3.0 mph4.8 kmh 29.73 in1006.8 mb 0.00 in0.0 mm 0.00 in0.0 mm 0.00 in0.0 mm
06:44 AM 31.9°F-0.1°C 26.7°F-2.9°C 81% 1.0 mph WNW1.6 kmh WNW 2.0 mph3.2 kmh 29.73 in1006.8 mb 0.00 in0.0 mm 0.00 in0.0 mm 0.00 in0.0 mm
06:45 AM 31.9°F-0.1°C 26.7°F-2.9°C 81% 0.8 mph WNW1.3 kmh WNW 2.0 mph3.2 kmh 29.73 in1006.8 mb 0.00 in0.0 mm 0.00 in0.0 mm 0.00 in0.0 mm
06:46 AM 31.9°F-0.1°C 26.7°F-2.9°C 81% 0.3 mph WNW0.5 kmh WNW 1.0 mph1.6 kmh 29.73 in1006.8 mb 0.00 in0.0 mm 0.00 in0.0 mm 0.00 in0.0 mm
06:47 AM 32.0°F0.0°C 26.8°F-2.9°C 81% 0.6 mph WNW1.0 kmh WNW 2.0 mph3.2 kmh 29.73 in1006.8 mb 0.00 in0.0 mm 0.00 in0.0 mm 0.00 in0.0 mm
06:48 AM 32.0°F0.0°C 26.8°F-2.9°C 81% 2.3 mph WNW3.7 kmh WNW 4.0 mph6.4 kmh 29.73 in1006.8 mb 0.00 in0.0 mm 0.00 in0.0 mm 0.00 in0.0 mm
06:49 AM 32.1°F0.1°C 26.9°F-2.8°C 81% 2.9 mph WNW4.7 kmh WNW 4.0 mph6.4 kmh 29.73 in1006.8 mb 0.00 in0.0 mm 0.00 in0.0 mm 0.00 in0.0 mm
06:50 AM 32.1°F0.1°C 26.9°F-2.8°C 81% 3.4 mph WNW5.5 kmh WNW 4.0 mph6.4 kmh 29.73 in1006.8 mb 0.00 in0.0 mm 0.00 in0.0 mm 0.00 in0.0 mm
06:51 AM 32.1°F0.1°C 26.9°F-2.8°C 81% 4.2 mph WNW6.8 kmh WNW 5.0 mph8.0 kmh 29.73 in1006.8 mb 0.00 in0.0 mm 0.00 in0.0 mm 0.00 in0.0 mm
06:52 AM 32.1°F0.1°C 26.9°F-2.8°C 81% 4.0 mph WNW6.4 kmh WNW 5.0 mph8.0 kmh 29.73 in1006.8 mb 0.00 in0.0 mm 0.00 in0.0 mm 0.00 in0.0 mm
06:53 AM 32.2°F0.1°C 26.7°F-2.9°C 80% 4.3 mph W6.9 kmh W 6.0 mph9.7 kmh 29.73 in1006.8 mb 0.00 in0.0 mm 0.00 in0.0 mm 0.00 in0.0 mm
06:54 AM 32.1°F0.1°C 26.6°F-3.0°C 80% 3.5 mph W5.6 kmh W 6.0 mph9.7 kmh 29.73 in1006.8 mb 0.00 in0.0 mm 0.00 in0.0 mm 0.00 in0.0 mm
06:55 AM 32.2°F0.1°C 26.7°F-2.9°C 80% 4.5 mph W7.2 kmh W 6.0 mph9.7 kmh 29.73 in1006.8 mb 0.00 in0.0 mm 0.00 in0.0 mm 0.00 in0.0 mm
06:56 AM 32.3°F0.2°C 26.8°F-2.9°C 80% 3.9 mph W6.3 kmh W 6.0 mph9.7 kmh 29.73 in1006.8 mb 0.00 in0.0 mm 0.00 in0.0 mm 0.00 in0.0 mm
06:57 AM 32.3°F0.2°C 26.8°F-2.9°C 80% 4.1 mph W6.6 kmh W 6.0 mph9.7 kmh 29.73 in1006.8 mb 0.00 in0.0 mm 0.00 in0.0 mm 0.00 in0.0 mm
06:58 AM 32.3°F0.2°C 26.8°F-2.9°C 80% 4.8 mph W7.7 kmh W 6.0 mph9.7 kmh 29.73 in1006.8 mb 0.00 in0.0 mm 0.00 in0.0 mm 0.00 in0.0 mm
06:59 AM 32.4°F0.2°C 26.9°F-2.8°C 80% 4.2 mph W6.8 kmh W 6.0 mph9.7 kmh 29.73 in1006.8 mb 0.00 in0.0 mm 0.00 in0.0 mm 0.00 in0.0 mm
07:00 AM 32.5°F0.3°C 27.0°F-2.8°C 80% 5.4 mph WNW8.7 kmh WNW 8.0 mph12.9 kmh 29.73 in1006.8 mb 0.00 in0.0 mm 0.00 in0.0 mm 0.00 in0.0 mm
07:01 AM 32.5°F0.3°C 27.0°F-2.8°C 80% 4.4 mph WNW7.1 kmh WNW 8.0 mph12.9 kmh 29.73 in1006.8 mb 0.00 in0.0 mm 0.00 in0.0 mm 0.00 in0.0 mm
07:02 AM 32.6°F0.3°C 27.1°F-2.7°C 80% 5.6 mph W9.0 kmh W 7.0 mph11.3 kmh 29.73 in1006.8 mb 0.00 in0.0 mm 0.00 in0.0 mm 0.00 in0.0 mm
07:03 AM 32.6°F0.3°C 26.8°F-2.9°C 79% 4.7 mph W7.6 kmh W 7.0 mph11.3 kmh 29.73 in1006.8 mb 0.00 in0.0 mm 0.00 in0.0 mm 0.00 in0.0 mm
07:04 AM 32.6°F0.3°C 26.8°F-2.9°C 79% 5.0 mph W8.0 kmh W 7.0 mph11.3 kmh 29.73 in1006.8 mb 0.00 in0.0 mm 0.00 in0.0 mm 0.00 in0.0 mm
07:05 AM 32.7°F0.4°C 26.9°F-2.8°C 79% 5.4 mph W8.7 kmh W 7.0 mph11.3 kmh 29.73 in1006.8 mb 0.00 in0.0 mm 0.00 in0.0 mm 0.00 in0.0 mm
07:06 AM 32.7°F0.4°C 26.9°F-2.8°C 79% 5.0 mph W8.0 kmh W 7.0 mph11.3 kmh 29.73 in1006.8 mb 0.00 in0.0 mm 0.00 in0.0 mm 0.00 in0.0 mm
07:07 AM 32.8°F0.4°C 27.0°F-2.8°C 79% 5.6 mph W9.0 kmh W 7.0 mph11.3 kmh 29.73 in1006.8 mb 0.00 in0.0 mm 0.00 in0.0 mm 0.00 in0.0 mm
07:08 AM 32.8°F0.4°C 27.0°F-2.8°C 79% 5.7 mph W9.2 kmh W 7.0 mph11.3 kmh 29.73 in1006.8 mb 0.00 in0.0 mm 0.00 in0.0 mm 0.00 in0.0 mm
07:09 AM 32.8°F0.4°C 27.0°F-2.8°C 79% 4.6 mph W7.4 kmh W 7.0 mph11.3 kmh 29.73 in1006.8 mb 0.00 in0.0 mm 0.00 in0.0 mm 0.00 in0.0 mm
07:10 AM 32.8°F0.4°C 27.0°F-2.8°C 79% 4.5 mph W7.2 kmh W 6.0 mph9.7 kmh 29.73 in1006.8 mb 0.00 in0.0 mm 0.00 in0.0 mm 0.00 in0.0 mm
07:11 AM 32.8°F0.4°C 27.0°F-2.8°C 79% 4.7 mph W7.6 kmh W 6.0 mph9.7 kmh 29.73 in1006.8 mb 0.00 in0.0 mm 0.00 in0.0 mm 0.00 in0.0 mm
07:12 AM 32.9°F0.5°C 27.1°F-2.7°C 79% 4.1 mph W6.6 kmh W 6.0 mph9.7 kmh 29.73 in1006.8 mb 0.00 in0.0 mm 0.00 in0.0 mm 0.00 in0.0 mm
07:13 AM 32.9°F0.5°C 27.1°F-2.7°C 79% 4.1 mph W6.6 kmh W 6.0 mph9.7 kmh 29.73 in1006.8 mb 0.00 in0.0 mm 0.00 in0.0 mm 0.00 in0.0 mm
07:14 AM 33.0°F0.6°C 27.2°F-2.7°C 79% 3.3 mph W5.3 kmh W 6.0 mph9.7 kmh 29.73 in1006.8 mb 0.00 in0.0 mm 0.00 in0.0 mm 0.00 in0.0 mm
07:15 AM 33.0°F0.6°C 27.2°F-2.7°C 79% 4.1 mph W6.6 kmh W 6.0 mph9.7 kmh 29.73 in1006.8 mb 0.00 in0.0 mm 0.00 in0.0 mm 0.00 in0.0 mm
07:16 AM 33.0°F0.6°C 27.2°F-2.7°C 79% 4.3 mph W6.9 kmh W 6.0 mph9.7 kmh 29.73 in1006.8 mb 0.00 in0.0 mm 0.00 in0.0 mm 0.00 in0.0 mm
07:17 AM 33.0°F0.6°C 27.2°F-2.7°C 79% 4.2 mph W6.8 kmh W 6.0 mph9.7 kmh 29.73 in1006.8 mb 0.00 in0.0 mm 0.00 in0.0 mm 0.00 in0.0 mm
07:18 AM 33.0°F0.6°C 26.9°F-2.8°C 78% 5.2 mph W8.4 kmh W 6.0 mph9.7 kmh 29.73 in1006.8 mb 0.00 in0.0 mm 0.00 in0.0 mm 0.00 in0.0 mm
07:19 AM 33.0°F0.6°C 26.9°F-2.8°C 78% 4.7 mph W7.6 kmh W 6.0 mph9.7 kmh 29.73 in1006.8 mb 0.00 in0.0 mm 0.00 in0.0 mm 0.00 in0.0 mm
07:20 AM 33.0°F0.6°C 26.9°F-2.8°C 78% 4.4 mph W7.1 kmh W 6.0 mph9.7 kmh 29.73 in1006.8 mb 0.00 in0.0 mm 0.00 in0.0 mm 0.00 in0.0 mm
07:21 AM 33.0°F0.6°C 26.9°F-2.8°C 78% 5.0 mph W8.0 kmh W 7.0 mph11.3 kmh 29.73 in1006.8 mb 0.00 in0.0 mm 0.00 in0.0 mm 0.00 in0.0 mm
07:22 AM 33.0°F0.6°C 26.9°F-2.8°C 78% 5.5 mph W8.9 kmh W 7.0 mph11.3 kmh 29.73 in1006.8 mb 0.00 in0.0 mm 0.00 in0.0 mm 0.00 in0.0 mm
07:23 AM 33.0°F0.6°C 26.9°F-2.8°C 78% 5.2 mph W8.4 kmh W 6.0 mph9.7 kmh 29.73 in1006.8 mb 0.00 in0.0 mm 0.00 in0.0 mm 0.00 in0.0 mm
07:24 AM 33.0°F0.6°C 26.9°F-2.8°C 78% 4.4 mph W7.1 kmh W 6.0 mph9.7 kmh 29.73 in1006.8 mb 0.00 in0.0 mm 0.00 in0.0 mm 0.00 in0.0 mm
07:25 AM 33.0°F0.6°C 26.9°F-2.8°C 78% 5.3 mph W8.5 kmh W 7.0 mph11.3 kmh 29.73 in1006.8 mb 0.00 in0.0 mm 0.00 in0.0 mm 0.00 in0.0 mm
07:26 AM 33.0°F0.6°C 26.9°F-2.8°C 78% 5.3 mph W8.5 kmh W 7.0 mph11.3 kmh 29.73 in1006.8 mb 0.00 in0.0 mm 0.00 in0.0 mm 0.00 in0.0 mm
07:27 AM 33.1°F0.6°C 27.0°F-2.8°C 78% 5.0 mph W8.0 kmh W 7.0 mph11.3 kmh 29.73 in1006.8 mb 0.00 in0.0 mm 0.00 in0.0 mm 0.00 in0.0 mm
07:28 AM 33.1°F0.6°C 27.0°F-2.8°C 78% 5.9 mph W9.5 kmh W 7.0 mph11.3 kmh 29.73 in1006.8 mb 0.00 in0.0 mm 0.00 in0.0 mm 0.00 in0.0 mm
07:29 AM 33.1°F0.6°C 27.0°F-2.8°C 78% 5.5 mph W8.9 kmh W 7.0 mph11.3 kmh 29.73 in1006.8 mb 0.00 in0.0 mm 0.00 in0.0 mm 0.00 in0.0 mm
07:30 AM 33.2°F0.7°C 27.1°F-2.7°C 78% 6.0 mph W9.7 kmh W 7.0 mph11.3 kmh 29.73 in1006.8 mb 0.00 in0.0 mm 0.00 in0.0 mm 0.00 in0.0 mm
07:31 AM 33.2°F0.7°C 27.1°F-2.7°C 78% 5.2 mph W8.4 kmh W 7.0 mph11.3 kmh 29.73 in1006.8 mb 0.00 in0.0 mm 0.00 in0.0 mm 0.00 in0.0 mm
07:32 AM 33.2°F0.7°C 27.1°F-2.7°C 78% 5.2 mph W8.4 kmh W 6.0 mph9.7 kmh 29.73 in1006.8 mb 0.00 in0.0 mm 0.00 in0.0 mm 0.00 in0.0 mm
07:33 AM 33.2°F0.7°C 27.1°F-2.7°C 78% 4.5 mph W7.2 kmh W 6.0 mph9.7 kmh 29.73 in1006.8 mb 0.00 in0.0 mm 0.00 in0.0 mm 0.00 in0.0 mm
07:34 AM 33.3°F0.7°C 27.2°F-2.7°C 78% 5.5 mph W8.9 kmh W 6.0 mph9.7 kmh 29.73 in1006.8 mb 0.00 in0.0 mm 0.00 in0.0 mm 0.00 in0.0 mm
07:35 AM 33.3°F0.7°C 27.2°F-2.7°C 78% 5.8 mph W9.3 kmh W 7.0 mph11.3 kmh 29.73 in1006.8 mb 0.00 in0.0 mm 0.00 in0.0 mm 0.00 in0.0 mm
07:36 AM 33.3°F0.7°C 26.9°F-2.8°C 77% 5.8 mph W9.3 kmh W 7.0 mph11.3 kmh 29.73 in1006.8 mb 0.00 in0.0 mm 0.00 in0.0 mm 0.00 in0.0 mm
07:37 AM 33.3°F0.7°C 26.9°F-2.8°C 77% 5.9 mph W9.5 kmh W 7.0 mph11.3 kmh 29.73 in1006.8 mb 0.00 in0.0 mm 0.00 in0.0 mm 0.00 in0.0 mm
07:38 AM 33.4°F0.8°C 27.0°F-2.8°C 77% 5.3 mph W8.5 kmh W 7.0 mph11.3 kmh 29.73 in1006.8 mb 0.00 in0.0 mm 0.00 in0.0 mm 0.00 in0.0 mm
07:39 AM 33.4°F0.8°C 27.3°F-2.6°C 78% 5.7 mph W9.2 kmh W 7.0 mph11.3 kmh 29.73 in1006.8 mb 0.00 in0.0 mm 0.00 in0.0 mm 0.00 in0.0 mm
07:40 AM 33.4°F0.8°C 27.3°F-2.6°C 78% 6.1 mph W9.8 kmh W 7.0 mph11.3 kmh 29.73 in1006.8 mb 0.00 in0.0 mm 0.00 in0.0 mm 0.00 in0.0 mm
07:41 AM 33.5°F0.8°C 27.4°F-2.6°C 78% 5.4 mph W8.7 kmh W 7.0 mph11.3 kmh 29.73 in1006.8 mb 0.00 in0.0 mm 0.00 in0.0 mm 0.00 in0.0 mm
07:42 AM 33.5°F0.8°C 27.1°F-2.7°C 77% 5.9 mph W9.5 kmh W 7.0 mph11.3 kmh 29.73 in1006.8 mb 0.00 in0.0 mm 0.00 in0.0 mm 0.00 in0.0 mm
07:43 AM 33.5°F0.8°C 27.4°F-2.6°C 78% 6.4 mph W10.3 kmh W 7.0 mph11.3 kmh 29.74 in1007.1 mb 0.00 in0.0 mm 0.00 in0.0 mm 0.00 in0.0 mm
07:44 AM 33.5°F0.8°C 27.4°F-2.6°C 78% 5.8 mph W9.3 kmh W 7.0 mph11.3 kmh 29.74 in1007.1 mb 0.00 in0.0 mm 0.00 in0.0 mm 0.00 in0.0 mm
07:45 AM 33.5°F0.8°C 27.1°F-2.7°C 77% 5.9 mph W9.5 kmh W 7.0 mph11.3 kmh 29.74 in1007.1 mb 0.00 in0.0 mm 0.00 in0.0 mm 0.00 in0.0 mm
07:46 AM 33.6°F0.9°C 27.2°F-2.7°C 77% 4.8 mph W7.7 kmh W 7.0 mph11.3 kmh 29.74 in1007.1 mb 0.00 in0.0 mm 0.00 in0.0 mm 0.00 in0.0 mm
07:47 AM 33.6°F0.9°C 27.5°F-2.5°C 78% 6.0 mph W9.7 kmh W 7.0 mph11.3 kmh 29.74 in1007.1 mb 0.00 in0.0 mm 0.00 in0.0 mm 0.00 in0.0 mm
07:48 AM 33.6°F0.9°C 27.2°F-2.7°C 77% 5.8 mph W9.3 kmh W 7.0 mph11.3 kmh 29.73 in1006.8 mb 0.00 in0.0 mm 0.00 in0.0 mm 0.00 in0.0 mm
07:49 AM 33.6°F0.9°C 27.5°F-2.5°C 78% 5.8 mph W9.3 kmh W 7.0 mph11.3 kmh 29.73 in1006.8 mb 0.00 in0.0 mm 0.00 in0.0 mm 0.00 in0.0 mm
07:50 AM 33.7°F0.9°C 27.3°F-2.6°C 77% 5.2 mph W8.4 kmh W 7.0 mph11.3 kmh 29.73 in1006.8 mb 0.00 in0.0 mm 0.00 in0.0 mm 0.00 in0.0 mm
07:51 AM 33.8°F1.0°C 27.4°F-2.6°C 77% 5.4 mph W8.7 kmh W 7.0 mph11.3 kmh 29.73 in1006.8 mb 0.00 in0.0 mm 0.00 in0.0 mm 0.00 in0.0 mm
07:52 AM 33.8°F1.0°C 27.4°F-2.6°C 77% 5.6 mph W9.0 kmh W 7.0 mph11.3 kmh 29.73 in1006.8 mb 0.00 in0.0 mm 0.00 in0.0 mm 0.00 in0.0 mm
07:53 AM 33.7°F0.9°C 27.3°F-2.6°C 77% 5.5 mph W8.9 kmh W 7.0 mph11.3 kmh 29.73 in1006.8 mb 0.00 in0.0 mm 0.00 in0.0 mm 0.00 in0.0 mm
07:54 AM 33.8°F1.0°C 27.4°F-2.6°C 77% 5.8 mph W9.3 kmh W 7.0 mph11.3 kmh 29.73 in1006.8 mb 0.00 in0.0 mm 0.00 in0.0 mm 0.00 in0.0 mm
07:55 AM 33.9°F1.1°C 27.5°F-2.5°C 77% 5.9 mph W9.5 kmh W 7.0 mph11.3 kmh 29.73 in1006.8 mb 0.00 in0.0 mm 0.00 in0.0 mm 0.00 in0.0 mm
07:56 AM 33.9°F1.1°C 27.5°F-2.5°C 77% 4.7 mph W7.6 kmh W 7.0 mph11.3 kmh 29.73 in1006.8 mb 0.00 in0.0 mm 0.00 in0.0 mm 0.00 in0.0 mm
07:57 AM 33.9°F1.1°C 27.5°F-2.5°C 77% 6.0 mph W9.7 kmh W 7.0 mph11.3 kmh 29.73 in1006.8 mb 0.00 in0.0 mm 0.00 in0.0 mm 0.00 in0.0 mm
07:58 AM 34.0°F1.1°C 27.6°F-2.4°C 77% 6.0 mph W9.7 kmh W 7.0 mph11.3 kmh 29.73 in1006.8 mb 0.00 in0.0 mm 0.00 in0.0 mm 0.00 in0.0 mm
07:59 AM 34.0°F1.1°C 27.6°F-2.4°C 77% 6.7 mph WNW10.8 kmh WNW 8.0 mph12.9 kmh 29.73 in1006.8 mb 0.00 in0.0 mm 0.00 in0.0 mm 0.00 in0.0 mm
08:00 AM 34.1°F1.2°C 27.3°F-2.6°C 76% 5.8 mph WNW9.3 kmh WNW 8.0 mph12.9 kmh 29.73 in1006.8 mb 0.00 in0.0 mm 0.00 in0.0 mm 0.00 in0.0 mm
08:01 AM 34.2°F1.2°C 27.4°F-2.6°C 76% 5.3 mph WNW8.5 kmh WNW 8.0 mph12.9 kmh 29.73 in1006.8 mb 0.00 in0.0 mm 0.00 in0.0 mm 0.00 in0.0 mm
08:02 AM 34.2°F1.2°C 27.4°F-2.6°C 76% 4.9 mph WNW7.9 kmh WNW 7.0 mph11.3 kmh 29.73 in1006.8 mb 0.00 in0.0 mm 0.00 in0.0 mm 0.00 in0.0 mm
08:03 AM 34.3°F1.3°C 27.5°F-2.5°C 76% 4.6 mph WNW7.4 kmh WNW 7.0 mph11.3 kmh 29.73 in1006.8 mb 0.00 in0.0 mm 0.00 in0.0 mm 0.00 in0.0 mm
08:04 AM 34.2°F1.2°C 27.4°F-2.6°C 76% 5.2 mph WNW8.4 kmh WNW 7.0 mph11.3 kmh 29.73 in1006.8 mb 0.00 in0.0 mm 0.00 in0.0 mm 0.00 in0.0 mm
08:05 AM 34.3°F1.3°C 27.5°F-2.5°C 76% 5.4 mph WNW8.7 kmh WNW 7.0 mph11.3 kmh 29.73 in1006.8 mb 0.00 in0.0 mm 0.00 in0.0 mm 0.00 in0.0 mm
08:06 AM 34.3°F1.3°C 27.5°F-2.5°C 76% 5.5 mph WNW8.9 kmh WNW 8.0 mph12.9 kmh 29.73 in1006.8 mb 0.00 in0.0 mm 0.00 in0.0 mm 0.00 in0.0 mm
08:07 AM 34.3°F1.3°C 27.2°F-2.7°C 75% 5.1 mph WNW8.2 kmh WNW 8.0 mph12.9 kmh 29.73 in1006.8 mb 0.00 in0.0 mm 0.00 in0.0 mm 0.00 in0.0 mm
08:08 AM 34.4°F1.3°C 27.3°F-2.6°C 75% 4.8 mph WNW7.7 kmh WNW 7.0 mph11.3 kmh 29.73 in1006.8 mb 0.00 in0.0 mm 0.00 in0.0 mm 0.00 in0.0 mm
08:09 AM 34.4°F1.3°C 27.6°F-2.4°C 76% 6.4 mph WNW10.3 kmh WNW 8.0 mph12.9 kmh 29.74 in1007.1 mb 0.00 in0.0 mm 0.00 in0.0 mm 0.00 in0.0 mm
08:10 AM 34.4°F1.3°C 27.3°F-2.6°C 75% 5.3 mph WNW8.5 kmh WNW 8.0 mph12.9 kmh 29.73 in1006.8 mb 0.00 in0.0 mm 0.00 in0.0 mm 0.00 in0.0 mm
08:11 AM 34.5°F1.4°C 27.4°F-2.6°C 75% 5.4 mph WNW8.7 kmh WNW 8.0 mph12.9 kmh 29.73 in1006.8 mb 0.00 in0.0 mm 0.00 in0.0 mm 0.00 in0.0 mm
08:12 AM 34.5°F1.4°C 27.4°F-2.6°C 75% 5.0 mph WNW8.0 kmh WNW 7.0 mph11.3 kmh 29.73 in1006.8 mb 0.00 in0.0 mm 0.00 in0.0 mm 0.00 in0.0 mm
08:13 AM 34.6°F1.4°C 27.5°F-2.5°C 75% 5.5 mph WNW8.9 kmh WNW 8.0 mph12.9 kmh 29.74 in1007.1 mb 0.00 in0.0 mm 0.00 in0.0 mm 0.00 in0.0 mm
08:14 AM 34.6°F1.4°C 27.5°F-2.5°C 75% 4.6 mph WNW7.4 kmh WNW 8.0 mph12.9 kmh 29.73 in1006.8 mb 0.00 in0.0 mm 0.00 in0.0 mm 0.00 in0.0 mm
08:15 AM 34.6°F1.4°C 27.5°F-2.5°C 75% 6.5 mph WNW10.5 kmh WNW 8.0 mph12.9 kmh 29.74 in1007.1 mb 0.00 in0.0 mm 0.00 in0.0 mm 0.00 in0.0 mm
08:16 AM 34.7°F1.5°C 27.6°F-2.4°C 75% 5.8 mph WNW9.3 kmh WNW 8.0 mph12.9 kmh 29.74 in1007.1 mb 0.00 in0.0 mm 0.00 in0.0 mm 0.00 in0.0 mm
08:17 AM 34.7°F1.5°C 27.3°F-2.6°C 74% 5.7 mph WNW9.2 kmh WNW 8.0 mph12.9 kmh 29.73 in1006.8 mb 0.00 in0.0 mm 0.00 in0.0 mm 0.00 in0.0 mm
08:18 AM 34.7°F1.5°C 27.3°F-2.6°C 74% 5.1 mph WNW8.2 kmh WNW 7.0 mph11.3 kmh 29.73 in1006.8 mb 0.00 in0.0 mm 0.00 in0.0 mm 0.00 in0.0 mm
08:19 AM 34.8°F1.6°C 27.7°F-2.4°C 75% 3.9 mph WNW6.3 kmh WNW 7.0 mph11.3 kmh 29.73 in1006.8 mb 0.00 in0.0 mm 0.00 in0.0 mm 0.00 in0.0 mm
08:20 AM 34.8°F1.6°C 27.7°F-2.4°C 75% 5.0 mph WNW8.0 kmh WNW 7.0 mph11.3 kmh 29.73 in1006.8 mb 0.00 in0.0 mm 0.00 in0.0 mm 0.00 in0.0 mm
08:21 AM 34.8°F1.6°C 27.7°F-2.4°C 75% 5.3 mph WNW8.5 kmh WNW 7.0 mph11.3 kmh 29.73 in1006.8 mb 0.00 in0.0 mm 0.00 in0.0 mm 0.00 in0.0 mm
08:22 AM 34.8°F1.6°C 27.7°F-2.4°C 75% 4.4 mph WNW7.1 kmh WNW 7.0 mph11.3 kmh 29.73 in1006.8 mb 0.00 in0.0 mm 0.00 in0.0 mm 0.00 in0.0 mm
08:23 AM 34.9°F1.6°C 27.8°F-2.3°C 75% 5.7 mph WNW9.2 kmh WNW 7.0 mph11.3 kmh 29.73 in1006.8 mb 0.00 in0.0 mm 0.00 in0.0 mm 0.00 in0.0 mm
08:24 AM 34.9°F1.6°C 27.8°F-2.3°C 75% 4.8 mph WNW7.7 kmh WNW 7.0 mph11.3 kmh 29.73 in1006.8 mb 0.00 in0.0 mm 0.00 in0.0 mm 0.00 in0.0 mm
08:25 AM 34.9°F1.6°C 27.5°F-2.5°C 74% 5.4 mph WNW8.7 kmh WNW 8.0 mph12.9 kmh 29.73 in1006.8 mb 0.00 in0.0 mm 0.00 in0.0 mm 0.00 in0.0 mm
08:26 AM 35.0°F1.7°C 27.9°F-2.3°C 75% 6.8 mph WNW10.9 kmh WNW 8.0 mph12.9 kmh 29.73 in1006.8 mb 0.00 in0.0 mm 0.00 in0.0 mm 0.00 in0.0 mm
08:27 AM 34.9°F1.6°C 27.5°F-2.5°C 74% 5.7 mph WNW9.2 kmh WNW 8.0 mph12.9 kmh 29.73 in1006.8 mb 0.00 in0.0 mm 0.00 in0.0 mm 0.00 in0.0 mm
08:28 AM 35.0°F1.7°C 27.6°F-2.4°C 74% 5.4 mph WNW8.7 kmh WNW 8.0 mph12.9 kmh 29.73 in1006.8 mb 0.00 in0.0 mm 0.00 in0.0 mm 0.00 in0.0 mm
08:29 AM 35.0°F1.7°C 27.9°F-2.3°C 75% 5.0 mph WNW8.0 kmh WNW 8.0 mph12.9 kmh 29.73 in1006.8 mb 0.00 in0.0 mm 0.00 in0.0 mm 0.00 in0.0 mm
08:30 AM 35.0°F1.7°C 27.9°F-2.3°C 75% 5.2 mph WNW8.4 kmh WNW 7.0 mph11.3 kmh 29.73 in1006.8 mb 0.00 in0.0 mm 0.00 in0.0 mm 0.00 in0.0 mm
08:31 AM 35.1°F1.7°C 28.0°F-2.2°C 75% 4.3 mph WNW6.9 kmh WNW 7.0 mph11.3 kmh 29.73 in1006.8 mb 0.00 in0.0 mm 0.00 in0.0 mm 0.00 in0.0 mm
08:32 AM 35.1°F1.7°C 28.0°F-2.2°C 75% 5.4 mph WNW8.7 kmh WNW 7.0 mph11.3 kmh 29.73 in1006.8 mb 0.00 in0.0 mm 0.00 in0.0 mm 0.00 in0.0 mm
08:33 AM 35.1°F1.7°C 28.0°F-2.2°C 75% 6.6 mph WNW10.6 kmh WNW 8.0 mph12.9 kmh 29.73 in1006.8 mb 0.00 in0.0 mm 0.00 in0.0 mm 0.00 in0.0 mm
08:34 AM 35.2°F1.8°C 27.8°F-2.3°C 74% 5.4 mph WNW8.7 kmh WNW 8.0 mph12.9 kmh 29.73 in1006.8 mb 0.00 in0.0 mm 0.00 in0.0 mm 0.00 in0.0 mm
08:35 AM 35.2°F1.8°C 27.8°F-2.3°C 74% 4.7 mph WNW7.6 kmh WNW 7.0 mph11.3 kmh 29.73 in1006.8 mb 0.00 in0.0 mm 0.00 in0.0 mm 0.00 in0.0 mm
08:36 AM 35.3°F1.8°C 27.9°F-2.3°C 74% 4.9 mph WNW7.9 kmh WNW 7.0 mph11.3 kmh 29.73 in1006.8 mb 0.00 in0.0 mm 0.00 in0.0 mm 0.00 in0.0 mm
08:37 AM 35.3°F1.8°C 27.9°F-2.3°C 74% 6.1 mph WNW9.8 kmh WNW 8.0 mph12.9 kmh 29.73 in1006.8 mb 0.00 in0.0 mm 0.00 in0.0 mm 0.00 in0.0 mm
08:38 AM 35.3°F1.8°C 27.5°F-2.5°C 73% 6.7 mph WNW10.8 kmh WNW 8.0 mph12.9 kmh 29.74 in1007.1 mb 0.00 in0.0 mm 0.00 in0.0 mm 0.00 in0.0 mm
08:39 AM 35.4°F1.9°C 27.6°F-2.4°C 73% 5.7 mph WNW9.2 kmh WNW 8.0 mph12.9 kmh 29.74 in1007.1 mb 0.00 in0.0 mm 0.00 in0.0 mm 0.00 in0.0 mm
08:40 AM 35.4°F1.9°C 27.6°F-2.4°C 73% 4.7 mph WNW7.6 kmh WNW 7.0 mph11.3 kmh 29.73 in1006.8 mb 0.00 in0.0 mm 0.00 in0.0 mm 0.00 in0.0 mm
08:41 AM 35.5°F1.9°C 28.0°F-2.2°C 74% 4.9 mph WNW7.9 kmh WNW 7.0 mph11.3 kmh 29.73 in1006.8 mb 0.00 in0.0 mm 0.00 in0.0 mm 0.00 in0.0 mm
08:42 AM 35.5°F1.9°C 28.0°F-2.2°C 74% 4.6 mph WNW7.4 kmh WNW 7.0 mph11.3 kmh 29.73 in1006.8 mb 0.00 in0.0 mm 0.00 in0.0 mm 0.00 in0.0 mm
08:43 AM 35.5°F1.9°C 28.0°F-2.2°C 74% 4.4 mph WNW7.1 kmh WNW 5.0 mph8.0 kmh 29.73 in1006.8 mb 0.00 in0.0 mm 0.00 in0.0 mm 0.00 in0.0 mm
08:44 AM 35.5°F1.9°C 28.0°F-2.2°C 74% 4.7 mph WNW7.6 kmh WNW 5.0 mph8.0 kmh 29.73 in1006.8 mb 0.00 in0.0 mm 0.00 in0.0 mm 0.00 in0.0 mm
08:45 AM 35.5°F1.9°C 28.0°F-2.2°C 74% 5.5 mph WNW8.9 kmh WNW 7.0 mph11.3 kmh 29.73 in1006.8 mb 0.00 in0.0 mm 0.00 in0.0 mm 0.00 in0.0 mm
08:46 AM 35.5°F1.9°C 28.0°F-2.2°C 74% 6.1 mph WNW9.8 kmh WNW 8.0 mph12.9 kmh 29.73 in1006.8 mb 0.00 in0.0 mm 0.00 in0.0 mm 0.00 in0.0 mm
08:47 AM 35.5°F1.9°C 28.0°F-2.2°C 74% 6.8 mph WNW10.9 kmh WNW 8.0 mph12.9 kmh 29.74 in1007.1 mb 0.00 in0.0 mm 0.00 in0.0 mm 0.00 in0.0 mm
08:48 AM 35.6°F2.0°C 27.8°F-2.3°C 73% 5.8 mph NW9.3 kmh NW 8.0 mph12.9 kmh 29.73 in1006.8 mb 0.00 in0.0 mm 0.00 in0.0 mm 0.00 in0.0 mm
08:49 AM 35.6°F2.0°C 27.8°F-2.3°C 73% 4.5 mph NW7.2 kmh NW 8.0 mph12.9 kmh 29.73 in1006.8 mb 0.00 in0.0 mm 0.00 in0.0 mm 0.00 in0.0 mm
08:50 AM 35.7°F2.1°C 27.9°F-2.3°C 73% 4.9 mph NW7.9 kmh NW 7.0 mph11.3 kmh 29.73 in1006.8 mb 0.00 in0.0 mm 0.00 in0.0 mm 0.00 in0.0 mm
08:51 AM 35.7°F2.1°C 27.9°F-2.3°C 73% 6.7 mph NW10.8 kmh NW 8.0 mph12.9 kmh 29.74 in1007.1 mb 0.00 in0.0 mm 0.00 in0.0 mm 0.00 in0.0 mm
08:52 AM 35.7°F2.1°C 27.9°F-2.3°C 73% 6.5 mph NW10.5 kmh NW 8.0 mph12.9 kmh 29.74 in1007.1 mb 0.00 in0.0 mm 0.00 in0.0 mm 0.00 in0.0 mm
08:53 AM 35.7°F2.1°C 27.9°F-2.3°C 73% 4.9 mph NW7.9 kmh NW 8.0 mph12.9 kmh 29.73 in1006.8 mb 0.00 in0.0 mm 0.00 in0.0 mm 0.00 in0.0 mm
08:54 AM 35.7°F2.1°C 27.9°F-2.3°C 73% 4.8 mph NW7.7 kmh NW 7.0 mph11.3 kmh 29.74 in1007.1 mb 0.00 in0.0 mm 0.00 in0.0 mm 0.00 in0.0 mm
08:55 AM 35.7°F2.1°C 27.9°F-2.3°C 73% 4.8 mph NW7.7 kmh NW 5.0 mph8.0 kmh 29.73 in1006.8 mb 0.00 in0.0 mm 0.00 in0.0 mm 0.00 in0.0 mm
08:56 AM 35.7°F2.1°C 28.2°F-2.1°C 74% 4.8 mph NW7.7 kmh NW 5.0 mph8.0 kmh 29.74 in1007.1 mb 0.00 in0.0 mm 0.00 in0.0 mm 0.00 in0.0 mm
08:57 AM 35.8°F2.1°C 28.3°F-2.1°C 74% 4.9 mph NW7.9 kmh NW 5.0 mph8.0 kmh 29.73 in1006.8 mb 0.00 in0.0 mm 0.00 in0.0 mm 0.00 in0.0 mm
08:58 AM 35.8°F2.1°C 28.3°F-2.1°C 74% 5.3 mph NW8.5 kmh NW 7.0 mph11.3 kmh 29.73 in1006.8 mb 0.00 in0.0 mm 0.00 in0.0 mm 0.00 in0.0 mm
08:59 AM 35.8°F2.1°C 28.3°F-2.1°C 74% 6.1 mph NW9.8 kmh NW 8.0 mph12.9 kmh 29.73 in1006.8 mb 0.00 in0.0 mm 0.00 in0.0 mm 0.00 in0.0 mm
09:00 AM 35.8°F2.1°C 28.3°F-2.1°C 74% 6.5 mph NW10.5 kmh NW 8.0 mph12.9 kmh 29.73 in1006.8 mb 0.00 in0.0 mm 0.00 in0.0 mm 0.00 in0.0 mm
09:01 AM 35.9°F2.2°C 28.4°F-2.0°C 74% 6.6 mph NW10.6 kmh NW 8.0 mph12.9 kmh 29.74 in1007.1 mb 0.00 in0.0 mm 0.00 in0.0 mm 0.00 in0.0 mm
09:02 AM 35.8°F2.1°C 28.3°F-2.1°C 74% 4.7 mph NW7.6 kmh NW 8.0 mph12.9 kmh 29.74 in1007.1 mb 0.00 in0.0 mm 0.00 in0.0 mm 0.00 in0.0 mm
09:03 AM 35.9°F2.2°C 28.4°F-2.0°C 74% 5.5 mph NW8.9 kmh NW 7.0 mph11.3 kmh 29.74 in1007.1 mb 0.00 in0.0 mm 0.00 in0.0 mm 0.00 in0.0 mm
09:04 AM 35.8°F2.1°C 28.7°F-1.8°C 75% 4.9 mph NW7.9 kmh NW 7.0 mph11.3 kmh 29.74 in1007.1 mb 0.00 in0.0 mm 0.00 in0.0 mm 0.00 in0.0 mm
09:05 AM 35.9°F2.2°C 28.4°F-2.0°C 74% 5.8 mph NW9.3 kmh NW 7.0 mph11.3 kmh 29.74 in1007.1 mb 0.00 in0.0 mm 0.00 in0.0 mm 0.00 in0.0 mm
09:06 AM 35.9°F2.2°C 28.4°F-2.0°C 74% 4.9 mph NW7.9 kmh NW 7.0 mph11.3 kmh 29.74 in1007.1 mb 0.00 in0.0 mm 0.00 in0.0 mm 0.00 in0.0 mm
09:07 AM 35.8°F2.1°C 28.3°F-2.1°C 74% 6.0 mph NW9.7 kmh NW 7.0 mph11.3 kmh 29.74 in1007.1 mb 0.00 in0.0 mm 0.00 in0.0 mm 0.00 in0.0 mm
09:08 AM 35.9°F2.2°C 28.4°F-2.0°C 74% 5.5 mph NW8.9 kmh NW 7.0 mph11.3 kmh 29.74 in1007.1 mb 0.00 in0.0 mm 0.00 in0.0 mm 0.00 in0.0 mm
09:09 AM 35.9°F2.2°C 28.4°F-2.0°C 74% 6.0 mph NW9.7 kmh NW 7.0 mph11.3 kmh 29.74 in1007.1 mb 0.00 in0.0 mm 0.00 in0.0 mm 0.00 in0.0 mm
09:10 AM 35.9°F2.2°C 28.1°F-2.2°C 73% 5.2 mph NW8.4 kmh NW 7.0 mph11.3 kmh 29.74 in1007.1 mb 0.00 in0.0 mm 0.00 in0.0 mm 0.00 in0.0 mm
09:11 AM 35.9°F2.2°C 28.1°F-2.2°C 73% 5.1 mph NW8.2 kmh NW 7.0 mph11.3 kmh 29.74 in1007.1 mb 0.00 in0.0 mm 0.00 in0.0 mm 0.00 in0.0 mm
09:12 AM 35.9°F2.2°C 28.1°F-2.2°C 73% 4.6 mph NW7.4 kmh NW 7.0 mph11.3 kmh 29.74 in1007.1 mb 0.00 in0.0 mm 0.00 in0.0 mm 0.00 in0.0 mm
09:13 AM 36.0°F2.2°C 28.5°F-1.9°C 74% 4.7 mph NW7.6 kmh NW 5.0 mph8.0 kmh 29.74 in1007.1 mb 0.00 in0.0 mm 0.00 in0.0 mm 0.00 in0.0 mm
09:14 AM 36.0°F2.2°C 28.5°F-1.9°C 74% 5.0 mph NW8.0 kmh NW 5.0 mph8.0 kmh 29.74 in1007.1 mb 0.00 in0.0 mm 0.00 in0.0 mm 0.00 in0.0 mm
09:15 AM 36.0°F2.2°C 28.5°F-1.9°C 74% 4.9 mph NW7.9 kmh NW 7.0 mph11.3 kmh 29.74 in1007.1 mb 0.00 in0.0 mm 0.00 in0.0 mm 0.00 in0.0 mm
09:16 AM 36.1°F2.3°C 28.6°F-1.9°C 74% 4.5 mph NW7.2 kmh NW 7.0 mph11.3 kmh 29.74 in1007.1 mb 0.00 in0.0 mm 0.00 in0.0 mm 0.00 in0.0 mm
09:17 AM 36.1°F2.3°C 28.6°F-1.9°C 74% 4.6 mph NW7.4 kmh NW 5.0 mph8.0 kmh 29.74 in1007.1 mb 0.00 in0.0 mm 0.00 in0.0 mm 0.00 in0.0 mm
09:18 AM 36.2°F2.3°C 29.1°F-1.6°C 75% 5.5 mph NW8.9 kmh NW 7.0 mph11.3 kmh 29.74 in1007.1 mb 0.00 in0.0 mm 0.00 in0.0 mm 0.00 in0.0 mm
09:19 AM 36.2°F2.3°C 29.1°F-1.6°C 75% 4.6 mph NW7.4 kmh NW 7.0 mph11.3 kmh 29.74 in1007.1 mb 0.00 in0.0 mm 0.00 in0.0 mm 0.00 in0.0 mm
09:20 AM 36.2°F2.3°C 29.1°F-1.6°C 75% 4.1 mph NW6.6 kmh NW 5.0 mph8.0 kmh 29.74 in1007.1 mb 0.00 in0.0 mm 0.00 in0.0 mm 0.00 in0.0 mm
09:21 AM 36.3°F2.4°C 29.5°F-1.4°C 76% 4.7 mph NW7.6 kmh NW 5.0 mph8.0 kmh 29.74 in1007.1 mb 0.00 in0.0 mm 0.00 in0.0 mm 0.00 in0.0 mm
09:22 AM 36.3°F2.4°C 29.5°F-1.4°C 76% 4.7 mph NW7.6 kmh NW 5.0 mph8.0 kmh 29.74 in1007.1 mb 0.00 in0.0 mm 0.00 in0.0 mm 0.00 in0.0 mm
09:23 AM 36.4°F2.4°C 29.6°F-1.3°C 76% 4.8 mph NW7.7 kmh NW 5.0 mph8.0 kmh 29.74 in1007.1 mb 0.00 in0.0 mm 0.00 in0.0 mm 0.00 in0.0 mm
09:24 AM 36.4°F2.4°C 29.6°F-1.3°C 76% 4.5 mph NW7.2 kmh NW 5.0 mph8.0 kmh 29.74 in1007.1 mb 0.00 in0.0 mm 0.00 in0.0 mm 0.00 in0.0 mm
09:25 AM 36.4°F2.4°C 29.2°F-1.6°C 75% 4.4 mph NW7.1 kmh NW 5.0 mph8.0 kmh 29.74 in1007.1 mb 0.00 in0.0 mm 0.00 in0.0 mm 0.00 in0.0 mm
09:26 AM 36.4°F2.4°C 29.2°F-1.6°C 75% 4.5 mph NW7.2 kmh NW 5.0 mph8.0 kmh 29.74 in1007.1 mb 0.00 in0.0 mm 0.00 in0.0 mm 0.00 in0.0 mm
09:27 AM 36.4°F2.4°C 29.6°F-1.3°C 76% 5.2 mph NW8.4 kmh NW 7.0 mph11.3 kmh 29.74 in1007.1 mb 0.00 in0.0 mm 0.00 in0.0 mm 0.00 in0.0 mm
09:28 AM 36.5°F2.5°C 29.7°F-1.3°C 76% 4.9 mph NW7.9 kmh NW 7.0 mph11.3 kmh 29.74 in1007.1 mb 0.00 in0.0 mm 0.00 in0.0 mm 0.00 in0.0 mm
09:29 AM 36.5°F2.5°C 29.3°F-1.5°C 75% 4.6 mph NW7.4 kmh NW 5.0 mph8.0 kmh 29.74 in1007.1 mb 0.00 in0.0 mm 0.00 in0.0 mm 0.00 in0.0 mm
09:30 AM 36.6°F2.6°C 29.4°F-1.4°C 75% 4.8 mph NW7.7 kmh NW 5.0 mph8.0 kmh 29.74 in1007.1 mb 0.00 in0.0 mm 0.00 in0.0 mm 0.00 in0.0 mm
09:31 AM 36.6°F2.6°C 29.4°F-1.4°C 75% 4.6 mph NW7.4 kmh NW 5.0 mph8.0 kmh 29.74 in1007.1 mb 0.00 in0.0 mm 0.00 in0.0 mm 0.00 in0.0 mm
09:32 AM 36.6°F2.6°C 29.4°F-1.4°C 75% 4.6 mph NW7.4 kmh NW 5.0 mph8.0 kmh 29.74 in1007.1 mb 0.00 in0.0 mm 0.00 in0.0 mm 0.00 in0.0 mm
09:33 AM 36.6°F2.6°C 29.4°F-1.4°C 75% 4.5 mph NW7.2 kmh NW 5.0 mph8.0 kmh 29.74 in1007.1 mb 0.00 in0.0 mm 0.00 in0.0 mm 0.00 in0.0 mm
09:34 AM 36.7°F2.6°C 29.5°F-1.4°C 75% 4.5 mph NW7.2 kmh NW 5.0 mph8.0 kmh 29.74 in1007.1 mb 0.00 in0.0 mm 0.00 in0.0 mm 0.00 in0.0 mm
09:35 AM 36.8°F2.7°C 29.6°F-1.3°C 75% 4.4 mph NW7.1 kmh NW 5.0 mph8.0 kmh 29.74 in1007.1 mb 0.00 in0.0 mm 0.00 in0.0 mm 0.00 in0.0 mm
09:36 AM 36.9°F2.7°C 29.7°F-1.3°C 75% 4.6 mph NW7.4 kmh NW 5.0 mph8.0 kmh 29.74 in1007.1 mb 0.00 in0.0 mm 0.00 in0.0 mm 0.00 in0.0 mm
09:37 AM 36.9°F2.7°C 29.7°F-1.3°C 75% 4.5 mph NW7.2 kmh NW 5.0 mph8.0 kmh 29.74 in1007.1 mb 0.00 in0.0 mm 0.00 in0.0 mm 0.00 in0.0 mm
09:38 AM 37.0°F2.8°C 29.8°F-1.2°C 75% 4.3 mph NW6.9 kmh NW 5.0 mph8.0 kmh 29.74 in1007.1 mb 0.00 in0.0 mm 0.00 in0.0 mm 0.00 in0.0 mm
09:39 AM 37.0°F2.8°C 29.8°F-1.2°C 75% 4.6 mph NW7.4 kmh NW 5.0 mph8.0 kmh 29.74 in1007.1 mb 0.00 in0.0 mm 0.00 in0.0 mm 0.00 in0.0 mm
09:40 AM 37.1°F2.8°C 29.9°F-1.2°C 75% 3.7 mph NNW6.0 kmh NNW 5.0 mph8.0 kmh 29.74 in1007.1 mb 0.00 in0.0 mm 0.00 in0.0 mm 0.00 in0.0 mm
09:41 AM 37.1°F2.8°C 29.6°F-1.3°C 74% 4.1 mph NNW6.6 kmh NNW 5.0 mph8.0 kmh 29.74 in1007.1 mb 0.00 in0.0 mm 0.00 in0.0 mm 0.00 in0.0 mm
09:42 AM 37.2°F2.9°C 29.7°F-1.3°C 74% 3.6 mph N5.8 kmh N 5.0 mph8.0 kmh 29.74 in1007.1 mb 0.00 in0.0 mm 0.00 in0.0 mm 0.00 in0.0 mm
09:43 AM 37.2°F2.9°C 29.7°F-1.3°C 74% 3.6 mph N5.8 kmh N 5.0 mph8.0 kmh 29.74 in1007.1 mb 0.00 in0.0 mm 0.00 in0.0 mm 0.00 in0.0 mm
09:44 AM 37.3°F2.9°C 29.8°F-1.2°C 74% 2.7 mph N4.3 kmh N 5.0 mph8.0 kmh 29.74 in1007.1 mb 0.00 in0.0 mm 0.00 in0.0 mm 0.00 in0.0 mm
09:45 AM 37.3°F2.9°C 29.8°F-1.2°C 74% 2.9 mph N4.7 kmh N 4.0 mph6.4 kmh 29.74 in1007.1 mb 0.00 in0.0 mm 0.00 in0.0 mm 0.00 in0.0 mm
09:46 AM 37.3°F2.9°C 29.8°F-1.2°C 74% 3.2 mph N5.1 kmh N 4.0 mph6.4 kmh 29.74 in1007.1 mb 0.00 in0.0 mm 0.00 in0.0 mm 0.00 in0.0 mm
09:47 AM 37.4°F3.0°C 29.9°F-1.2°C 74% 3.2 mph N5.1 kmh N 4.0 mph6.4 kmh 29.74 in1007.1 mb 0.00 in0.0 mm 0.00 in0.0 mm 0.00 in0.0 mm
09:48 AM 37.4°F3.0°C 29.9°F-1.2°C 74% 3.2 mph N5.1 kmh N 4.0 mph6.4 kmh 29.74 in1007.1 mb 0.00 in0.0 mm 0.00 in0.0 mm 0.00 in0.0 mm
09:49 AM 37.4°F3.0°C 29.5°F-1.4°C 73% 3.5 mph N5.6 kmh N 4.0 mph6.4 kmh 29.74 in1007.1 mb 0.00 in0.0 mm 0.00 in0.0 mm 0.00 in0.0 mm
09:50 AM 37.5°F3.1°C 29.6°F-1.3°C 73% 2.5 mph N4.0 kmh N 4.0 mph6.4 kmh 29.74 in1007.1 mb 0.00 in0.0 mm 0.00 in0.0 mm 0.00 in0.0 mm
09:51 AM 37.5°F3.1°C 29.6°F-1.3°C 73% 2.1 mph N3.4 kmh N 4.0 mph6.4 kmh 29.74 in1007.1 mb 0.00 in0.0 mm 0.00 in0.0 mm 0.00 in0.0 mm
09:52 AM 37.6°F3.1°C 29.7°F-1.3°C 73% 2.0 mph N3.2 kmh N 3.0 mph4.8 kmh 29.74 in1007.1 mb 0.00 in0.0 mm 0.00 in0.0 mm 0.00 in0.0 mm
09:53 AM 37.7°F3.2°C 29.8°F-1.2°C 73% 2.0 mph N3.2 kmh N 3.0 mph4.8 kmh 29.74 in1007.1 mb 0.00 in0.0 mm 0.00 in0.0 mm 0.00 in0.0 mm
09:54 AM 37.8°F3.2°C 29.9°F-1.2°C 73% 2.0 mph N3.2 kmh N 3.0 mph4.8 kmh 29.74 in1007.1 mb 0.00 in0.0 mm 0.00 in0.0 mm 0.00 in0.0 mm
09:55 AM 37.8°F3.2°C 29.6°F-1.3°C 72% 1.9 mph N3.1 kmh N 3.0 mph4.8 kmh 29.74 in1007.1 mb 0.00 in0.0 mm 0.00 in0.0 mm 0.00 in0.0 mm
09:56 AM 37.9°F3.3°C 29.7°F-1.3°C 72% 2.5 mph N4.0 kmh N 3.0 mph4.8 kmh 29.74 in1007.1 mb 0.00 in0.0 mm 0.00 in0.0 mm 0.00 in0.0 mm
09:57 AM 38.0°F3.3°C 29.8°F-1.2°C 72% 2.3 mph N3.7 kmh N 4.0 mph6.4 kmh 29.74 in1007.1 mb 0.00 in0.0 mm 0.00 in0.0 mm 0.00 in0.0 mm
09:58 AM 38.0°F3.3°C 29.8°F-1.2°C 72% 3.5 mph N5.6 kmh N 5.0 mph8.0 kmh 29.74 in1007.1 mb 0.00 in0.0 mm 0.00 in0.0 mm 0.00 in0.0 mm
09:59 AM 38.0°F3.3°C 29.8°F-1.2°C 72% 3.9 mph N6.3 kmh N 5.0 mph8.0 kmh 29.74 in1007.1 mb 0.00 in0.0 mm 0.00 in0.0 mm 0.00 in0.0 mm
10:00 AM 38.0°F3.3°C 29.4°F-1.4°C 71% 3.3 mph N5.3 kmh N 5.0 mph8.0 kmh 29.74 in1007.1 mb 0.00 in0.0 mm 0.00 in0.0 mm 0.00 in0.0 mm
10:01 AM 38.0°F3.3°C 29.4°F-1.4°C 71% 2.6 mph N4.2 kmh N 4.0 mph6.4 kmh 29.74 in1007.1 mb 0.00 in0.0 mm 0.00 in0.0 mm 0.00 in0.0 mm
10:02 AM 38.0°F3.3°C 29.4°F-1.4°C 71% 2.1 mph N3.4 kmh N 3.0 mph4.8 kmh 29.74 in1007.1 mb 0.00 in0.0 mm 0.00 in0.0 mm 0.00 in0.0 mm
10:03 AM 38.1°F3.4°C 29.5°F-1.4°C 71% 1.7 mph N2.7 kmh N 3.0 mph4.8 kmh 29.74 in1007.1 mb 0.00 in0.0 mm 0.00 in0.0 mm 0.00 in0.0 mm
10:04 AM 38.2°F3.4°C 29.6°F-1.3°C 71% 1.7 mph N2.7 kmh N 3.0 mph4.8 kmh 29.74 in1007.1 mb 0.00 in0.0 mm 0.00 in0.0 mm 0.00 in0.0 mm
10:05 AM 38.3°F3.5°C 29.4°F-1.4°C 70% 1.8 mph N2.9 kmh N 4.0 mph6.4 kmh 29.74 in1007.1 mb 0.00 in0.0 mm 0.00 in0.0 mm 0.00 in0.0 mm
10:06 AM 38.4°F3.6°C 29.5°F-1.4°C 70% 1.9 mph N3.1 kmh N 4.0 mph6.4 kmh 29.74 in1007.1 mb 0.00 in0.0 mm 0.00 in0.0 mm 0.00 in0.0 mm
10:07 AM 38.4°F3.6°C 29.5°F-1.4°C 70% 2.3 mph N3.7 kmh N 3.0 mph4.8 kmh 29.74 in1007.1 mb 0.00 in0.0 mm 0.00 in0.0 mm 0.00 in0.0 mm
10:08 AM 38.5°F3.6°C 29.6°F-1.3°C 70% 3.3 mph N5.3 kmh N 4.0 mph6.4 kmh 29.74 in1007.1 mb 0.00 in0.0 mm 0.00 in0.0 mm 0.00 in0.0 mm
10:09 AM 38.4°F3.6°C 29.5°F-1.4°C 70% 3.3 mph N5.3 kmh N 4.0 mph6.4 kmh 29.74 in1007.1 mb 0.00 in0.0 mm 0.00 in0.0 mm 0.00 in0.0 mm
10:10 AM 38.4°F3.6°C 29.8°F-1.2°C 71% 3.0 mph N4.8 kmh N 4.0 mph6.4 kmh 29.74 in1007.1 mb 0.00 in0.0 mm 0.00 in0.0 mm 0.00 in0.0 mm
10:11 AM 38.4°F3.6°C 29.8°F-1.2°C 71% 2.2 mph N3.5 kmh N 4.0 mph6.4 kmh 29.74 in1007.1 mb 0.00 in0.0 mm 0.00 in0.0 mm 0.00 in0.0 mm
10:12 AM 38.4°F3.6°C 29.8°F-1.2°C 71% 2.5 mph N4.0 kmh N 4.0 mph6.4 kmh 29.74 in1007.1 mb 0.00 in0.0 mm 0.00 in0.0 mm 0.00 in0.0 mm
10:13 AM 38.4°F3.6°C 29.8°F-1.2°C 71% 2.9 mph N4.7 kmh N 4.0 mph6.4 kmh 29.74 in1007.1 mb 0.00 in0.0 mm 0.00 in0.0 mm 0.00 in0.0 mm
10:14 AM 38.4°F3.6°C 29.5°F-1.4°C 70% 2.5 mph N4.0 kmh N 4.0 mph6.4 kmh 29.74 in1007.1 mb 0.00 in0.0 mm 0.00 in0.0 mm 0.00 in0.0 mm
10:15 AM 38.4°F3.6°C 29.5°F-1.4°C 70% 2.7 mph N4.3 kmh N 4.0 mph6.4 kmh 29.74 in1007.1 mb 0.00 in0.0 mm 0.00 in0.0 mm 0.00 in0.0 mm
10:16 AM 38.4°F3.6°C 29.1°F-1.6°C 69% 2.7 mph N4.3 kmh N 4.0 mph6.4 kmh 29.74 in1007.1 mb 0.00 in0.0 mm 0.00 in0.0 mm 0.00 in0.0 mm
10:17 AM 38.5°F3.6°C 29.2°F-1.6°C 69% 2.7 mph N4.3 kmh N 4.0 mph6.4 kmh 29.74 in1007.1 mb 0.00 in0.0 mm 0.00 in0.0 mm 0.00 in0.0 mm
10:18 AM 38.5°F3.6°C 29.2°F-1.6°C 69% 2.7 mph N4.3 kmh N 4.0 mph6.4 kmh 29.74 in1007.1 mb 0.00 in0.0 mm 0.00 in0.0 mm 0.00 in0.0 mm
10:19 AM 38.6°F3.7°C 29.3°F-1.5°C 69% 2.2 mph N3.5 kmh N 4.0 mph6.4 kmh 29.74 in1007.1 mb 0.00 in0.0 mm 0.00 in0.0 mm 0.00 in0.0 mm
10:20 AM 38.6°F3.7°C 29.3°F-1.5°C 69% 2.6 mph N4.2 kmh N 3.0 mph4.8 kmh 29.74 in1007.1 mb 0.00 in0.0 mm 0.00 in0.0 mm 0.00 in0.0 mm
10:21 AM 38.6°F3.7°C 29.7°F-1.3°C 70% 2.2 mph N3.5 kmh N 3.0 mph4.8 kmh 29.74 in1007.1 mb 0.00 in0.0 mm 0.00 in0.0 mm 0.00 in0.0 mm
10:22 AM 38.7°F3.7°C 29.8°F-1.2°C 70% 2.3 mph N3.7 kmh N 4.0 mph6.4 kmh 29.74 in1007.1 mb 0.00 in0.0 mm 0.00 in0.0 mm 0.00 in0.0 mm
10:23 AM 38.7°F3.7°C 29.4°F-1.4°C 69% 2.3 mph N3.7 kmh N 4.0 mph6.4 kmh 29.74 in1007.1 mb 0.00 in0.0 mm 0.00 in0.0 mm 0.00 in0.0 mm
10:24 AM 38.7°F3.7°C 29.1°F-1.6°C 68% 2.4 mph N3.9 kmh N 4.0 mph6.4 kmh 29.74 in1007.1 mb 0.00 in0.0 mm 0.00 in0.0 mm 0.00 in0.0 mm
10:25 AM 38.7°F3.7°C 29.1°F-1.6°C 68% 2.8 mph N4.5 kmh N 4.0 mph6.4 kmh 29.74 in1007.1 mb 0.00 in0.0 mm 0.00 in0.0 mm 0.00 in0.0 mm
10:26 AM 38.7°F3.7°C 29.1°F-1.6°C 68% 2.6 mph N4.2 kmh N 4.0 mph6.4 kmh 29.74 in1007.1 mb 0.00 in0.0 mm 0.00 in0.0 mm 0.00 in0.0 mm
10:27 AM 38.7°F3.7°C 29.1°F-1.6°C 68% 2.8 mph N4.5 kmh N 4.0 mph6.4 kmh 29.74 in1007.1 mb 0.00 in0.0 mm 0.00 in0.0 mm 0.00 in0.0 mm
10:28 AM 38.8°F3.8°C 29.2°F-1.6°C 68% 2.9 mph N4.7 kmh N 4.0 mph6.4 kmh 29.74 in1007.1 mb 0.00 in0.0 mm 0.00 in0.0 mm 0.00 in0.0 mm
10:29 AM 38.8°F3.8°C 29.2°F-1.6°C 68% 3.1 mph N5.0 kmh N 4.0 mph6.4 kmh 29.74 in1007.1 mb 0.00 in0.0 mm 0.00 in0.0 mm 0.00 in0.0 mm
10:30 AM 38.7°F3.7°C 28.7°F-1.8°C 67% 3.0 mph N4.8 kmh N 4.0 mph6.4 kmh 29.74 in1007.1 mb 0.00 in0.0 mm 0.00 in0.0 mm 0.00 in0.0 mm
10:31 AM 38.8°F3.8°C 28.8°F-1.8°C 67% 2.6 mph N4.2 kmh N 4.0 mph6.4 kmh 29.74 in1007.1 mb 0.00 in0.0 mm 0.00 in0.0 mm 0.00 in0.0 mm
10:32 AM 38.8°F3.8°C 29.2°F-1.6°C 68% 3.0 mph N4.8 kmh N 4.0 mph6.4 kmh 29.74 in1007.1 mb 0.00 in0.0 mm 0.00 in0.0 mm 0.00 in0.0 mm
10:33 AM 38.9°F3.8°C 29.3°F-1.5°C 68% 3.2 mph N5.1 kmh N 4.0 mph6.4 kmh 29.74 in1007.1 mb 0.00 in0.0 mm 0.00 in0.0 mm 0.00 in0.0 mm
10:34 AM 38.9°F3.8°C 28.9°F-1.7°C 67% 3.0 mph N4.8 kmh N 4.0 mph6.4 kmh 29.74 in1007.1 mb 0.00 in0.0 mm 0.00 in0.0 mm 0.00 in0.0 mm
10:35 AM 38.9°F3.8°C 28.9°F-1.7°C 67% 2.5 mph N4.0 kmh N 4.0 mph6.4 kmh 29.74 in1007.1 mb 0.00 in0.0 mm 0.00 in0.0 mm 0.00 in0.0 mm
10:36 AM 38.9°F3.8°C 28.9°F-1.7°C 67% 2.7 mph N4.3 kmh N 3.0 mph4.8 kmh 29.74 in1007.1 mb 0.00 in0.0 mm 0.00 in0.0 mm 0.00 in0.0 mm
10:37 AM 38.9°F3.8°C 28.9°F-1.7°C 67% 2.3 mph N3.7 kmh N 3.0 mph4.8 kmh 29.74 in1007.1 mb 0.00 in0.0 mm 0.00 in0.0 mm 0.00 in0.0 mm
10:38 AM 38.9°F3.8°C 28.5°F-1.9°C 66% 2.0 mph N3.2 kmh N 3.0 mph4.8 kmh 29.74 in1007.1 mb 0.00 in0.0 mm 0.00 in0.0 mm 0.00 in0.0 mm
10:39 AM 38.9°F3.8°C 28.5°F-1.9°C 66% 1.6 mph N2.6 kmh N 3.0 mph4.8 kmh 29.74 in1007.1 mb 0.00 in0.0 mm 0.00 in0.0 mm 0.00 in0.0 mm
10:40 AM 38.9°F3.8°C 28.2°F-2.1°C 65% 1.6 mph N2.6 kmh N 3.0 mph4.8 kmh 29.74 in1007.1 mb 0.00 in0.0 mm 0.00 in0.0 mm 0.00 in0.0 mm
10:41 AM 38.9°F3.8°C 28.2°F-2.1°C 65% 2.0 mph N3.2 kmh N 3.0 mph4.8 kmh 29.74 in1007.1 mb 0.00 in0.0 mm 0.00 in0.0 mm 0.00 in0.0 mm
10:42 AM 38.9°F3.8°C 28.2°F-2.1°C 65% 2.1 mph N3.4 kmh N 3.0 mph4.8 kmh 29.74 in1007.1 mb 0.00 in0.0 mm 0.00 in0.0 mm 0.00 in0.0 mm
10:43 AM 38.8°F3.8°C 28.4°F-2.0°C 66% 2.3 mph N3.7 kmh N 3.0 mph4.8 kmh 29.74 in1007.1 mb 0.00 in0.0 mm 0.00 in0.0 mm 0.00 in0.0 mm
10:44 AM 38.8°F3.8°C 28.1°F-2.2°C 65% 1.0 mph N1.6 kmh N 3.0 mph4.8 kmh 29.74 in1007.1 mb 0.00 in0.0 mm 0.00 in0.0 mm 0.00 in0.0 mm
10:45 AM 38.9°F3.8°C 28.2°F-2.1°C 65% 1.2 mph N1.9 kmh N 3.0 mph4.8 kmh 29.74 in1007.1 mb 0.00 in0.0 mm 0.00 in0.0 mm 0.00 in0.0 mm
10:46 AM 38.9°F3.8°C 28.2°F-2.1°C 65% 2.3 mph N3.7 kmh N 3.0 mph4.8 kmh 29.74 in1007.1 mb 0.00 in0.0 mm 0.00 in0.0 mm 0.00 in0.0 mm
10:47 AM 38.9°F3.8°C 28.2°F-2.1°C 65% 2.1 mph N3.4 kmh N 3.0 mph4.8 kmh 29.74 in1007.1 mb 0.00 in0.0 mm 0.00 in0.0 mm 0.00 in0.0 mm
10:48 AM 38.9°F3.8°C 27.8°F-2.3°C 64% 2.2 mph N3.5 kmh N 3.0 mph4.8 kmh 29.74 in1007.1 mb 0.00 in0.0 mm 0.00 in0.0 mm 0.00 in0.0 mm
10:49 AM 38.9°F3.8°C 27.8°F-2.3°C 64% 2.0 mph N3.2 kmh N 3.0 mph4.8 kmh 29.74 in1007.1 mb 0.00 in0.0 mm 0.00 in0.0 mm 0.00 in0.0 mm
10:50 AM 39.0°F3.9°C 27.9°F-2.3°C 64% 2.3 mph N3.7 kmh N 4.0 mph6.4 kmh 29.74 in1007.1 mb 0.00 in0.0 mm 0.00 in0.0 mm 0.00 in0.0 mm
10:51 AM 39.0°F3.9°C 27.9°F-2.3°C 64% 2.1 mph N3.4 kmh N 4.0 mph6.4 kmh 29.74 in1007.1 mb 0.00 in0.0 mm 0.00 in0.0 mm 0.00 in0.0 mm
10:52 AM 39.0°F3.9°C 27.9°F-2.3°C 64% 2.0 mph N3.2 kmh N 3.0 mph4.8 kmh 29.74 in1007.1 mb 0.00 in0.0 mm 0.00 in0.0 mm 0.00 in0.0 mm
10:53 AM 39.1°F3.9°C 28.0°F-2.2°C 64% 2.2 mph N3.5 kmh N 3.0 mph4.8 kmh 29.74 in1007.1 mb 0.00 in0.0 mm 0.00 in0.0 mm 0.00 in0.0 mm
10:54 AM 39.1°F3.9°C 28.3°F-2.1°C 65% 2.5 mph N4.0 kmh N 3.0 mph4.8 kmh 29.74 in1007.1 mb 0.00 in0.0 mm 0.00 in0.0 mm 0.00 in0.0 mm
10:55 AM 39.0°F3.9°C 28.2°F-2.1°C 65% 2.7 mph N4.3 kmh N 4.0 mph6.4 kmh 29.74 in1007.1 mb 0.00 in0.0 mm 0.00 in0.0 mm 0.00 in0.0 mm
10:56 AM 38.9°F3.8°C 28.5°F-1.9°C 66% 2.2 mph N3.5 kmh N 4.0 mph6.4 kmh 29.74 in1007.1 mb 0.00 in0.0 mm 0.00 in0.0 mm 0.00 in0.0 mm
10:57 AM 38.9°F3.8°C 28.9°F-1.7°C 67% 2.6 mph N4.2 kmh N 3.0 mph4.8 kmh 29.74 in1007.1 mb 0.00 in0.0 mm 0.00 in0.0 mm 0.00 in0.0 mm
10:58 AM 38.9°F3.8°C 28.9°F-1.7°C 67% 2.3 mph N3.7 kmh N 3.0 mph4.8 kmh 29.74 in1007.1 mb 0.00 in0.0 mm 0.00 in0.0 mm 0.00 in0.0 mm
10:59 AM 38.8°F3.8°C 27.7°F-2.4°C 64% 2.2 mph N3.5 kmh N 3.0 mph4.8 kmh 29.74 in1007.1 mb 0.00 in0.0 mm 0.00 in0.0 mm 0.00 in0.0 mm
11:00 AM 38.8°F3.8°C 27.7°F-2.4°C 64% 2.3 mph N3.7 kmh N 3.0 mph4.8 kmh 29.74 in1007.1 mb 0.00 in0.0 mm 0.00 in0.0 mm 0.00 in0.0 mm
11:01 AM 38.7°F3.7°C 27.6°F-2.4°C 64% 2.3 mph N3.7 kmh N 3.0 mph4.8 kmh 29.74 in1007.1 mb 0.00 in0.0 mm 0.00 in0.0 mm 0.00 in0.0 mm
11:02 AM 38.8°F3.8°C 27.7°F-2.4°C 64% 2.3 mph N3.7 kmh N 3.0 mph4.8 kmh 29.74 in1007.1 mb 0.00 in0.0 mm 0.00 in0.0 mm 0.00 in0.0 mm
11:03 AM 38.6°F3.7°C 27.5°F-2.5°C 64% 2.6 mph N4.2 kmh N 4.0 mph6.4 kmh 29.74 in1007.1 mb 0.00 in0.0 mm 0.00 in0.0 mm 0.00 in0.0 mm
11:04 AM 38.7°F3.7°C 27.6°F-2.4°C 64% 2.6 mph N4.2 kmh N 4.0 mph6.4 kmh 29.74 in1007.1 mb 0.00 in0.0 mm 0.00 in0.0 mm 0.00 in0.0 mm
11:05 AM 38.6°F3.7°C 27.5°F-2.5°C 64% 2.5 mph N4.0 kmh N 3.0 mph4.8 kmh 29.74 in1007.1 mb 0.00 in0.0 mm 0.00 in0.0 mm 0.00 in0.0 mm
11:06 AM 38.6°F3.7°C 27.5°F-2.5°C 64% 2.2 mph N3.5 kmh N 3.0 mph4.8 kmh 29.74 in1007.1 mb 0.00 in0.0 mm 0.00 in0.0 mm 0.00 in0.0 mm
11:07 AM 38.7°F3.7°C 27.6°F-2.4°C 64% 2.1 mph N3.4 kmh N 3.0 mph4.8 kmh 29.73 in1006.8 mb 0.00 in0.0 mm 0.00 in0.0 mm 0.00 in0.0 mm
11:08 AM 38.6°F3.7°C 27.5°F-2.5°C 64% 2.0 mph N3.2 kmh N 3.0 mph4.8 kmh 29.73 in1006.8 mb 0.00 in0.0 mm 0.00 in0.0 mm 0.00 in0.0 mm
11:09 AM 38.7°F3.7°C 27.6°F-2.4°C 64% 2.0 mph N3.2 kmh N 3.0 mph4.8 kmh 29.73 in1006.8 mb 0.00 in0.0 mm 0.00 in0.0 mm 0.00 in0.0 mm
11:10 AM 38.7°F3.7°C 27.6°F-2.4°C 64% 1.5 mph N2.4 kmh N 3.0 mph4.8 kmh 29.73 in1006.8 mb 0.00 in0.0 mm 0.00 in0.0 mm 0.00 in0.0 mm
11:11 AM 38.7°F3.7°C 27.6°F-2.4°C 64% 2.0 mph N3.2 kmh N 3.0 mph4.8 kmh 29.73 in1006.8 mb 0.00 in0.0 mm 0.00 in0.0 mm 0.00 in0.0 mm
11:12 AM 38.8°F3.8°C 27.7°F-2.4°C 64% 2.1 mph N3.4 kmh N 3.0 mph4.8 kmh 29.73 in1006.8 mb 0.00 in0.0 mm 0.00 in0.0 mm 0.00 in0.0 mm
11:13 AM 38.9°F3.8°C 27.8°F-2.3°C 64% 2.7 mph N4.3 kmh N 3.0 mph4.8 kmh 29.73 in1006.8 mb 0.00 in0.0 mm 0.00 in0.0 mm 0.00 in0.0 mm
11:14 AM 38.9°F3.8°C 27.4°F-2.6°C 63% 2.6 mph N4.2 kmh N 3.0 mph4.8 kmh 29.73 in1006.8 mb 0.00 in0.0 mm 0.00 in0.0 mm 0.00 in0.0 mm
11:15 AM 38.9°F3.8°C 27.4°F-2.6°C 63% 1.9 mph N3.1 kmh N 3.0 mph4.8 kmh 29.73 in1006.8 mb 0.00 in0.0 mm 0.00 in0.0 mm 0.00 in0.0 mm
11:16 AM 39.1°F3.9°C 28.0°F-2.2°C 64% 2.6 mph N4.2 kmh N 3.0 mph4.8 kmh 29.73 in1006.8 mb 0.00 in0.0 mm 0.00 in0.0 mm 0.00 in0.0 mm
11:17 AM 39.1°F3.9°C 28.0°F-2.2°C 64% 2.5 mph N4.0 kmh N 3.0 mph4.8 kmh 29.73 in1006.8 mb 0.00 in0.0 mm 0.00 in0.0 mm 0.00 in0.0 mm
11:18 AM 39.2°F4.0°C 28.1°F-2.2°C 64% 2.5 mph N4.0 kmh N 3.0 mph4.8 kmh 29.73 in1006.8 mb 0.00 in0.0 mm 0.00 in0.0 mm 0.00 in0.0 mm
11:19 AM 39.3°F4.1°C 28.2°F-2.1°C 64% 2.7 mph N4.3 kmh N 4.0 mph6.4 kmh 29.73 in1006.8 mb 0.00 in0.0 mm 0.00 in0.0 mm 0.00 in0.0 mm
11:20 AM 39.4°F4.1°C 27.9°F-2.3°C 63% 2.5 mph N4.0 kmh N 4.0 mph6.4 kmh 29.73 in1006.8 mb 0.00 in0.0 mm 0.00 in0.0 mm 0.00 in0.0 mm
11:21 AM 39.4°F4.1°C 27.9°F-2.3°C 63% 2.4 mph N3.9 kmh N 4.0 mph6.4 kmh 29.73 in1006.8 mb 0.00 in0.0 mm 0.00 in0.0 mm 0.00 in0.0 mm
11:22 AM 39.5°F4.2°C 28.0°F-2.2°C 63% 2.1 mph N3.4 kmh N 3.0 mph4.8 kmh 29.73 in1006.8 mb 0.00 in0.0 mm 0.00 in0.0 mm 0.00 in0.0 mm
11:23 AM 39.6°F4.2°C 28.1°F-2.2°C 63% 2.3 mph N3.7 kmh N 3.0 mph4.8 kmh 29.73 in1006.8 mb 0.00 in0.0 mm 0.00 in0.0 mm 0.00 in0.0 mm
11:24 AM 39.7°F4.3°C 28.2°F-2.1°C 63% 2.4 mph N3.9 kmh N 3.0 mph4.8 kmh 29.73 in1006.8 mb 0.00 in0.0 mm 0.00 in0.0 mm 0.00 in0.0 mm
11:25 AM 39.8°F4.3°C 28.2°F-2.1°C 63% 1.8 mph N2.9 kmh N 3.0 mph4.8 kmh 29.73 in1006.8 mb 0.00 in0.0 mm 0.00 in0.0 mm 0.00 in0.0 mm
11:26 AM 39.8°F4.3°C 27.9°F-2.3°C 62% 2.0 mph N3.2 kmh N 3.0 mph4.8 kmh 29.73 in1006.8 mb 0.00 in0.0 mm 0.00 in0.0 mm 0.00 in0.0 mm
11:27 AM 39.8°F4.3°C 27.9°F-2.3°C 62% 2.0 mph N3.2 kmh N 4.0 mph6.4 kmh 29.73 in1006.8 mb 0.00 in0.0 mm 0.00 in0.0 mm 0.00 in0.0 mm
11:28 AM 39.8°F4.3°C 27.9°F-2.3°C 62% 2.1 mph N3.4 kmh N 4.0 mph6.4 kmh 29.73 in1006.8 mb 0.00 in0.0 mm 0.00 in0.0 mm 0.00 in0.0 mm
11:29 AM 39.8°F4.3°C 27.9°F-2.3°C 62% 2.5 mph N4.0 kmh N 3.0 mph4.8 kmh 29.73 in1006.8 mb 0.00 in0.0 mm 0.00 in0.0 mm 0.00 in0.0 mm
11:30 AM 39.8°F4.3°C 27.9°F-2.3°C 62% 2.1 mph N3.4 kmh N 3.0 mph4.8 kmh 29.73 in1006.8 mb 0.00 in0.0 mm 0.00 in0.0 mm 0.00 in0.0 mm
11:31 AM 39.8°F4.3°C 27.9°F-2.3°C 62% 1.8 mph N2.9 kmh N 3.0 mph4.8 kmh 29.73 in1006.8 mb 0.00 in0.0 mm 0.00 in0.0 mm 0.00 in0.0 mm
11:32 AM 39.8°F4.3°C 27.9°F-2.3°C 62% 1.9 mph N3.1 kmh N 4.0 mph6.4 kmh 29.73 in1006.8 mb 0.00 in0.0 mm 0.00 in0.0 mm 0.00 in0.0 mm
11:33 AM 39.7°F4.3°C 27.8°F-2.3°C 62% 2.0 mph N3.2 kmh N 4.0 mph6.4 kmh 29.73 in1006.8 mb 0.00 in0.0 mm 0.00 in0.0 mm 0.00 in0.0 mm
11:34 AM 39.7°F4.3°C 27.4°F-2.6°C 61% 2.5 mph N4.0 kmh N 3.0 mph4.8 kmh 29.73 in1006.8 mb 0.00 in0.0 mm 0.00 in0.0 mm 0.00 in0.0 mm
11:35 AM 39.6°F4.2°C 27.7°F-2.4°C 62% 2.2 mph N3.5 kmh N 3.0 mph4.8 kmh 29.73 in1006.8 mb 0.00 in0.0 mm 0.00 in0.0 mm 0.00 in0.0 mm
11:36 AM 39.6°F4.2°C 28.1°F-2.2°C 63% 1.9 mph N3.1 kmh N 3.0 mph4.8 kmh 29.73 in1006.8 mb 0.00 in0.0 mm 0.00 in0.0 mm 0.00 in0.0 mm
11:37 AM 39.6°F4.2°C 28.1°F-2.2°C 63% 1.9 mph N3.1 kmh N 3.0 mph4.8 kmh 29.73 in1006.8 mb 0.00 in0.0 mm 0.00 in0.0 mm 0.00 in0.0 mm
11:38 AM 39.7°F4.3°C 28.2°F-2.1°C 63% 2.1 mph N3.4 kmh N 3.0 mph4.8 kmh 29.73 in1006.8 mb 0.00 in0.0 mm 0.00 in0.0 mm 0.00 in0.0 mm
11:39 AM 39.7°F4.3°C 28.2°F-2.1°C 63% 1.7 mph N2.7 kmh N 3.0 mph4.8 kmh 29.73 in1006.8 mb 0.00 in0.0 mm 0.00 in0.0 mm 0.00 in0.0 mm
11:40 AM 39.8°F4.3°C 27.5°F-2.5°C 61% 1.5 mph N2.4 kmh N 3.0 mph4.8 kmh 29.73 in1006.8 mb 0.00 in0.0 mm 0.00 in0.0 mm 0.00 in0.0 mm
11:41 AM 39.9°F4.4°C 28.0°F-2.2°C 62% 2.0 mph N3.2 kmh N 3.0 mph4.8 kmh 29.73 in1006.8 mb 0.00 in0.0 mm 0.00 in0.0 mm 0.00 in0.0 mm
11:42 AM 39.9°F4.4°C 27.6°F-2.4°C 61% 2.0 mph N3.2 kmh N 3.0 mph4.8 kmh 29.73 in1006.8 mb 0.00 in0.0 mm 0.00 in0.0 mm 0.00 in0.0 mm
11:43 AM 39.9°F4.4°C 27.6°F-2.4°C 61% 2.4 mph N3.9 kmh N 4.0 mph6.4 kmh 29.73 in1006.8 mb 0.00 in0.0 mm 0.00 in0.0 mm 0.00 in0.0 mm
11:44 AM 39.9°F4.4°C 27.6°F-2.4°C 61% 2.7 mph N4.3 kmh N 4.0 mph6.4 kmh 29.73 in1006.8 mb 0.00 in0.0 mm 0.00 in0.0 mm 0.00 in0.0 mm
11:45 AM 40.0°F4.4°C 28.0°F-2.2°C 62% 2.8 mph N4.5 kmh N 4.0 mph6.4 kmh 29.73 in1006.8 mb 0.00 in0.0 mm 0.00 in0.0 mm 0.00 in0.0 mm
11:46 AM 40.0°F4.4°C 28.0°F-2.2°C 62% 3.5 mph N5.6 kmh N 4.0 mph6.4 kmh 29.73 in1006.8 mb 0.00 in0.0 mm 0.00 in0.0 mm 0.00 in0.0 mm
11:47 AM 40.0°F4.4°C 28.0°F-2.2°C 62% 3.7 mph N6.0 kmh N 5.0 mph8.0 kmh 29.73 in1006.8 mb 0.00 in0.0 mm 0.00 in0.0 mm 0.00 in0.0 mm
11:48 AM 40.0°F4.4°C 28.0°F-2.2°C 62% 4.0 mph N6.4 kmh N 5.0 mph8.0 kmh 29.73 in1006.8 mb 0.00 in0.0 mm 0.00 in0.0 mm 0.00 in0.0 mm
11:49 AM 40.0°F4.4°C 28.4°F-2.0°C 63% 3.4 mph N5.5 kmh N 5.0 mph8.0 kmh 29.73 in1006.8 mb 0.00 in0.0 mm 0.00 in0.0 mm 0.00 in0.0 mm
11:50 AM 40.0°F4.4°C 28.0°F-2.2°C 62% 3.3 mph N5.3 kmh N 4.0 mph6.4 kmh 29.73 in1006.8 mb 0.00 in0.0 mm 0.00 in0.0 mm 0.00 in0.0 mm
11:51 AM 40.0°F4.4°C 28.0°F-2.2°C 62% 3.3 mph N5.3 kmh N 4.0 mph6.4 kmh 29.73 in1006.8 mb 0.00 in0.0 mm 0.00 in0.0 mm 0.00 in0.0 mm
11:52 AM 40.1°F4.5°C 27.7°F-2.4°C 61% 3.4 mph N5.5 kmh N 4.0 mph6.4 kmh 29.73 in1006.8 mb 0.00 in0.0 mm 0.00 in0.0 mm 0.00 in0.0 mm
11:53 AM 40.1°F4.5°C 27.7°F-2.4°C 61% 3.0 mph N4.8 kmh N 4.0 mph6.4 kmh 29.73 in1006.8 mb 0.00 in0.0 mm 0.00 in0.0 mm 0.00 in0.0 mm
11:54 AM 40.1°F4.5°C 27.7°F-2.4°C 61% 2.9 mph N4.7 kmh N 4.0 mph6.4 kmh 29.73 in1006.8 mb 0.00 in0.0 mm 0.00 in0.0 mm 0.00 in0.0 mm
11:55 AM 40.2°F4.6°C 27.8°F-2.3°C 61% 3.2 mph N5.1 kmh N 4.0 mph6.4 kmh 29.73 in1006.8 mb 0.00 in0.0 mm 0.00 in0.0 mm 0.00 in0.0 mm
11:56 AM 40.2°F4.6°C 27.0°F-2.8°C 59% 2.8 mph N4.5 kmh N 4.0 mph6.4 kmh 29.73 in1006.8 mb 0.00 in0.0 mm 0.00 in0.0 mm 0.00 in0.0 mm
11:57 AM 40.3°F4.6°C 27.1°F-2.7°C 59% 2.9 mph N4.7 kmh N 4.0 mph6.4 kmh 29.73 in1006.8 mb 0.00 in0.0 mm 0.00 in0.0 mm 0.00 in0.0 mm
11:58 AM 40.4°F4.7°C 27.2°F-2.7°C 59% 2.0 mph N3.2 kmh N 4.0 mph6.4 kmh 29.73 in1006.8 mb 0.00 in0.0 mm 0.00 in0.0 mm 0.00 in0.0 mm
11:59 AM 40.4°F4.7°C 26.8°F-2.9°C 58% 2.5 mph N4.0 kmh N 4.0 mph6.4 kmh 29.73 in1006.8 mb 0.00 in0.0 mm 0.00 in0.0 mm 0.00 in0.0 mm
12:00 PM 40.5°F4.7°C 26.9°F-2.8°C 58% 2.2 mph N3.5 kmh N 4.0 mph6.4 kmh 29.73 in1006.8 mb 0.00 in0.0 mm 0.00 in0.0 mm 0.00 in0.0 mm
12:01 PM 40.5°F4.7°C 27.3°F-2.6°C 59% 2.0 mph N3.2 kmh N 4.0 mph6.4 kmh 29.73 in1006.8 mb 0.00 in0.0 mm 0.00 in0.0 mm 0.00 in0.0 mm
12:02 PM 40.5°F4.7°C 26.9°F-2.8°C 58% 2.7 mph N4.3 kmh N 4.0 mph6.4 kmh 29.73 in1006.8 mb 0.00 in0.0 mm 0.00 in0.0 mm 0.00 in0.0 mm
12:03 PM 40.5°F4.7°C 27.3°F-2.6°C 59% 2.2 mph N3.5 kmh N 4.0 mph6.4 kmh 29.73 in1006.8 mb 0.00 in0.0 mm 0.00 in0.0 mm 0.00 in0.0 mm
12:04 PM 40.5°F4.7°C 27.7°F-2.4°C 60% 2.9 mph N4.7 kmh N 4.0 mph6.4 kmh 29.73 in1006.8 mb 0.00 in0.0 mm 0.00 in0.0 mm 0.00 in0.0 mm
12:05 PM 40.5°F4.7°C 26.9°F-2.8°C 58% 2.7 mph N4.3 kmh N 4.0 mph6.4 kmh 29.73 in1006.8 mb 0.00 in0.0 mm 0.00 in0.0 mm 0.00 in0.0 mm
12:06 PM 40.4°F4.7°C 27.2°F-2.7°C 59% 2.5 mph N4.0 kmh N 4.0 mph6.4 kmh 29.73 in1006.8 mb 0.00 in0.0 mm 0.00 in0.0 mm 0.00 in0.0 mm
12:07 PM 40.3°F4.6°C 27.5°F-2.5°C 60% 3.1 mph N5.0 kmh N 4.0 mph6.4 kmh 29.73 in1006.8 mb 0.00 in0.0 mm 0.00 in0.0 mm 0.00 in0.0 mm
12:08 PM 40.3°F4.6°C 27.5°F-2.5°C 60% 2.5 mph N4.0 kmh N 4.0 mph6.4 kmh 29.73 in1006.8 mb 0.00 in0.0 mm 0.00 in0.0 mm 0.00 in0.0 mm
12:09 PM 40.2°F4.6°C 26.6°F-3.0°C 58% 3.0 mph N4.8 kmh N 4.0 mph6.4 kmh 29.73 in1006.8 mb 0.00 in0.0 mm 0.00 in0.0 mm 0.00 in0.0 mm
12:10 PM 40.0°F4.4°C 26.4°F-3.1°C 58% 2.6 mph N4.2 kmh N 3.0 mph4.8 kmh 29.73 in1006.8 mb 0.00 in0.0 mm 0.00 in0.0 mm 0.00 in0.0 mm
12:11 PM 40.0°F4.4°C 26.0°F-3.3°C 57% 1.8 mph N2.9 kmh N 3.0 mph4.8 kmh 29.73 in1006.8 mb 0.00 in0.0 mm 0.00 in0.0 mm 0.00 in0.0 mm
12:12 PM 40.0°F4.4°C 26.0°F-3.3°C 57% 1.0 mph N1.6 kmh N 3.0 mph4.8 kmh 29.73 in1006.8 mb 0.00 in0.0 mm 0.00 in0.0 mm 0.00 in0.0 mm
12:13 PM 39.9°F4.4°C 25.9°F-3.4°C 57% 0.9 mph N1.4 kmh N 2.0 mph3.2 kmh 29.73 in1006.8 mb 0.00 in0.0 mm 0.00 in0.0 mm 0.00 in0.0 mm
12:14 PM 40.0°F4.4°C 26.4°F-3.1°C 58% 1.7 mph N2.7 kmh N 3.0 mph4.8 kmh 29.73 in1006.8 mb 0.00 in0.0 mm 0.00 in0.0 mm 0.00 in0.0 mm
12:15 PM 40.1°F4.5°C 26.5°F-3.1°C 58% 2.2 mph N3.5 kmh N 3.0 mph4.8 kmh 29.73 in1006.8 mb 0.00 in0.0 mm 0.00 in0.0 mm 0.00 in0.0 mm
12:16 PM 40.2°F4.6°C 27.0°F-2.8°C 59% 3.2 mph N5.1 kmh N 4.0 mph6.4 kmh 29.73 in1006.8 mb 0.00 in0.0 mm 0.00 in0.0 mm 0.00 in0.0 mm
12:17 PM 40.2°F4.6°C 27.0°F-2.8°C 59% 3.5 mph N5.6 kmh N 4.0 mph6.4 kmh 29.73 in1006.8 mb 0.00 in0.0 mm 0.00 in0.0 mm 0.00 in0.0 mm
12:18 PM 40.2°F4.6°C 27.0°F-2.8°C 59% 3.6 mph N5.8 kmh N 5.0 mph8.0 kmh 29.73 in1006.8 mb 0.00 in0.0 mm 0.00 in0.0 mm 0.00 in0.0 mm
12:19 PM 40.2°F4.6°C 26.6°F-3.0°C 58% 3.6 mph N5.8 kmh N 5.0 mph8.0 kmh 29.73 in1006.8 mb 0.00 in0.0 mm 0.00 in0.0 mm 0.00 in0.0 mm
12:20 PM 40.2°F4.6°C 26.6°F-3.0°C 58% 4.2 mph N6.8 kmh N 5.0 mph8.0 kmh 29.73 in1006.8 mb 0.00 in0.0 mm 0.00 in0.0 mm 0.00 in0.0 mm
12:21 PM 40.2°F4.6°C 26.6°F-3.0°C 58% 3.8 mph N6.1 kmh N 5.0 mph8.0 kmh 29.73 in1006.8 mb 0.00 in0.0 mm 0.00 in0.0 mm 0.00 in0.0 mm
12:22 PM 40.2°F4.6°C 26.6°F-3.0°C 58% 4.4 mph N7.1 kmh N 5.0 mph8.0 kmh 29.73 in1006.8 mb 0.00 in0.0 mm 0.00 in0.0 mm 0.00 in0.0 mm
12:23 PM 40.3°F4.6°C 26.7°F-2.9°C 58% 4.2 mph N6.8 kmh N 5.0 mph8.0 kmh 29.73 in1006.8 mb 0.00 in0.0 mm 0.00 in0.0 mm 0.00 in0.0 mm
12:24 PM 40.3°F4.6°C 26.7°F-2.9°C 58% 4.5 mph N7.2 kmh N 6.0 mph9.7 kmh 29.73 in1006.8 mb 0.00 in0.0 mm 0.00 in0.0 mm 0.00 in0.0 mm
12:25 PM 40.3°F4.6°C 27.1°F-2.7°C 59% 4.6 mph N7.4 kmh N 6.0 mph9.7 kmh 29.73 in1006.8 mb 0.00 in0.0 mm 0.00 in0.0 mm 0.00 in0.0 mm
12:26 PM 40.4°F4.7°C 27.2°F-2.7°C 59% 4.0 mph N6.4 kmh N 5.0 mph8.0 kmh 29.73 in1006.8 mb 0.00 in0.0 mm 0.00 in0.0 mm 0.00 in0.0 mm
12:27 PM 40.5°F4.7°C 26.5°F-3.1°C 57% 4.2 mph NNE6.8 kmh NNE 5.0 mph8.0 kmh 29.73 in1006.8 mb 0.00 in0.0 mm 0.00 in0.0 mm 0.00 in0.0 mm
12:28 PM 40.5°F4.7°C 26.5°F-3.1°C 57% 3.8 mph NNE6.1 kmh NNE 5.0 mph8.0 kmh 29.73 in1006.8 mb 0.00 in0.0 mm 0.00 in0.0 mm 0.00 in0.0 mm
12:29 PM 40.5°F4.7°C 26.5°F-3.1°C 57% 3.5 mph NNE5.6 kmh NNE 5.0 mph8.0 kmh 29.73 in1006.8 mb 0.00 in0.0 mm 0.00 in0.0 mm 0.00 in0.0 mm
12:30 PM 40.7°F4.8°C 27.1°F-2.7°C 58% 3.3 mph NNE5.3 kmh NNE 5.0 mph8.0 kmh 29.73 in1006.8 mb 0.00 in0.0 mm 0.00 in0.0 mm 0.00 in0.0 mm
12:31 PM 40.8°F4.9°C 26.8°F-2.9°C 57% 3.5 mph NNE5.6 kmh NNE 5.0 mph8.0 kmh 29.73 in1006.8 mb 0.00 in0.0 mm 0.00 in0.0 mm 0.00 in0.0 mm
12:32 PM 40.8°F4.9°C 26.8°F-2.9°C 57% 3.8 mph N6.1 kmh N 5.0 mph8.0 kmh 29.73 in1006.8 mb 0.00 in0.0 mm 0.00 in0.0 mm 0.00 in0.0 mm
12:33 PM 40.9°F4.9°C 26.9°F-2.8°C 57% 3.6 mph N5.8 kmh N 5.0 mph8.0 kmh 29.73 in1006.8 mb 0.00 in0.0 mm 0.00 in0.0 mm 0.00 in0.0 mm
12:34 PM 41.0°F5.0°C 26.1°F-3.3°C 55% 4.0 mph N6.4 kmh N 5.0 mph8.0 kmh 29.73 in1006.8 mb 0.00 in0.0 mm 0.00 in0.0 mm 0.00 in0.0 mm
12:35 PM 41.0°F5.0°C 26.1°F-3.3°C 55% 3.7 mph NNE6.0 kmh NNE 5.0 mph8.0 kmh 29.73 in1006.8 mb 0.00 in0.0 mm 0.00 in0.0 mm 0.00 in0.0 mm
12:36 PM 41.0°F5.0°C 26.1°F-3.3°C 55% 3.5 mph NNE5.6 kmh NNE 4.0 mph6.4 kmh 29.73 in1006.8 mb 0.00 in0.0 mm 0.00 in0.0 mm 0.00 in0.0 mm
12:37 PM 41.0°F5.0°C 26.1°F-3.3°C 55% 3.5 mph NNE5.6 kmh NNE 4.0 mph6.4 kmh 29.73 in1006.8 mb 0.00 in0.0 mm 0.00 in0.0 mm 0.00 in0.0 mm
12:38 PM 41.1°F5.1°C 25.7°F-3.5°C 54% 2.9 mph NNE4.7 kmh NNE 4.0 mph6.4 kmh 29.73 in1006.8 mb 0.00 in0.0 mm 0.00 in0.0 mm 0.00 in0.0 mm
12:39 PM 41.1°F5.1°C 25.7°F-3.5°C 54% 3.6 mph NNE5.8 kmh NNE 4.0 mph6.4 kmh 29.73 in1006.8 mb 0.00 in0.0 mm 0.00 in0.0 mm 0.00 in0.0 mm
12:40 PM 41.1°F5.1°C 25.7°F-3.5°C 54% 3.0 mph NNE4.8 kmh NNE 4.0 mph6.4 kmh 29.73 in1006.8 mb 0.00 in0.0 mm 0.00 in0.0 mm 0.00 in0.0 mm
12:41 PM 41.1°F5.1°C 25.7°F-3.5°C 54% 2.7 mph NNE4.3 kmh NNE 4.0 mph6.4 kmh 29.73 in1006.8 mb 0.00 in0.0 mm 0.00 in0.0 mm 0.00 in0.0 mm
12:42 PM 41.1°F5.1°C 25.7°F-3.5°C 54% 2.4 mph NNE3.9 kmh NNE 4.0 mph6.4 kmh 29.73 in1006.8 mb 0.00 in0.0 mm 0.00 in0.0 mm 0.00 in0.0 mm
12:43 PM 41.1°F5.1°C 25.7°F-3.5°C 54% 2.6 mph NNE4.2 kmh NNE 4.0 mph6.4 kmh 29.73 in1006.8 mb 0.00 in0.0 mm 0.00 in0.0 mm 0.00 in0.0 mm
12:44 PM 41.2°F5.1°C 25.8°F-3.4°C 54% 2.9 mph NNE4.7 kmh NNE 4.0 mph6.4 kmh 29.73 in1006.8 mb 0.00 in0.0 mm 0.00 in0.0 mm 0.00 in0.0 mm
12:45 PM 41.2°F5.1°C 25.8°F-3.4°C 54% 3.1 mph NNE5.0 kmh NNE 4.0 mph6.4 kmh 29.73 in1006.8 mb 0.00 in0.0 mm 0.00 in0.0 mm 0.00 in0.0 mm
12:46 PM 41.2°F5.1°C 25.8°F-3.4°C 54% 3.0 mph NNE4.8 kmh NNE 4.0 mph6.4 kmh 29.73 in1006.8 mb 0.00 in0.0 mm 0.00 in0.0 mm 0.00 in0.0 mm
12:47 PM 41.2°F5.1°C 25.8°F-3.4°C 54% 3.5 mph NNE5.6 kmh NNE 4.0 mph6.4 kmh 29.73 in1006.8 mb 0.00 in0.0 mm 0.00 in0.0 mm 0.00 in0.0 mm
12:48 PM 41.2°F5.1°C 25.4°F-3.7°C 53% 3.0 mph NNE4.8 kmh NNE 4.0 mph6.4 kmh 29.73 in1006.8 mb 0.00 in0.0 mm 0.00 in0.0 mm 0.00 in0.0 mm
12:49 PM 41.1°F5.1°C 25.3°F-3.7°C 53% 3.0 mph NNE4.8 kmh NNE 4.0 mph6.4 kmh 29.73 in1006.8 mb 0.00 in0.0 mm 0.00 in0.0 mm 0.00 in0.0 mm
12:50 PM 41.1°F5.1°C 25.3°F-3.7°C 53% 3.8 mph NNE6.1 kmh NNE 5.0 mph8.0 kmh 29.72 in1006.4 mb 0.00 in0.0 mm 0.00 in0.0 mm 0.00 in0.0 mm
12:51 PM 41.1°F5.1°C 25.7°F-3.5°C 54% 3.4 mph NNE5.5 kmh NNE 5.0 mph8.0 kmh 29.72 in1006.4 mb 0.00 in0.0 mm 0.00 in0.0 mm 0.00 in0.0 mm
12:52 PM 41.1°F5.1°C 25.3°F-3.7°C 53% 3.4 mph NNE5.5 kmh NNE 5.0 mph8.0 kmh 29.73 in1006.8 mb 0.00 in0.0 mm 0.00 in0.0 mm 0.00 in0.0 mm
12:53 PM 41.1°F5.1°C 25.3°F-3.7°C 53% 3.9 mph NNE6.3 kmh NNE 5.0 mph8.0 kmh 29.72 in1006.4 mb 0.00 in0.0 mm 0.00 in0.0 mm 0.00 in0.0 mm
12:54 PM 41.1°F5.1°C 25.3°F-3.7°C 53% 3.7 mph NNE6.0 kmh NNE 5.0 mph8.0 kmh 29.73 in1006.8 mb 0.00 in0.0 mm 0.00 in0.0 mm 0.00 in0.0 mm
12:55 PM 41.2°F5.1°C 25.4°F-3.7°C 53% 3.6 mph NNE5.8 kmh NNE 5.0 mph8.0 kmh 29.73 in1006.8 mb 0.00 in0.0 mm 0.00 in0.0 mm 0.00 in0.0 mm
12:56 PM 41.2°F5.1°C 25.4°F-3.7°C 53% 2.7 mph NNE4.3 kmh NNE 4.0 mph6.4 kmh 29.72 in1006.4 mb 0.00 in0.0 mm 0.00 in0.0 mm 0.00 in0.0 mm
12:57 PM 41.2°F5.1°C 25.4°F-3.7°C 53% 2.3 mph NNE3.7 kmh NNE 3.0 mph4.8 kmh 29.72 in1006.4 mb 0.00 in0.0 mm 0.00 in0.0 mm 0.00 in0.0 mm
12:58 PM 41.3°F5.2°C 25.5°F-3.6°C 53% 2.8 mph NNE4.5 kmh NNE 3.0 mph4.8 kmh 29.73 in1006.8 mb 0.00 in0.0 mm 0.00 in0.0 mm 0.00 in0.0 mm
12:59 PM 41.3°F5.2°C 25.5°F-3.6°C 53% 3.2 mph NNE5.1 kmh NNE 4.0 mph6.4 kmh 29.72 in1006.4 mb 0.00 in0.0 mm 0.00 in0.0 mm 0.00 in0.0 mm
01:00 PM 41.4°F5.2°C 25.6°F-3.6°C 53% 2.9 mph NNE4.7 kmh NNE 4.0 mph6.4 kmh 29.72 in1006.4 mb 0.00 in0.0 mm 0.00 in0.0 mm 0.00 in0.0 mm
01:01 PM 41.5°F5.3°C 26.1°F-3.3°C 54% 2.5 mph NNE4.0 kmh NNE 4.0 mph6.4 kmh 29.72 in1006.4 mb 0.00 in0.0 mm 0.00 in0.0 mm 0.00 in0.0 mm
01:02 PM 41.5°F5.3°C 26.1°F-3.3°C 54% 1.9 mph NNE3.1 kmh NNE 3.0 mph4.8 kmh 29.72 in1006.4 mb 0.00 in0.0 mm 0.00 in0.0 mm 0.00 in0.0 mm
01:03 PM 41.6°F5.3°C 26.2°F-3.2°C 54% 2.4 mph NNE3.9 kmh NNE 4.0 mph6.4 kmh 29.72 in1006.4 mb 0.00 in0.0 mm 0.00 in0.0 mm 0.00 in0.0 mm
01:04 PM 41.6°F5.3°C 25.8°F-3.4°C 53% 3.4 mph NNE5.5 kmh NNE 4.0 mph6.4 kmh 29.72 in1006.4 mb 0.00 in0.0 mm 0.00 in0.0 mm 0.00 in0.0 mm
01:05 PM 41.6°F5.3°C 25.8°F-3.4°C 53% 3.8 mph NNE6.1 kmh NNE 5.0 mph8.0 kmh 29.72 in1006.4 mb 0.00 in0.0 mm 0.00 in0.0 mm 0.00 in0.0 mm
01:06 PM 41.5°F5.3°C 25.2°F-3.8°C 52% 3.8 mph NNE6.1 kmh NNE 5.0 mph8.0 kmh 29.72 in1006.4 mb 0.00 in0.0 mm 0.00 in0.0 mm 0.00 in0.0 mm
01:07 PM 41.5°F5.3°C 25.7°F-3.5°C 53% 3.5 mph NNE5.6 kmh NNE 5.0 mph8.0 kmh 29.72 in1006.4 mb 0.00 in0.0 mm 0.00 in0.0 mm 0.00 in0.0 mm
01:08 PM 41.4°F5.2°C 25.6°F-3.6°C 53% 3.2 mph NNE5.1 kmh NNE 4.0 mph6.4 kmh 29.72 in1006.4 mb 0.00 in0.0 mm 0.00 in0.0 mm 0.00 in0.0 mm
01:09 PM 41.4°F5.2°C 25.6°F-3.6°C 53% 3.2 mph NNE5.1 kmh NNE 4.0 mph6.4 kmh 29.72 in1006.4 mb 0.00 in0.0 mm 0.00 in0.0 mm 0.00 in0.0 mm
01:10 PM 41.4°F5.2°C 25.1°F-3.8°C 52% 2.7 mph NNE4.3 kmh NNE 4.0 mph6.4 kmh 29.72 in1006.4 mb 0.00 in0.0 mm 0.00 in0.0 mm 0.00 in0.0 mm
01:11 PM 41.3°F5.2°C 25.0°F-3.9°C 52% 2.6 mph NNE4.2 kmh NNE 4.0 mph6.4 kmh 29.72 in1006.4 mb 0.00 in0.0 mm 0.00 in0.0 mm 0.00 in0.0 mm
01:12 PM 41.4°F5.2°C 25.1°F-3.8°C 52% 3.0 mph NNE4.8 kmh NNE 4.0 mph6.4 kmh 29.72 in1006.4 mb 0.00 in0.0 mm 0.00 in0.0 mm 0.00 in0.0 mm
01:13 PM 41.4°F5.2°C 25.6°F-3.6°C 53% 2.7 mph NNE4.3 kmh NNE 4.0 mph6.4 kmh 29.72 in1006.4 mb 0.00 in0.0 mm 0.00 in0.0 mm 0.00 in0.0 mm
01:14 PM 41.5°F5.3°C 25.2°F-3.8°C 52% 3.5 mph NNE5.6 kmh NNE 4.0 mph6.4 kmh 29.72 in1006.4 mb 0.00 in0.0 mm 0.00 in0.0 mm 0.00 in0.0 mm
01:15 PM 41.5°F5.3°C 25.7°F-3.5°C 53% 3.3 mph NNE5.3 kmh NNE 4.0 mph6.4 kmh 29.72 in1006.4 mb 0.00 in0.0 mm 0.00 in0.0 mm 0.00 in0.0 mm
01:16 PM 41.5°F5.3°C 25.7°F-3.5°C 53% 3.1 mph NNE5.0 kmh NNE 4.0 mph6.4 kmh 29.72 in1006.4 mb 0.00 in0.0 mm 0.00 in0.0 mm 0.00 in0.0 mm
01:17 PM 41.6°F5.3°C 25.8°F-3.4°C 53% 3.4 mph NNE5.5 kmh NNE 5.0 mph8.0 kmh 29.72 in1006.4 mb 0.00 in0.0 mm 0.00 in0.0 mm 0.00 in0.0 mm
01:18 PM 41.6°F5.3°C 25.8°F-3.4°C 53% 3.0 mph NNE4.8 kmh NNE 5.0 mph8.0 kmh 29.72 in1006.4 mb 0.00 in0.0 mm 0.00 in0.0 mm 0.00 in0.0 mm
01:19 PM 41.6°F5.3°C 25.8°F-3.4°C 53% 3.9 mph NNE6.3 kmh NNE 5.0 mph8.0 kmh 29.72 in1006.4 mb 0.00 in0.0 mm 0.00 in0.0 mm 0.00 in0.0 mm
01:20 PM 41.6°F5.3°C 25.8°F-3.4°C 53% 3.5 mph NNE5.6 kmh NNE 5.0 mph8.0 kmh 29.72 in1006.4 mb 0.00 in0.0 mm 0.00 in0.0 mm 0.00 in0.0 mm
01:21 PM 41.6°F5.3°C 25.8°F-3.4°C 53% 3.1 mph NNE5.0 kmh NNE 4.0 mph6.4 kmh 29.72 in1006.4 mb 0.00 in0.0 mm 0.00 in0.0 mm 0.00 in0.0 mm
01:22 PM 41.7°F5.4°C 25.8°F-3.4°C 53% 3.3 mph NNE5.3 kmh NNE 5.0 mph8.0 kmh 29.72 in1006.4 mb 0.00 in0.0 mm 0.00 in0.0 mm 0.00 in0.0 mm
01:23 PM 41.7°F5.4°C 26.3°F-3.2°C 54% 3.1 mph NNE5.0 kmh NNE 5.0 mph8.0 kmh 29.72 in1006.4 mb 0.00 in0.0 mm 0.00 in0.0 mm 0.00 in0.0 mm
01:24 PM 41.8°F5.4°C 25.9°F-3.4°C 53% 3.5 mph NNE5.6 kmh NNE 5.0 mph8.0 kmh 29.72 in1006.4 mb 0.00 in0.0 mm 0.00 in0.0 mm 0.00 in0.0 mm
01:25 PM 41.8°F5.4°C 25.9°F-3.4°C 53% 2.4 mph NNE3.9 kmh NNE 4.0 mph6.4 kmh 29.72 in1006.4 mb 0.00 in0.0 mm 0.00 in0.0 mm 0.00 in0.0 mm
01:26 PM 41.8°F5.4°C 25.9°F-3.4°C 53% 3.0 mph NNE4.8 kmh NNE 4.0 mph6.4 kmh 29.72 in1006.4 mb 0.00 in0.0 mm 0.00 in0.0 mm 0.00 in0.0 mm
01:27 PM 42.0°F5.6°C 26.1°F-3.3°C 53% 2.7 mph NNE4.3 kmh NNE 4.0 mph6.4 kmh 29.72 in1006.4 mb 0.00 in0.0 mm 0.00 in0.0 mm 0.00 in0.0 mm
01:28 PM 42.0°F5.6°C 26.1°F-3.3°C 53% 3.0 mph NNE4.8 kmh NNE 4.0 mph6.4 kmh 29.72 in1006.4 mb 0.00 in0.0 mm 0.00 in0.0 mm 0.00 in0.0 mm
01:29 PM 42.1°F5.6°C 26.2°F-3.2°C 53% 3.6 mph NNE5.8 kmh NNE 5.0 mph8.0 kmh 29.72 in1006.4 mb 0.00 in0.0 mm 0.00 in0.0 mm 0.00 in0.0 mm
01:30 PM 42.1°F5.6°C 26.2°F-3.2°C 53% 3.8 mph NNE6.1 kmh NNE 5.0 mph8.0 kmh 29.72 in1006.4 mb 0.00 in0.0 mm 0.00 in0.0 mm 0.00 in0.0 mm
01:31 PM 42.0°F5.6°C 25.7°F-3.5°C 52% 3.9 mph NNE6.3 kmh NNE 5.0 mph8.0 kmh 29.72 in1006.4 mb 0.00 in0.0 mm 0.00 in0.0 mm 0.00 in0.0 mm
01:32 PM 42.0°F5.6°C 25.7°F-3.5°C 52% 3.7 mph NNE6.0 kmh NNE 5.0 mph8.0 kmh 29.72 in1006.4 mb 0.00 in0.0 mm 0.00 in0.0 mm 0.00 in0.0 mm
01:33 PM 41.9°F5.5°C 25.1°F-3.8°C 51% 3.1 mph NNE5.0 kmh NNE 5.0 mph8.0 kmh 29.72 in1006.4 mb 0.00 in0.0 mm 0.00 in0.0 mm 0.00 in0.0 mm
01:34 PM 41.8°F5.4°C 25.5°F-3.6°C 52% 3.6 mph NNE5.8 kmh NNE 5.0 mph8.0 kmh 29.72 in1006.4 mb 0.00 in0.0 mm 0.00 in0.0 mm 0.00 in0.0 mm
01:35 PM 41.8°F5.4°C 25.0°F-3.9°C 51% 4.0 mph NNE6.4 kmh NNE 5.0 mph8.0 kmh 29.72 in1006.4 mb 0.00 in0.0 mm 0.00 in0.0 mm 0.00 in0.0 mm
01:36 PM 41.7°F5.4°C 24.9°F-3.9°C 51% 3.7 mph NNE6.0 kmh NNE 5.0 mph8.0 kmh 29.72 in1006.4 mb 0.00 in0.0 mm 0.00 in0.0 mm 0.00 in0.0 mm
01:37 PM 41.8°F5.4°C 25.9°F-3.4°C 53% 3.5 mph NNE5.6 kmh NNE 5.0 mph8.0 kmh 29.72 in1006.4 mb 0.00 in0.0 mm 0.00 in0.0 mm 0.00 in0.0 mm
01:38 PM 41.8°F5.4°C 25.5°F-3.6°C 52% 4.0 mph NNE6.4 kmh NNE 5.0 mph8.0 kmh 29.72 in1006.4 mb 0.00 in0.0 mm 0.00 in0.0 mm 0.00 in0.0 mm
01:39 PM 41.8°F5.4°C 25.5°F-3.6°C 52% 4.0 mph NNE6.4 kmh NNE 5.0 mph8.0 kmh 29.72 in1006.4 mb 0.00 in0.0 mm 0.00 in0.0 mm 0.00 in0.0 mm
01:40 PM 41.8°F5.4°C 25.9°F-3.4°C 53% 3.1 mph NNE5.0 kmh NNE 4.0 mph6.4 kmh 29.72 in1006.4 mb 0.00 in0.0 mm 0.00 in0.0 mm 0.00 in0.0 mm
01:41 PM 41.9°F5.5°C 26.0°F-3.3°C 53% 4.0 mph NNE6.4 kmh NNE 5.0 mph8.0 kmh 29.72 in1006.4 mb 0.00 in0.0 mm 0.00 in0.0 mm 0.00 in0.0 mm
01:42 PM 42.0°F5.6°C 26.1°F-3.3°C 53% 3.2 mph NNE5.1 kmh NNE 5.0 mph8.0 kmh 29.72 in1006.4 mb 0.00 in0.0 mm 0.00 in0.0 mm 0.00 in0.0 mm
01:43 PM 42.0°F5.6°C 26.1°F-3.3°C 53% 3.7 mph NNE6.0 kmh NNE 5.0 mph8.0 kmh 29.72 in1006.4 mb 0.00 in0.0 mm 0.00 in0.0 mm 0.00 in0.0 mm
01:44 PM 42.0°F5.6°C 25.7°F-3.5°C 52% 3.5 mph NNE5.6 kmh NNE 5.0 mph8.0 kmh 29.72 in1006.4 mb 0.00 in0.0 mm 0.00 in0.0 mm 0.00 in0.0 mm
01:45 PM 41.9°F5.5°C 25.6°F-3.6°C 52% 4.4 mph NNE7.1 kmh NNE 5.0 mph8.0 kmh 29.72 in1006.4 mb 0.00 in0.0 mm 0.00 in0.0 mm 0.00 in0.0 mm
01:46 PM 41.9°F5.5°C 26.0°F-3.3°C 53% 4.5 mph NNE7.2 kmh NNE 5.0 mph8.0 kmh 29.72 in1006.4 mb 0.00 in0.0 mm 0.00 in0.0 mm 0.00 in0.0 mm
01:47 PM 41.8°F5.4°C 25.9°F-3.4°C 53% 3.9 mph NNE6.3 kmh NNE 5.0 mph8.0 kmh 29.72 in1006.4 mb 0.00 in0.0 mm 0.00 in0.0 mm 0.00 in0.0 mm
01:48 PM 41.8°F5.4°C 26.4°F-3.1°C 54% 4.6 mph NNE7.4 kmh NNE 5.0 mph8.0 kmh 29.72 in1006.4 mb 0.00 in0.0 mm 0.00 in0.0 mm 0.00 in0.0 mm
01:49 PM 41.8°F5.4°C 25.9°F-3.4°C 53% 4.2 mph NNE6.8 kmh NNE 5.0 mph8.0 kmh 29.72 in1006.4 mb 0.00 in0.0 mm 0.00 in0.0 mm 0.00 in0.0 mm
01:50 PM 41.7°F5.4°C 26.3°F-3.2°C 54% 4.7 mph NNE7.6 kmh NNE 7.0 mph11.3 kmh 29.72 in1006.4 mb 0.00 in0.0 mm 0.00 in0.0 mm 0.00 in0.0 mm
01:51 PM 41.6°F5.3°C 26.2°F-3.2°C 54% 4.5 mph NNE7.2 kmh NNE 7.0 mph11.3 kmh 29.71 in1006.1 mb 0.00 in0.0 mm 0.00 in0.0 mm 0.00 in0.0 mm
01:52 PM 41.6°F5.3°C 26.6°F-3.0°C 55% 4.6 mph NNE7.4 kmh NNE 5.0 mph8.0 kmh 29.71 in1006.1 mb 0.00 in0.0 mm 0.00 in0.0 mm 0.00 in0.0 mm
01:53 PM 41.7°F5.4°C 26.7°F-2.9°C 55% 5.3 mph NNE8.5 kmh NNE 7.0 mph11.3 kmh 29.71 in1006.1 mb 0.00 in0.0 mm 0.00 in0.0 mm 0.00 in0.0 mm
01:54 PM 41.5°F5.3°C 26.1°F-3.3°C 54% 4.9 mph NNE7.9 kmh NNE 7.0 mph11.3 kmh 29.71 in1006.1 mb 0.00 in0.0 mm 0.00 in0.0 mm 0.00 in0.0 mm
01:55 PM 41.5°F5.3°C 26.1°F-3.3°C 54% 4.5 mph NNE7.2 kmh NNE 5.0 mph8.0 kmh 29.71 in1006.1 mb 0.00 in0.0 mm 0.00 in0.0 mm 0.00 in0.0 mm
01:56 PM 41.5°F5.3°C 26.1°F-3.3°C 54% 4.3 mph NNE6.9 kmh NNE 5.0 mph8.0 kmh 29.71 in1006.1 mb 0.00 in0.0 mm 0.00 in0.0 mm 0.00 in0.0 mm
01:57 PM 41.5°F5.3°C 25.2°F-3.8°C 52% 3.9 mph NNE6.3 kmh NNE 5.0 mph8.0 kmh 29.71 in1006.1 mb 0.00 in0.0 mm 0.00 in0.0 mm 0.00 in0.0 mm
01:58 PM 41.4°F5.2°C 25.1°F-3.8°C 52% 3.6 mph N5.8 kmh N 5.0 mph8.0 kmh 29.71 in1006.1 mb 0.00 in0.0 mm 0.00 in0.0 mm 0.00 in0.0 mm
01:59 PM 41.3°F5.2°C 25.5°F-3.6°C 53% 2.9 mph N4.7 kmh N 4.0 mph6.4 kmh 29.71 in1006.1 mb 0.00 in0.0 mm 0.00 in0.0 mm 0.00 in0.0 mm
02:00 PM 41.2°F5.1°C 25.8°F-3.4°C 54% 3.5 mph N5.6 kmh N 5.0 mph8.0 kmh 29.71 in1006.1 mb 0.00 in0.0 mm 0.00 in0.0 mm 0.00 in0.0 mm
02:01 PM 41.3°F5.2°C 26.4°F-3.1°C 55% 3.8 mph N6.1 kmh N 5.0 mph8.0 kmh 29.71 in1006.1 mb 0.00 in0.0 mm 0.00 in0.0 mm 0.00 in0.0 mm
02:02 PM 41.3°F5.2°C 26.4°F-3.1°C 55% 4.1 mph N6.6 kmh N 5.0 mph8.0 kmh 29.71 in1006.1 mb 0.00 in0.0 mm 0.00 in0.0 mm 0.00 in0.0 mm
02:03 PM 41.3°F5.2°C 26.4°F-3.1°C 55% 3.8 mph N6.1 kmh N 5.0 mph8.0 kmh 29.71 in1006.1 mb 0.00 in0.0 mm 0.00 in0.0 mm 0.00 in0.0 mm
02:04 PM 41.3°F5.2°C 25.9°F-3.4°C 54% 4.2 mph N6.8 kmh N 5.0 mph8.0 kmh 29.71 in1006.1 mb 0.00 in0.0 mm 0.00 in0.0 mm 0.00 in0.0 mm
02:05 PM 41.2°F5.1°C 25.8°F-3.4°C 54% 3.4 mph N5.5 kmh N 5.0 mph8.0 kmh 29.71 in1006.1 mb 0.00 in0.0 mm 0.00 in0.0 mm 0.00 in0.0 mm
02:06 PM 41.2°F5.1°C 26.3°F-3.2°C 55% 3.4 mph N5.5 kmh N 5.0 mph8.0 kmh 29.71 in1006.1 mb 0.00 in0.0 mm 0.00 in0.0 mm 0.00 in0.0 mm
02:07 PM 41.2°F5.1°C 25.8°F-3.4°C 54% 2.8 mph N4.5 kmh N 4.0 mph6.4 kmh 29.71 in1006.1 mb 0.00 in0.0 mm 0.00 in0.0 mm 0.00 in0.0 mm
02:08 PM 41.2°F5.1°C 26.3°F-3.2°C 55% 2.3 mph N3.7 kmh N 4.0 mph6.4 kmh 29.71 in1006.1 mb 0.00 in0.0 mm 0.00 in0.0 mm 0.00 in0.0 mm
02:09 PM 41.3°F5.2°C 26.8°F-2.9°C 56% 2.3 mph N3.7 kmh N 4.0 mph6.4 kmh 29.71 in1006.1 mb 0.00 in0.0 mm 0.00 in0.0 mm 0.00 in0.0 mm
02:10 PM 41.3°F5.2°C 26.8°F-2.9°C 56% 2.4 mph N3.9 kmh N 3.0 mph4.8 kmh 29.71 in1006.1 mb 0.00 in0.0 mm 0.00 in0.0 mm 0.00 in0.0 mm
02:11 PM 41.4°F5.2°C 26.9°F-2.8°C 56% 2.2 mph N3.5 kmh N 4.0 mph6.4 kmh 29.71 in1006.1 mb 0.00 in0.0 mm 0.00 in0.0 mm 0.00 in0.0 mm
02:12 PM 41.5°F5.3°C 27.4°F-2.6°C 57% 2.8 mph N4.5 kmh N 4.0 mph6.4 kmh 29.71 in1006.1 mb 0.00 in0.0 mm 0.00 in0.0 mm 0.00 in0.0 mm
02:13 PM 41.6°F5.3°C 27.1°F-2.7°C 56% 2.7 mph N4.3 kmh N 4.0 mph6.4 kmh 29.71 in1006.1 mb 0.00 in0.0 mm 0.00 in0.0 mm 0.00 in0.0 mm
02:14 PM 41.7°F5.4°C 27.6°F-2.4°C 57% 2.5 mph N4.0 kmh N 4.0 mph6.4 kmh 29.71 in1006.1 mb 0.00 in0.0 mm 0.00 in0.0 mm 0.00 in0.0 mm
02:15 PM 41.6°F5.3°C 27.1°F-2.7°C 56% 3.4 mph NNE5.5 kmh NNE 5.0 mph8.0 kmh 29.71 in1006.1 mb 0.00 in0.0 mm 0.00 in0.0 mm 0.00 in0.0 mm
02:16 PM 41.8°F5.4°C 26.8°F-2.9°C 55% 3.8 mph NE6.1 kmh NE 5.0 mph8.0 kmh 29.71 in1006.1 mb 0.00 in0.0 mm 0.00 in0.0 mm 0.00 in0.0 mm
02:17 PM 41.8°F5.4°C 26.4°F-3.1°C 54% 3.0 mph NE4.8 kmh NE 4.0 mph6.4 kmh 29.71 in1006.1 mb 0.00 in0.0 mm 0.00 in0.0 mm 0.00 in0.0 mm
02:18 PM 41.8°F5.4°C 26.4°F-3.1°C 54% 3.3 mph NE5.3 kmh NE 4.0 mph6.4 kmh 29.71 in1006.1 mb 0.00 in0.0 mm 0.00 in0.0 mm 0.00 in0.0 mm
02:19 PM 41.9°F5.5°C 26.9°F-2.8°C 55% 3.4 mph NE5.5 kmh NE 4.0 mph6.4 kmh 29.71 in1006.1 mb 0.00 in0.0 mm 0.00 in0.0 mm 0.00 in0.0 mm
02:20 PM 41.9°F5.5°C 26.5°F-3.1°C 54% 3.5 mph NE5.6 kmh NE 5.0 mph8.0 kmh 29.71 in1006.1 mb 0.00 in0.0 mm 0.00 in0.0 mm 0.00 in0.0 mm
02:21 PM 41.9°F5.5°C 26.9°F-2.8°C 55% 3.9 mph N6.3 kmh N 5.0 mph8.0 kmh 29.71 in1006.1 mb 0.00 in0.0 mm 0.00 in0.0 mm 0.00 in0.0 mm
02:22 PM 41.8°F5.4°C 27.3°F-2.6°C 56% 4.2 mph N6.8 kmh N 5.0 mph8.0 kmh 29.71 in1006.1 mb 0.00 in0.0 mm 0.00 in0.0 mm 0.00 in0.0 mm
02:23 PM 41.8°F5.4°C 26.4°F-3.1°C 54% 4.1 mph N6.6 kmh N 5.0 mph8.0 kmh 29.71 in1006.1 mb 0.00 in0.0 mm 0.00 in0.0 mm 0.00 in0.0 mm
02:24 PM 41.7°F5.4°C 26.7°F-2.9°C 55% 3.8 mph N6.1 kmh N 5.0 mph8.0 kmh 29.71 in1006.1 mb 0.00 in0.0 mm 0.00 in0.0 mm 0.00 in0.0 mm
02:25 PM 41.7°F5.4°C 26.7°F-2.9°C 55% 3.6 mph N5.8 kmh N 5.0 mph8.0 kmh 29.71 in1006.1 mb 0.00 in0.0 mm 0.00 in0.0 mm 0.00 in0.0 mm
02:26 PM 41.8°F5.4°C 26.8°F-2.9°C 55% 4.1 mph N6.6 kmh N 5.0 mph8.0 kmh 29.71 in1006.1 mb 0.00 in0.0 mm 0.00 in0.0 mm 0.00 in0.0 mm
02:27 PM 41.8°F5.4°C 26.8°F-2.9°C 55% 4.3 mph N6.9 kmh N 6.0 mph9.7 kmh 29.71 in1006.1 mb 0.00 in0.0 mm 0.00 in0.0 mm 0.00 in0.0 mm
02:28 PM 41.8°F5.4°C 26.8°F-2.9°C 55% 4.7 mph N7.6 kmh N 7.0 mph11.3 kmh 29.71 in1006.1 mb 0.00 in0.0 mm 0.00 in0.0 mm 0.00 in0.0 mm
02:29 PM 41.8°F5.4°C 26.8°F-2.9°C 55% 4.5 mph N7.2 kmh N 7.0 mph11.3 kmh 29.71 in1006.1 mb 0.00 in0.0 mm 0.00 in0.0 mm 0.00 in0.0 mm
02:30 PM 41.8°F5.4°C 26.4°F-3.1°C 54% 4.1 mph N6.6 kmh N 5.0 mph8.0 kmh 29.71 in1006.1 mb 0.00 in0.0 mm 0.00 in0.0 mm 0.00 in0.0 mm
02:31 PM 41.8°F5.4°C 26.8°F-2.9°C 55% 3.8 mph N6.1 kmh N 5.0 mph8.0 kmh 29.71 in1006.1 mb 0.00 in0.0 mm 0.00 in0.0 mm 0.00 in0.0 mm
02:32 PM 41.9°F5.5°C 26.9°F-2.8°C 55% 3.9 mph NNE6.3 kmh NNE 5.0 mph8.0 kmh 29.71 in1006.1 mb 0.00 in0.0 mm 0.00 in0.0 mm 0.00 in0.0 mm
02:33 PM 41.9°F5.5°C 26.0°F-3.3°C 53% 4.0 mph N6.4 kmh N 5.0 mph8.0 kmh 29.71 in1006.1 mb 0.00 in0.0 mm 0.00 in0.0 mm 0.00 in0.0 mm
02:34 PM 41.8°F5.4°C 25.5°F-3.6°C 52% 3.2 mph N5.1 kmh N 5.0 mph8.0 kmh 29.71 in1006.1 mb 0.00 in0.0 mm 0.00 in0.0 mm 0.00 in0.0 mm
02:35 PM 41.8°F5.4°C 25.9°F-3.4°C 53% 2.9 mph N4.7 kmh N 4.0 mph6.4 kmh 29.71 in1006.1 mb 0.00 in0.0 mm 0.00 in0.0 mm 0.00 in0.0 mm
02:36 PM 41.9°F5.5°C 26.0°F-3.3°C 53% 3.1 mph N5.0 kmh N 4.0 mph6.4 kmh 29.71 in1006.1 mb 0.00 in0.0 mm 0.00 in0.0 mm 0.00 in0.0 mm
02:37 PM 41.8°F5.4°C 25.9°F-3.4°C 53% 3.8 mph N6.1 kmh N 4.0 mph6.4 kmh 29.71 in1006.1 mb 0.00 in0.0 mm 0.00 in0.0 mm 0.00 in0.0 mm
02:38 PM 41.9°F5.5°C 26.0°F-3.3°C 53% 4.4 mph NNE7.1 kmh NNE 5.0 mph8.0 kmh 29.71 in1006.1 mb 0.00 in0.0 mm 0.00 in0.0 mm 0.00 in0.0 mm
02:39 PM 41.9°F5.5°C 26.0°F-3.3°C 53% 4.2 mph N6.8 kmh N 5.0 mph8.0 kmh 29.71 in1006.1 mb 0.00 in0.0 mm 0.00 in0.0 mm 0.00 in0.0 mm
02:40 PM 42.0°F5.6°C 26.6°F-3.0°C 54% 4.1 mph N6.6 kmh N 5.0 mph8.0 kmh 29.71 in1006.1 mb 0.00 in0.0 mm 0.00 in0.0 mm 0.00 in0.0 mm
02:41 PM 42.0°F5.6°C 26.6°F-3.0°C 54% 4.4 mph N7.1 kmh N 5.0 mph8.0 kmh 29.71 in1006.1 mb 0.00 in0.0 mm 0.00 in0.0 mm 0.00 in0.0 mm
02:42 PM 42.0°F5.6°C 26.6°F-3.0°C 54% 5.1 mph N8.2 kmh N 7.0 mph11.3 kmh 29.71 in1006.1 mb 0.00 in0.0 mm 0.00 in0.0 mm 0.00 in0.0 mm
02:43 PM 42.0°F5.6°C 26.6°F-3.0°C 54% 4.5 mph N7.2 kmh N 7.0 mph11.3 kmh 29.71 in1006.1 mb 0.00 in0.0 mm 0.00 in0.0 mm 0.00 in0.0 mm
02:44 PM 42.1°F5.6°C 27.1°F-2.7°C 55% 5.0 mph N8.0 kmh N 8.0 mph12.9 kmh 29.71 in1006.1 mb 0.00 in0.0 mm 0.00 in0.0 mm 0.00 in0.0 mm
02:45 PM 42.1°F5.6°C 27.1°F-2.7°C 55% 4.9 mph N7.9 kmh N 8.0 mph12.9 kmh 29.71 in1006.1 mb 0.00 in0.0 mm 0.00 in0.0 mm 0.00 in0.0 mm
02:46 PM 42.0°F5.6°C 26.1°F-3.3°C 53% 5.1 mph N8.2 kmh N 8.0 mph12.9 kmh 29.71 in1006.1 mb 0.00 in0.0 mm 0.00 in0.0 mm 0.00 in0.0 mm
02:47 PM 42.0°F5.6°C 26.1°F-3.3°C 53% 3.3 mph N5.3 kmh N 7.0 mph11.3 kmh 29.71 in1006.1 mb 0.00 in0.0 mm 0.00 in0.0 mm 0.00 in0.0 mm
02:48 PM 42.0°F5.6°C 26.1°F-3.3°C 53% 3.6 mph N5.8 kmh N 5.0 mph8.0 kmh 29.71 in1006.1 mb 0.00 in0.0 mm 0.00 in0.0 mm 0.00 in0.0 mm
02:49 PM 42.0°F5.6°C 26.1°F-3.3°C 53% 3.2 mph N5.1 kmh N 5.0 mph8.0 kmh 29.71 in1006.1 mb 0.00 in0.0 mm 0.00 in0.0 mm 0.00 in0.0 mm
02:50 PM 42.1°F5.6°C 26.7°F-2.9°C 54% 2.5 mph N4.0 kmh N 5.0 mph8.0 kmh 29.71 in1006.1 mb 0.00 in0.0 mm 0.00 in0.0 mm 0.00 in0.0 mm
02:51 PM 42.2°F5.7°C 27.2°F-2.7°C 55% 2.2 mph N3.5 kmh N 4.0 mph6.4 kmh 29.71 in1006.1 mb 0.00 in0.0 mm 0.00 in0.0 mm 0.00 in0.0 mm
02:52 PM 42.2°F5.7°C 26.8°F-2.9°C 54% 3.0 mph N4.8 kmh N 5.0 mph8.0 kmh 29.71 in1006.1 mb 0.00 in0.0 mm 0.00 in0.0 mm 0.00 in0.0 mm
02:53 PM 42.3°F5.7°C 26.4°F-3.1°C 53% 4.6 mph NNE7.4 kmh NNE 6.0 mph9.7 kmh 29.71 in1006.1 mb 0.00 in0.0 mm 0.00 in0.0 mm 0.00 in0.0 mm
02:54 PM 42.3°F5.7°C 25.9°F-3.4°C 52% 4.5 mph NNE7.2 kmh NNE 6.0 mph9.7 kmh 29.71 in1006.1 mb 0.00 in0.0 mm 0.00 in0.0 mm 0.00 in0.0 mm
02:55 PM 42.3°F5.7°C 25.5°F-3.6°C 51% 5.2 mph NE8.4 kmh NE 6.0 mph9.7 kmh 29.71 in1006.1 mb 0.00 in0.0 mm 0.00 in0.0 mm 0.00 in0.0 mm
02:56 PM 42.4°F5.8°C 26.0°F-3.3°C 52% 4.3 mph NE6.9 kmh NE 7.0 mph11.3 kmh 29.71 in1006.1 mb 0.00 in0.0 mm 0.00 in0.0 mm 0.00 in0.0 mm
02:57 PM 42.4°F5.8°C 26.0°F-3.3°C 52% 4.6 mph NNE7.4 kmh NNE 7.0 mph11.3 kmh 29.71 in1006.1 mb 0.00 in0.0 mm 0.00 in0.0 mm 0.00 in0.0 mm
02:58 PM 42.3°F5.7°C 25.9°F-3.4°C 52% 3.7 mph NNE6.0 kmh NNE 5.0 mph8.0 kmh 29.71 in1006.1 mb 0.00 in0.0 mm 0.00 in0.0 mm 0.00 in0.0 mm
02:59 PM 42.3°F5.7°C 26.4°F-3.1°C 53% 2.3 mph N3.7 kmh N 4.0 mph6.4 kmh 29.71 in1006.1 mb 0.00 in0.0 mm 0.00 in0.0 mm 0.00 in0.0 mm
03:00 PM 42.4°F5.8°C 26.5°F-3.1°C 53% 3.7 mph N6.0 kmh N 5.0 mph8.0 kmh 29.71 in1006.1 mb 0.00 in0.0 mm 0.00 in0.0 mm 0.00 in0.0 mm
03:01 PM 42.3°F5.7°C 26.4°F-3.1°C 53% 4.0 mph N6.4 kmh N 5.0 mph8.0 kmh 29.71 in1006.1 mb 0.00 in0.0 mm 0.00 in0.0 mm 0.00 in0.0 mm
03:02 PM 42.3°F5.7°C 26.4°F-3.1°C 53% 3.5 mph N5.6 kmh N 7.0 mph11.3 kmh 29.71 in1006.1 mb 0.00 in0.0 mm 0.00 in0.0 mm 0.00 in0.0 mm
03:03 PM 42.3°F5.7°C 26.4°F-3.1°C 53% 3.9 mph N6.3 kmh N 7.0 mph11.3 kmh 29.71 in1006.1 mb 0.00 in0.0 mm 0.00 in0.0 mm 0.00 in0.0 mm
03:04 PM 42.2°F5.7°C 26.3°F-3.2°C 53% 4.3 mph N6.9 kmh N 7.0 mph11.3 kmh 29.70 in1005.8 mb 0.00 in0.0 mm 0.00 in0.0 mm 0.00 in0.0 mm
03:05 PM 42.2°F5.7°C 26.8°F-2.9°C 54% 4.0 mph NNE6.4 kmh NNE 7.0 mph11.3 kmh 29.70 in1005.8 mb 0.00 in0.0 mm 0.00 in0.0 mm 0.00 in0.0 mm
03:06 PM 42.2°F5.7°C 26.8°F-2.9°C 54% 4.4 mph NE7.1 kmh NE 6.0 mph9.7 kmh 29.70 in1005.8 mb 0.00 in0.0 mm 0.00 in0.0 mm 0.00 in0.0 mm
03:07 PM 42.3°F5.7°C 26.9°F-2.8°C 54% 3.4 mph NE5.5 kmh NE 5.0 mph8.0 kmh 29.70 in1005.8 mb 0.00 in0.0 mm 0.00 in0.0 mm 0.00 in0.0 mm
03:08 PM 42.3°F5.7°C 27.3°F-2.6°C 55% 3.0 mph NNE4.8 kmh NNE 5.0 mph8.0 kmh 29.70 in1005.8 mb 0.00 in0.0 mm 0.00 in0.0 mm 0.00 in0.0 mm
03:09 PM 42.4°F5.8°C 27.4°F-2.6°C 55% 3.7 mph NNE6.0 kmh NNE 5.0 mph8.0 kmh 29.70 in1005.8 mb 0.00 in0.0 mm 0.00 in0.0 mm 0.00 in0.0 mm
03:10 PM 42.5°F5.8°C 27.5°F-2.5°C 55% 3.2 mph NNE5.1 kmh NNE 5.0 mph8.0 kmh 29.70 in1005.8 mb 0.00 in0.0 mm 0.00 in0.0 mm 0.00 in0.0 mm
03:11 PM 42.5°F5.8°C 27.9°F-2.3°C 56% 3.6 mph NNE5.8 kmh NNE 5.0 mph8.0 kmh 29.70 in1005.8 mb 0.00 in0.0 mm 0.00 in0.0 mm 0.00 in0.0 mm
03:12 PM 42.6°F5.9°C 28.4°F-2.0°C 57% 2.7 mph NNE4.3 kmh NNE 5.0 mph8.0 kmh 29.70 in1005.8 mb 0.00 in0.0 mm 0.00 in0.0 mm 0.00 in0.0 mm
03:13 PM 42.6°F5.9°C 28.9°F-1.7°C 58% 4.0 mph NNE6.4 kmh NNE 5.0 mph8.0 kmh 29.70 in1005.8 mb 0.00 in0.0 mm 0.00 in0.0 mm 0.00 in0.0 mm
03:14 PM 42.6°F5.9°C 29.7°F-1.3°C 60% 3.6 mph N5.8 kmh N 5.0 mph8.0 kmh 29.70 in1005.8 mb 0.00 in0.0 mm 0.00 in0.0 mm 0.00 in0.0 mm
03:15 PM 42.6°F5.9°C 29.7°F-1.3°C 60% 4.8 mph N7.7 kmh N 6.0 mph9.7 kmh 29.70 in1005.8 mb 0.00 in0.0 mm 0.00 in0.0 mm 0.00 in0.0 mm
03:16 PM 42.7°F5.9°C 29.4°F-1.4°C 59% 6.0 mph N9.7 kmh N 8.0 mph12.9 kmh 29.70 in1005.8 mb 0.00 in0.0 mm 0.00 in0.0 mm 0.00 in0.0 mm
03:17 PM 42.6°F5.9°C 28.9°F-1.7°C 58% 6.0 mph N9.7 kmh N 8.0 mph12.9 kmh 29.70 in1005.8 mb 0.00 in0.0 mm 0.00 in0.0 mm 0.00 in0.0 mm
03:18 PM 42.6°F5.9°C 29.3°F-1.5°C 59% 7.0 mph N11.3 kmh N 9.0 mph14.5 kmh 29.70 in1005.8 mb 0.00 in0.0 mm 0.00 in0.0 mm 0.00 in0.0 mm
03:19 PM 42.6°F5.9°C 29.7°F-1.3°C 60% 7.3 mph N11.7 kmh N 9.0 mph14.5 kmh 29.70 in1005.8 mb 0.00 in0.0 mm 0.00 in0.0 mm 0.00 in0.0 mm
03:20 PM 42.4°F5.8°C 29.9°F-1.2°C 61% 8.5 mph N13.7 kmh N 10.0 mph16.1 kmh 29.70 in1005.8 mb 0.00 in0.0 mm 0.00 in0.0 mm 0.00 in0.0 mm
03:21 PM 42.3°F5.7°C 29.4°F-1.4°C 60% 8.7 mph N14.0 kmh N 10.0 mph16.1 kmh 29.70 in1005.8 mb 0.00 in0.0 mm 0.00 in0.0 mm 0.00 in0.0 mm
03:22 PM 42.3°F5.7°C 29.4°F-1.4°C 60% 8.2 mph N13.2 kmh N 10.0 mph16.1 kmh 29.70 in1005.8 mb 0.00 in0.0 mm 0.00 in0.0 mm 0.00 in0.0 mm
03:23 PM 42.2°F5.7°C 28.9°F-1.7°C 59% 7.7 mph N12.4 kmh N 10.0 mph16.1 kmh 29.70 in1005.8 mb 0.00 in0.0 mm 0.00 in0.0 mm 0.00 in0.0 mm
03:24 PM 42.2°F5.7°C 28.9°F-1.7°C 59% 7.1 mph N11.4 kmh N 9.0 mph14.5 kmh 29.70 in1005.8 mb 0.00 in0.0 mm 0.00 in0.0 mm 0.00 in0.0 mm
03:25 PM 42.2°F5.7°C 28.9°F-1.7°C 59% 7.5 mph N12.1 kmh N 8.0 mph12.9 kmh 29.70 in1005.8 mb 0.00 in0.0 mm 0.00 in0.0 mm 0.00 in0.0 mm
03:26 PM 42.3°F5.7°C 29.0°F-1.7°C 59% 7.6 mph N12.2 kmh N 9.0 mph14.5 kmh 29.70 in1005.8 mb 0.00 in0.0 mm 0.00 in0.0 mm 0.00 in0.0 mm
03:27 PM 42.3°F5.7°C 29.0°F-1.7°C 59% 7.5 mph N12.1 kmh N 9.0 mph14.5 kmh 29.70 in1005.8 mb 0.00 in0.0 mm 0.00 in0.0 mm 0.00 in0.0 mm
03:28 PM 42.3°F5.7°C 29.4°F-1.4°C 60% 7.0 mph N11.3 kmh N 8.0 mph12.9 kmh 29.70 in1005.8 mb 0.00 in0.0 mm 0.00 in0.0 mm 0.00 in0.0 mm
03:29 PM 42.3°F5.7°C 29.0°F-1.7°C 59% 6.5 mph NNE10.5 kmh NNE 8.0 mph12.9 kmh 29.70 in1005.8 mb 0.00 in0.0 mm 0.00 in0.0 mm 0.00 in0.0 mm
03:30 PM 42.2°F5.7°C 28.9°F-1.7°C 59% 5.1 mph NNE8.2 kmh NNE 8.0 mph12.9 kmh 29.70 in1005.8 mb 0.00 in0.0 mm 0.00 in0.0 mm 0.00 in0.0 mm
03:31 PM 42.2°F5.7°C 28.9°F-1.7°C 59% 4.4 mph NNE7.1 kmh NNE 7.0 mph11.3 kmh 29.70 in1005.8 mb 0.00 in0.0 mm 0.00 in0.0 mm 0.00 in0.0 mm
03:32 PM 42.1°F5.6°C 29.2°F-1.6°C 60% 5.4 mph NNE8.7 kmh NNE 7.0 mph11.3 kmh 29.70 in1005.8 mb 0.00 in0.0 mm 0.00 in0.0 mm 0.00 in0.0 mm
03:33 PM 42.1°F5.6°C 29.6°F-1.3°C 61% 4.8 mph NNE7.7 kmh NNE 7.0 mph11.3 kmh 29.70 in1005.8 mb 0.00 in0.0 mm 0.00 in0.0 mm 0.00 in0.0 mm
03:34 PM 42.1°F5.6°C 29.6°F-1.3°C 61% 4.6 mph NNE7.4 kmh NNE 7.0 mph11.3 kmh 29.70 in1005.8 mb 0.00 in0.0 mm 0.00 in0.0 mm 0.00 in0.0 mm
03:35 PM 42.1°F5.6°C 29.6°F-1.3°C 61% 5.1 mph NNE8.2 kmh NNE 7.0 mph11.3 kmh 29.70 in1005.8 mb 0.00 in0.0 mm 0.00 in0.0 mm 0.00 in0.0 mm
03:36 PM 42.1°F5.6°C 29.6°F-1.3°C 61% 3.9 mph NNE6.3 kmh NNE 7.0 mph11.3 kmh 29.70 in1005.8 mb 0.00 in0.0 mm 0.00 in0.0 mm 0.00 in0.0 mm
03:37 PM 42.1°F5.6°C 29.6°F-1.3°C 61% 4.6 mph NNE7.4 kmh NNE 6.0 mph9.7 kmh 29.70 in1005.8 mb 0.00 in0.0 mm 0.00 in0.0 mm 0.00 in0.0 mm
03:38 PM 42.0°F5.6°C 29.9°F-1.2°C 62% 6.3 mph NNE10.1 kmh NNE 8.0 mph12.9 kmh 29.70 in1005.8 mb 0.00 in0.0 mm 0.00 in0.0 mm 0.00 in0.0 mm
03:39 PM 42.0°F5.6°C 29.9°F-1.2°C 62% 6.2 mph N10.0 kmh N 8.0 mph12.9 kmh 29.70 in1005.8 mb 0.00 in0.0 mm 0.00 in0.0 mm 0.00 in0.0 mm
03:40 PM 42.0°F5.6°C 30.3°F-0.9°C 63% 6.1 mph N9.8 kmh N 8.0 mph12.9 kmh 29.70 in1005.8 mb 0.00 in0.0 mm 0.00 in0.0 mm 0.00 in0.0 mm
03:41 PM 42.0°F5.6°C 30.3°F-0.9°C 63% 5.6 mph N9.0 kmh N 8.0 mph12.9 kmh 29.70 in1005.8 mb 0.00 in0.0 mm 0.00 in0.0 mm 0.00 in0.0 mm
03:42 PM 42.0°F5.6°C 30.3°F-0.9°C 63% 4.8 mph N7.7 kmh N 7.0 mph11.3 kmh 29.70 in1005.8 mb 0.00 in0.0 mm 0.00 in0.0 mm 0.00 in0.0 mm
03:43 PM 42.0°F5.6°C 30.7°F-0.7°C 64% 5.6 mph N9.0 kmh N 7.0 mph11.3 kmh 29.70 in1005.8 mb 0.00 in0.0 mm 0.00 in0.0 mm 0.00 in0.0 mm
03:44 PM 42.0°F5.6°C 30.7°F-0.7°C 64% 5.5 mph N8.9 kmh N 7.0 mph11.3 kmh 29.70 in1005.8 mb 0.00 in0.0 mm 0.00 in0.0 mm 0.00 in0.0 mm
03:45 PM 41.9°F5.5°C 30.2°F-1.0°C 63% 5.1 mph N8.2 kmh N 7.0 mph11.3 kmh 29.70 in1005.8 mb 0.00 in0.0 mm 0.00 in0.0 mm 0.00 in0.0 mm
03:46 PM 41.9°F5.5°C 30.2°F-1.0°C 63% 5.1 mph N8.2 kmh N 7.0 mph11.3 kmh 29.70 in1005.8 mb 0.00 in0.0 mm 0.00 in0.0 mm 0.00 in0.0 mm
03:47 PM 42.0°F5.6°C 30.3°F-0.9°C 63% 5.1 mph N8.2 kmh N 7.0 mph11.3 kmh 29.70 in1005.8 mb 0.00 in0.0 mm 0.00 in0.0 mm 0.00 in0.0 mm
03:48 PM 41.9°F5.5°C 30.2°F-1.0°C 63% 4.6 mph N7.4 kmh N 7.0 mph11.3 kmh 29.70 in1005.8 mb 0.00 in0.0 mm 0.00 in0.0 mm 0.00 in0.0 mm
03:49 PM 41.9°F5.5°C 29.8°F-1.2°C 62% 4.5 mph N7.2 kmh N 5.0 mph8.0 kmh 29.70 in1005.8 mb 0.00 in0.0 mm 0.00 in0.0 mm 0.00 in0.0 mm
03:50 PM 41.9°F5.5°C 29.4°F-1.4°C 61% 4.4 mph N7.1 kmh N 5.0 mph8.0 kmh 29.70 in1005.8 mb 0.00 in0.0 mm 0.00 in0.0 mm 0.00 in0.0 mm
03:51 PM 41.9°F5.5°C 29.4°F-1.4°C 61% 3.8 mph N6.1 kmh N 5.0 mph8.0 kmh 29.70 in1005.8 mb 0.00 in0.0 mm 0.00 in0.0 mm 0.00 in0.0 mm
03:52 PM 42.0°F5.6°C 29.9°F-1.2°C 62% 4.1 mph N6.6 kmh N 5.0 mph8.0 kmh 29.70 in1005.8 mb 0.00 in0.0 mm 0.00 in0.0 mm 0.00 in0.0 mm
03:53 PM 42.0°F5.6°C 29.9°F-1.2°C 62% 3.4 mph N5.5 kmh N 5.0 mph8.0 kmh 29.70 in1005.8 mb 0.00 in0.0 mm 0.00 in0.0 mm 0.00 in0.0 mm
03:54 PM 41.9°F5.5°C 29.8°F-1.2°C 62% 3.7 mph N6.0 kmh N 5.0 mph8.0 kmh 29.70 in1005.8 mb 0.00 in0.0 mm 0.00 in0.0 mm 0.00 in0.0 mm
03:55 PM 41.9°F5.5°C 29.8°F-1.2°C 62% 4.1 mph N6.6 kmh N 5.0 mph8.0 kmh 29.70 in1005.8 mb 0.00 in0.0 mm 0.00 in0.0 mm 0.00 in0.0 mm
03:56 PM 41.9°F5.5°C 30.2°F-1.0°C 63% 4.2 mph N6.8 kmh N 5.0 mph8.0 kmh 29.70 in1005.8 mb 0.00 in0.0 mm 0.00 in0.0 mm 0.00 in0.0 mm
03:57 PM 41.9°F5.5°C 30.2°F-1.0°C 63% 4.5 mph N7.2 kmh N 6.0 mph9.7 kmh 29.70 in1005.8 mb 0.00 in0.0 mm 0.00 in0.0 mm 0.00 in0.0 mm
03:58 PM 41.9°F5.5°C 30.6°F-0.8°C 64% 4.5 mph N7.2 kmh N 6.0 mph9.7 kmh 29.70 in1005.8 mb 0.00 in0.0 mm 0.00 in0.0 mm 0.00 in0.0 mm
03:59 PM 41.9°F5.5°C 30.6°F-0.8°C 64% 4.5 mph N7.2 kmh N 7.0 mph11.3 kmh 29.70 in1005.8 mb 0.00 in0.0 mm 0.00 in0.0 mm 0.00 in0.0 mm
04:00 PM 41.9°F5.5°C 30.6°F-0.8°C 64% 4.5 mph N7.2 kmh N 7.0 mph11.3 kmh 29.70 in1005.8 mb 0.00 in0.0 mm 0.00 in0.0 mm 0.00 in0.0 mm
04:01 PM 41.9°F5.5°C 30.6°F-0.8°C 64% 4.6 mph N7.4 kmh N 7.0 mph11.3 kmh 29.70 in1005.8 mb 0.00 in0.0 mm 0.00 in0.0 mm 0.00 in0.0 mm
04:02 PM 41.9°F5.5°C 30.2°F-1.0°C 63% 4.1 mph N6.6 kmh N 6.0 mph9.7 kmh 29.70 in1005.8 mb 0.00 in0.0 mm 0.00 in0.0 mm 0.00 in0.0 mm
04:03 PM 41.9°F5.5°C 30.2°F-1.0°C 63% 3.7 mph N6.0 kmh N 6.0 mph9.7 kmh 29.70 in1005.8 mb 0.00 in0.0 mm 0.00 in0.0 mm 0.00 in0.0 mm
04:04 PM 41.9°F5.5°C 30.2°F-1.0°C 63% 4.0 mph N6.4 kmh N 5.0 mph8.0 kmh 29.70 in1005.8 mb 0.00 in0.0 mm 0.00 in0.0 mm 0.00 in0.0 mm
04:05 PM 42.0°F5.6°C 30.7°F-0.7°C 64% 3.6 mph N5.8 kmh N 5.0 mph8.0 kmh 29.70 in1005.8 mb 0.00 in0.0 mm 0.00 in0.0 mm 0.00 in0.0 mm
04:06 PM 41.9°F5.5°C 30.6°F-0.8°C 64% 4.2 mph N6.8 kmh N 5.0 mph8.0 kmh 29.70 in1005.8 mb 0.00 in0.0 mm 0.00 in0.0 mm 0.00 in0.0 mm
04:07 PM 41.8°F5.4°C 30.9°F-0.6°C 65% 5.0 mph N8.0 kmh N 7.0 mph11.3 kmh 29.70 in1005.8 mb 0.00 in0.0 mm 0.00 in0.0 mm 0.00 in0.0 mm
04:08 PM 41.8°F5.4°C 30.9°F-0.6°C 65% 4.5 mph N7.2 kmh N 7.0 mph11.3 kmh 29.69 in1005.4 mb 0.00 in0.0 mm 0.00 in0.0 mm 0.00 in0.0 mm
04:09 PM 41.8°F5.4°C 30.9°F-0.6°C 65% 3.9 mph N6.3 kmh N 6.0 mph9.7 kmh 29.70 in1005.8 mb 0.00 in0.0 mm 0.00 in0.0 mm 0.00 in0.0 mm
04:10 PM 41.8°F5.4°C 31.3°F-0.4°C 66% 4.9 mph N7.9 kmh N 7.0 mph11.3 kmh 29.69 in1005.4 mb 0.00 in0.0 mm 0.00 in0.0 mm 0.00 in0.0 mm
04:11 PM 41.8°F5.4°C 31.3°F-0.4°C 66% 6.9 mph N11.1 kmh N 8.0 mph12.9 kmh 29.69 in1005.4 mb 0.00 in0.0 mm 0.00 in0.0 mm 0.00 in0.0 mm
04:12 PM 41.8°F5.4°C 30.9°F-0.6°C 65% 6.3 mph N10.1 kmh N 8.0 mph12.9 kmh 29.69 in1005.4 mb 0.00 in0.0 mm 0.00 in0.0 mm 0.00 in0.0 mm
04:13 PM 41.8°F5.4°C 30.9°F-0.6°C 65% 6.3 mph N10.1 kmh N 8.0 mph12.9 kmh 29.69 in1005.4 mb 0.00 in0.0 mm 0.00 in0.0 mm 0.00 in0.0 mm
04:14 PM 41.8°F5.4°C 30.9°F-0.6°C 65% 5.9 mph N9.5 kmh N 8.0 mph12.9 kmh 29.69 in1005.4 mb 0.00 in0.0 mm 0.00 in0.0 mm 0.00 in0.0 mm
04:15 PM 41.9°F5.5°C 31.0°F-0.6°C 65% 5.7 mph N9.2 kmh N 8.0 mph12.9 kmh 29.69 in1005.4 mb 0.00 in0.0 mm 0.00 in0.0 mm 0.00 in0.0 mm
04:16 PM 41.9°F5.5°C 31.4°F-0.3°C 66% 5.7 mph N9.2 kmh N 8.0 mph12.9 kmh 29.69 in1005.4 mb 0.00 in0.0 mm 0.00 in0.0 mm 0.00 in0.0 mm
04:17 PM 41.9°F5.5°C 31.4°F-0.3°C 66% 5.8 mph N9.3 kmh N 8.0 mph12.9 kmh 29.69 in1005.4 mb 0.00 in0.0 mm 0.00 in0.0 mm 0.00 in0.0 mm
04:18 PM 41.9°F5.5°C 31.4°F-0.3°C 66% 6.4 mph N10.3 kmh N 8.0 mph12.9 kmh 29.69 in1005.4 mb 0.00 in0.0 mm 0.00 in0.0 mm 0.00 in0.0 mm
04:19 PM 41.9°F5.5°C 31.4°F-0.3°C 66% 6.7 mph N10.8 kmh N 8.0 mph12.9 kmh 29.69 in1005.4 mb 0.00 in0.0 mm 0.00 in0.0 mm 0.00 in0.0 mm
04:20 PM 41.8°F5.4°C 31.3°F-0.4°C 66% 6.7 mph N10.8 kmh N 8.0 mph12.9 kmh 29.69 in1005.4 mb 0.00 in0.0 mm 0.00 in0.0 mm 0.00 in0.0 mm
04:21 PM 41.8°F5.4°C 30.9°F-0.6°C 65% 5.4 mph N8.7 kmh N 8.0 mph12.9 kmh 29.69 in1005.4 mb 0.00 in0.0 mm 0.00 in0.0 mm 0.00 in0.0 mm
04:22 PM 41.8°F5.4°C 30.9°F-0.6°C 65% 4.2 mph N6.8 kmh N 7.0 mph11.3 kmh 29.69 in1005.4 mb 0.00 in0.0 mm 0.00 in0.0 mm 0.00 in0.0 mm
04:23 PM 41.8°F5.4°C 31.3°F-0.4°C 66% 4.9 mph NNE7.9 kmh NNE 7.0 mph11.3 kmh 29.69 in1005.4 mb 0.00 in0.0 mm 0.00 in0.0 mm 0.00 in0.0 mm
04:24 PM 41.8°F5.4°C 31.3°F-0.4°C 66% 5.1 mph NNE8.2 kmh NNE 7.0 mph11.3 kmh 29.69 in1005.4 mb 0.00 in0.0 mm 0.00 in0.0 mm 0.00 in0.0 mm
04:25 PM 41.8°F5.4°C 31.7°F-0.2°C 67% 5.7 mph N9.2 kmh N 7.0 mph11.3 kmh 29.69 in1005.4 mb 0.00 in0.0 mm 0.00 in0.0 mm 0.00 in0.0 mm
04:26 PM 41.8°F5.4°C 31.7°F-0.2°C 67% 5.1 mph N8.2 kmh N 7.0 mph11.3 kmh 29.69 in1005.4 mb 0.00 in0.0 mm 0.00 in0.0 mm 0.00 in0.0 mm
04:27 PM 41.8°F5.4°C 31.7°F-0.2°C 67% 5.6 mph N9.0 kmh N 8.0 mph12.9 kmh 29.69 in1005.4 mb 0.00 in0.0 mm 0.00 in0.0 mm 0.00 in0.0 mm
04:28 PM 41.8°F5.4°C 31.7°F-0.2°C 67% 5.9 mph N9.5 kmh N 8.0 mph12.9 kmh 29.69 in1005.4 mb 0.00 in0.0 mm 0.00 in0.0 mm 0.00 in0.0 mm
04:29 PM 41.7°F5.4°C 31.6°F-0.2°C 67% 5.6 mph N9.0 kmh N 8.0 mph12.9 kmh 29.69 in1005.4 mb 0.00 in0.0 mm 0.00 in0.0 mm 0.00 in0.0 mm
04:30 PM 41.6°F5.3°C 31.5°F-0.3°C 67% 6.0 mph N9.7 kmh N 8.0 mph12.9 kmh 29.69 in1005.4 mb 0.00 in0.0 mm 0.00 in0.0 mm 0.00 in0.0 mm
04:31 PM 41.6°F5.3°C 31.5°F-0.3°C 67% 5.6 mph N9.0 kmh N 8.0 mph12.9 kmh 29.69 in1005.4 mb 0.00 in0.0 mm 0.00 in0.0 mm 0.00 in0.0 mm
04:32 PM 41.6°F5.3°C 31.5°F-0.3°C 67% 5.2 mph N8.4 kmh N 8.0 mph12.9 kmh 29.69 in1005.4 mb 0.00 in0.0 mm 0.00 in0.0 mm 0.00 in0.0 mm
04:33 PM 41.5°F5.3°C 31.7°F-0.2°C 68% 5.4 mph N8.7 kmh N 7.0 mph11.3 kmh 29.69 in1005.4 mb 0.00 in0.0 mm 0.00 in0.0 mm 0.00 in0.0 mm
04:34 PM 41.4°F5.2°C 31.6°F-0.2°C 68% 6.2 mph N10.0 kmh N 8.0 mph12.9 kmh 29.69 in1005.4 mb 0.00 in0.0 mm 0.00 in0.0 mm 0.00 in0.0 mm
04:35 PM 41.4°F5.2°C 31.6°F-0.2°C 68% 6.3 mph N10.1 kmh N 9.0 mph14.5 kmh 29.69 in1005.4 mb 0.00 in0.0 mm 0.00 in0.0 mm 0.00 in0.0 mm
04:36 PM 41.3°F5.2°C 31.5°F-0.3°C 68% 6.3 mph N10.1 kmh N 9.0 mph14.5 kmh 29.69 in1005.4 mb 0.00 in0.0 mm 0.00 in0.0 mm 0.00 in0.0 mm
04:37 PM 41.3°F5.2°C 31.5°F-0.3°C 68% 7.1 mph N11.4 kmh N 9.0 mph14.5 kmh 29.68 in1005.1 mb 0.00 in0.0 mm 0.00 in0.0 mm 0.00 in0.0 mm
04:38 PM 41.2°F5.1°C 31.5°F-0.3°C 68% 7.2 mph 11.6 kmh 9.0 mph14.5 kmh 29.68 in1005.1 mb 0.00 in0.0 mm 0.00 in0.0 mm 0.00 in0.0 mm
04:39 PM 41.2°F5.1°C 31.5°F-0.3°C 68% 7.0 mph N11.3 kmh N 9.0 mph14.5 kmh 29.69 in1005.4 mb 0.00 in0.0 mm 0.00 in0.0 mm 0.00 in0.0 mm
04:40 PM 41.2°F5.1°C 31.5°F-0.3°C 68% 7.2 mph N11.6 kmh N 8.0 mph12.9 kmh 29.68 in1005.1 mb 0.00 in0.0 mm 0.00 in0.0 mm 0.00 in0.0 mm
04:41 PM 41.2°F5.1°C 31.5°F-0.3°C 68% 7.1 mph N11.4 kmh N 9.0 mph14.5 kmh 29.68 in1005.1 mb 0.00 in0.0 mm 0.00 in0.0 mm 0.00 in0.0 mm
04:42 PM 41.2°F5.1°C 31.5°F-0.3°C 68% 7.3 mph N11.7 kmh N 9.0 mph14.5 kmh 29.68 in1005.1 mb 0.00 in0.0 mm 0.00 in0.0 mm 0.00 in0.0 mm
04:43 PM 41.1°F5.1°C 31.4°F-0.3°C 68% 7.3 mph N11.7 kmh N 9.0 mph14.5 kmh 29.68 in1005.1 mb 0.00 in0.0 mm 0.00 in0.0 mm 0.00 in0.0 mm
04:44 PM 41.1°F5.1°C 31.0°F-0.6°C 67% 7.9 mph N12.7 kmh N 9.0 mph14.5 kmh 29.68 in1005.1 mb 0.00 in0.0 mm 0.00 in0.0 mm 0.00 in0.0 mm
04:45 PM 41.1°F5.1°C 31.0°F-0.6°C 67% 7.2 mph N11.6 kmh N 9.0 mph14.5 kmh 29.68 in1005.1 mb 0.00 in0.0 mm 0.00 in0.0 mm 0.00 in0.0 mm
04:46 PM 41.1°F5.1°C 31.0°F-0.6°C 67% 6.7 mph N10.8 kmh N 8.0 mph12.9 kmh 29.68 in1005.1 mb 0.00 in0.0 mm 0.00 in0.0 mm 0.00 in0.0 mm
04:47 PM 41.1°F5.1°C 31.0°F-0.6°C 67% 6.1 mph N9.8 kmh N 8.0 mph12.9 kmh 29.68 in1005.1 mb 0.00 in0.0 mm 0.00 in0.0 mm 0.00 in0.0 mm
04:48 PM 41.2°F5.1°C 31.1°F-0.5°C 67% 5.7 mph N9.2 kmh N 8.0 mph12.9 kmh 29.68 in1005.1 mb 0.00 in0.0 mm 0.00 in0.0 mm 0.00 in0.0 mm
04:49 PM 41.2°F5.1°C 31.1°F-0.5°C 67% 5.0 mph N8.0 kmh N 7.0 mph11.3 kmh 29.68 in1005.1 mb 0.00 in0.0 mm 0.00 in0.0 mm 0.00 in0.0 mm
04:50 PM 41.1°F5.1°C 31.0°F-0.6°C 67% 4.9 mph N7.9 kmh N 7.0 mph11.3 kmh 29.68 in1005.1 mb 0.00 in0.0 mm 0.00 in0.0 mm 0.00 in0.0 mm
04:51 PM 41.2°F5.1°C 31.1°F-0.5°C 67% 5.0 mph N8.0 kmh N 6.0 mph9.7 kmh 29.68 in1005.1 mb 0.00 in0.0 mm 0.00 in0.0 mm 0.00 in0.0 mm
04:52 PM 41.2°F5.1°C 31.1°F-0.5°C 67% 5.3 mph N8.5 kmh N 6.0 mph9.7 kmh 29.68 in1005.1 mb 0.00 in0.0 mm 0.00 in0.0 mm 0.00 in0.0 mm
04:53 PM 41.1°F5.1°C 31.4°F-0.3°C 68% 5.3 mph N8.5 kmh N 8.0 mph12.9 kmh 29.68 in1005.1 mb 0.00 in0.0 mm 0.00 in0.0 mm 0.00 in0.0 mm
04:54 PM 41.1°F5.1°C 31.4°F-0.3°C 68% 5.2 mph N8.4 kmh N 8.0 mph12.9 kmh 29.68 in1005.1 mb 0.00 in0.0 mm 0.00 in0.0 mm 0.00 in0.0 mm
04:55 PM 41.1°F5.1°C 31.4°F-0.3°C 68% 5.0 mph N8.0 kmh N 8.0 mph12.9 kmh 29.68 in1005.1 mb 0.00 in0.0 mm 0.00 in0.0 mm 0.00 in0.0 mm
04:56 PM 41.0°F5.0°C 31.3°F-0.4°C 68% 5.9 mph N9.5 kmh N 8.0 mph12.9 kmh 29.68 in1005.1 mb 0.00 in0.0 mm 0.00 in0.0 mm 0.00 in0.0 mm
04:57 PM 41.0°F5.0°C 31.3°F-0.4°C 68% 6.2 mph N10.0 kmh N 8.0 mph12.9 kmh 29.68 in1005.1 mb 0.00 in0.0 mm 0.00 in0.0 mm 0.00 in0.0 mm
04:58 PM 41.0°F5.0°C 31.3°F-0.4°C 68% 6.5 mph N10.5 kmh N 8.0 mph12.9 kmh 29.68 in1005.1 mb 0.00 in0.0 mm 0.00 in0.0 mm 0.00 in0.0 mm
04:59 PM 40.9°F4.9°C 31.2°F-0.4°C 68% 7.5 mph N12.1 kmh N 9.0 mph14.5 kmh 29.68 in1005.1 mb 0.00 in0.0 mm 0.00 in0.0 mm 0.00 in0.0 mm
05:00 PM 40.8°F4.9°C 31.1°F-0.5°C 68% 7.4 mph N11.9 kmh N 9.0 mph14.5 kmh 29.68 in1005.1 mb 0.00 in0.0 mm 0.00 in0.0 mm 0.00 in0.0 mm
05:01 PM 40.7°F4.8°C 31.0°F-0.6°C 68% 7.8 mph N12.6 kmh N 9.0 mph14.5 kmh 29.68 in1005.1 mb 0.00 in0.0 mm 0.00 in0.0 mm 0.00 in0.0 mm
05:02 PM 40.7°F4.8°C 30.6°F-0.8°C 67% 7.4 mph N11.9 kmh N 9.0 mph14.5 kmh 29.68 in1005.1 mb 0.00 in0.0 mm 0.00 in0.0 mm 0.00 in0.0 mm
05:03 PM 40.7°F4.8°C 30.6°F-0.8°C 67% 6.8 mph N10.9 kmh N 9.0 mph14.5 kmh 29.68 in1005.1 mb 0.00 in0.0 mm 0.00 in0.0 mm 0.00 in0.0 mm
05:04 PM 40.6°F4.8°C 30.9°F-0.6°C 68% 6.6 mph N10.6 kmh N 9.0 mph14.5 kmh 29.68 in1005.1 mb 0.00 in0.0 mm 0.00 in0.0 mm 0.00 in0.0 mm
05:05 PM 40.5°F4.7°C 30.8°F-0.7°C 68% 6.0 mph N9.7 kmh N 9.0 mph14.5 kmh 29.68 in1005.1 mb 0.00 in0.0 mm 0.00 in0.0 mm 0.00 in0.0 mm
05:06 PM 40.5°F4.7°C 30.8°F-0.7°C 68% 6.7 mph N10.8 kmh N 9.0 mph14.5 kmh 29.68 in1005.1 mb 0.00 in0.0 mm 0.00 in0.0 mm 0.00 in0.0 mm
05:07 PM 40.4°F4.7°C 30.7°F-0.7°C 68% 7.5 mph N12.1 kmh N 9.0 mph14.5 kmh 29.68 in1005.1 mb 0.00 in0.0 mm 0.00 in0.0 mm 0.00 in0.0 mm
05:08 PM 40.4°F4.7°C 30.7°F-0.7°C 68% 6.6 mph N10.6 kmh N 9.0 mph14.5 kmh 29.68 in1005.1 mb 0.00 in0.0 mm 0.00 in0.0 mm 0.00 in0.0 mm
05:09 PM 40.3°F4.6°C 30.6°F-0.8°C 68% 6.9 mph N11.1 kmh N 9.0 mph14.5 kmh 29.68 in1005.1 mb 0.00 in0.0 mm 0.00 in0.0 mm 0.00 in0.0 mm
05:10 PM 40.3°F4.6°C 30.6°F-0.8°C 68% 6.3 mph N10.1 kmh N 8.0 mph12.9 kmh 29.68 in1005.1 mb 0.00 in0.0 mm 0.00 in0.0 mm 0.00 in0.0 mm
05:11 PM 40.3°F4.6°C 30.6°F-0.8°C 68% 6.7 mph N10.8 kmh N 9.0 mph14.5 kmh 29.68 in1005.1 mb 0.00 in0.0 mm 0.00 in0.0 mm 0.00 in0.0 mm
05:12 PM 40.3°F4.6°C 30.6°F-0.8°C 68% 6.0 mph N9.7 kmh N 9.0 mph14.5 kmh 29.68 in1005.1 mb 0.00 in0.0 mm 0.00 in0.0 mm 0.00 in0.0 mm
05:13 PM 40.3°F4.6°C 30.6°F-0.8°C 68% 5.3 mph N8.5 kmh N 8.0 mph12.9 kmh 29.68 in1005.1 mb 0.00 in0.0 mm 0.00 in0.0 mm 0.00 in0.0 mm
05:14 PM 40.3°F4.6°C 30.6°F-0.8°C 68% 5.3 mph N8.5 kmh N 8.0 mph12.9 kmh 29.68 in1005.1 mb 0.00 in0.0 mm 0.00 in0.0 mm 0.00 in0.0 mm
05:15 PM 40.2°F4.6°C 30.5°F-0.8°C 68% 5.6 mph N9.0 kmh N 8.0 mph12.9 kmh 29.68 in1005.1 mb 0.00 in0.0 mm 0.00 in0.0 mm 0.00 in0.0 mm
05:16 PM 40.2°F4.6°C 30.5°F-0.8°C 68% 5.5 mph N8.9 kmh N 8.0 mph12.9 kmh 29.68 in1005.1 mb 0.00 in0.0 mm 0.00 in0.0 mm 0.00 in0.0 mm
05:17 PM 40.2°F4.6°C 30.5°F-0.8°C 68% 5.6 mph N9.0 kmh N 7.0 mph11.3 kmh 29.68 in1005.1 mb 0.00 in0.0 mm 0.00 in0.0 mm 0.00 in0.0 mm
05:18 PM 40.2°F4.6°C 30.5°F-0.8°C 68% 5.3 mph N8.5 kmh N 8.0 mph12.9 kmh 29.68 in1005.1 mb 0.00 in0.0 mm 0.00 in0.0 mm 0.00 in0.0 mm
05:19 PM 40.3°F4.6°C 30.6°F-0.8°C 68% 4.5 mph N7.2 kmh N 8.0 mph12.9 kmh 29.68 in1005.1 mb 0.00 in0.0 mm 0.00 in0.0 mm 0.00 in0.0 mm
05:20 PM 40.3°F4.6°C 30.6°F-0.8°C 68% 4.2 mph N6.8 kmh N 6.0 mph9.7 kmh 29.68 in1005.1 mb 0.00 in0.0 mm 0.00 in0.0 mm 0.00 in0.0 mm
05:21 PM 40.3°F4.6°C 31.0°F-0.6°C 69% 4.5 mph N7.2 kmh N 6.0 mph9.7 kmh 29.68 in1005.1 mb 0.00 in0.0 mm 0.00 in0.0 mm 0.00 in0.0 mm
05:22 PM 40.3°F4.6°C 31.0°F-0.6°C 69% 4.5 mph N7.2 kmh N 6.0 mph9.7 kmh 29.68 in1005.1 mb 0.00 in0.0 mm 0.00 in0.0 mm 0.00 in0.0 mm
05:23 PM 40.3°F4.6°C 31.0°F-0.6°C 69% 4.2 mph N6.8 kmh N 6.0 mph9.7 kmh 29.68 in1005.1 mb 0.00 in0.0 mm 0.00 in0.0 mm 0.00 in0.0 mm
05:24 PM 40.3°F4.6°C 30.6°F-0.8°C 68% 4.4 mph N7.1 kmh N 6.0 mph9.7 kmh 29.68 in1005.1 mb 0.00 in0.0 mm 0.00 in0.0 mm 0.00 in0.0 mm
05:25 PM 40.3°F4.6°C 30.6°F-0.8°C 68% 4.2 mph N6.8 kmh N 6.0 mph9.7 kmh 29.68 in1005.1 mb 0.00 in0.0 mm 0.00 in0.0 mm 0.00 in0.0 mm
05:26 PM 40.3°F4.6°C 30.6°F-0.8°C 68% 4.5 mph N7.2 kmh N 6.0 mph9.7 kmh 29.68 in1005.1 mb 0.00 in0.0 mm 0.00 in0.0 mm 0.00 in0.0 mm
05:27 PM 40.3°F4.6°C 30.6°F-0.8°C 68% 4.5 mph N7.2 kmh N 6.0 mph9.7 kmh 29.68 in1005.1 mb 0.00 in0.0 mm 0.00 in0.0 mm 0.00 in0.0 mm
05:28 PM 40.3°F4.6°C 30.6°F-0.8°C 68% 4.0 mph N6.4 kmh N 6.0 mph9.7 kmh 29.68 in1005.1 mb 0.00 in0.0 mm 0.00 in0.0 mm 0.00 in0.0 mm
05:29 PM 40.3°F4.6°C 30.6°F-0.8°C 68% 3.7 mph N6.0 kmh N 5.0 mph8.0 kmh 29.68 in1005.1 mb 0.00 in0.0 mm 0.00 in0.0 mm 0.00 in0.0 mm
05:30 PM 40.3°F4.6°C 30.6°F-0.8°C 68% 4.5 mph N7.2 kmh N 6.0 mph9.7 kmh 29.68 in1005.1 mb 0.00 in0.0 mm 0.00 in0.0 mm 0.00 in0.0 mm
05:31 PM 40.3°F4.6°C 30.6°F-0.8°C 68% 3.8 mph N6.1 kmh N 6.0 mph9.7 kmh 29.68 in1005.1 mb 0.00 in0.0 mm 0.00 in0.0 mm 0.00 in0.0 mm
05:32 PM 40.3°F4.6°C 31.0°F-0.6°C 69% 4.2 mph N6.8 kmh N 5.0 mph8.0 kmh 29.68 in1005.1 mb 0.00 in0.0 mm 0.00 in0.0 mm 0.00 in0.0 mm
05:33 PM 40.2°F4.6°C 30.9°F-0.6°C 69% 3.9 mph N6.3 kmh N 5.0 mph8.0 kmh 29.68 in1005.1 mb 0.00 in0.0 mm 0.00 in0.0 mm 0.00 in0.0 mm
05:34 PM 40.2°F4.6°C 30.9°F-0.6°C 69% 4.3 mph N6.9 kmh N 6.0 mph9.7 kmh 29.67 in1004.7 mb 0.00 in0.0 mm 0.00 in0.0 mm 0.00 in0.0 mm
05:35 PM 40.2°F4.6°C 30.9°F-0.6°C 69% 4.1 mph N6.6 kmh N 6.0 mph9.7 kmh 29.67 in1004.7 mb 0.00 in0.0 mm 0.00 in0.0 mm 0.00 in0.0 mm
05:36 PM 40.2°F4.6°C 30.9°F-0.6°C 69% 4.7 mph N7.6 kmh N 6.0 mph9.7 kmh 29.67 in1004.7 mb 0.00 in0.0 mm 0.00 in0.0 mm 0.00 in0.0 mm
05:37 PM 40.2°F4.6°C 30.9°F-0.6°C 69% 4.4 mph N7.1 kmh N 6.0 mph9.7 kmh 29.67 in1004.7 mb 0.00 in0.0 mm 0.00 in0.0 mm 0.00 in0.0 mm
05:38 PM 40.1°F4.5°C 30.8°F-0.7°C 69% 4.9 mph N7.9 kmh N 6.0 mph9.7 kmh 29.67 in1004.7 mb 0.00 in0.0 mm 0.00 in0.0 mm 0.00 in0.0 mm
05:39 PM 40.1°F4.5°C 30.8°F-0.7°C 69% 5.1 mph N8.2 kmh N 6.0 mph9.7 kmh 29.67 in1004.7 mb 0.00 in0.0 mm 0.00 in0.0 mm 0.00 in0.0 mm
05:40 PM 40.0°F4.4°C 30.7°F-0.7°C 69% 5.9 mph N9.5 kmh N 8.0 mph12.9 kmh 29.67 in1004.7 mb 0.00 in0.0 mm 0.00 in0.0 mm 0.00 in0.0 mm
05:41 PM 40.0°F4.4°C 30.7°F-0.7°C 69% 5.3 mph 8.5 kmh 8.0 mph12.9 kmh 29.67 in1004.7 mb 0.00 in0.0 mm 0.00 in0.0 mm 0.00 in0.0 mm
05:42 PM 40.0°F4.4°C 30.7°F-0.7°C 69% 5.5 mph N8.9 kmh N 8.0 mph12.9 kmh 29.67 in1004.7 mb 0.00 in0.0 mm 0.00 in0.0 mm 0.00 in0.0 mm
05:43 PM 40.0°F4.4°C 31.0°F-0.6°C 70% 4.6 mph N7.4 kmh N 8.0 mph12.9 kmh 29.67 in1004.7 mb 0.00 in0.0 mm 0.00 in0.0 mm 0.00 in0.0 mm
05:44 PM 39.9°F4.4°C 30.9°F-0.6°C 70% 4.0 mph N6.4 kmh N 6.0 mph9.7 kmh 29.67 in1004.7 mb 0.00 in0.0 mm 0.00 in0.0 mm 0.00 in0.0 mm
05:45 PM 40.0°F4.4°C 31.4°F-0.3°C 71% 4.1 mph NNE6.6 kmh NNE 5.0 mph8.0 kmh 29.67 in1004.7 mb 0.00 in0.0 mm 0.00 in0.0 mm 0.00 in0.0 mm
05:46 PM 39.9°F4.4°C 31.3°F-0.4°C 71% 4.2 mph N6.8 kmh N 5.0 mph8.0 kmh 29.67 in1004.7 mb 0.00 in0.0 mm 0.00 in0.0 mm 0.00 in0.0 mm
05:47 PM 39.9°F4.4°C 31.3°F-0.4°C 71% 4.8 mph N7.7 kmh N 5.0 mph8.0 kmh 29.67 in1004.7 mb 0.00 in0.0 mm 0.00 in0.0 mm 0.00 in0.0 mm
05:48 PM 39.8°F4.3°C 31.2°F-0.4°C 71% 4.5 mph N7.2 kmh N 5.0 mph8.0 kmh 29.67 in1004.7 mb 0.00 in0.0 mm 0.00 in0.0 mm 0.00 in0.0 mm
05:49 PM 39.8°F4.3°C 31.5°F-0.3°C 72% 4.9 mph NNE7.9 kmh NNE 7.0 mph11.3 kmh 29.67 in1004.7 mb 0.00 in0.0 mm 0.00 in0.0 mm 0.00 in0.0 mm
05:50 PM 39.7°F4.3°C 31.4°F-0.3°C 72% 4.9 mph N7.9 kmh N 7.0 mph11.3 kmh 29.67 in1004.7 mb 0.00 in0.0 mm 0.00 in0.0 mm 0.00 in0.0 mm
05:51 PM 39.6°F4.2°C 31.3°F-0.4°C 72% 4.3 mph N6.9 kmh N 5.0 mph8.0 kmh 29.67 in1004.7 mb 0.00 in0.0 mm 0.00 in0.0 mm 0.00 in0.0 mm
05:52 PM 39.6°F4.2°C 31.3°F-0.4°C 72% 5.5 mph NNE8.9 kmh NNE 7.0 mph11.3 kmh 29.67 in1004.7 mb 0.00 in0.0 mm 0.00 in0.0 mm 0.00 in0.0 mm
05:53 PM 39.6°F4.2°C 31.7°F-0.2°C 73% 5.5 mph N8.9 kmh N 7.0 mph11.3 kmh 29.67 in1004.7 mb 0.00 in0.0 mm 0.00 in0.0 mm 0.00 in0.0 mm
05:54 PM 39.5°F4.2°C 31.6°F-0.2°C 73% 4.9 mph N7.9 kmh N 7.0 mph11.3 kmh 29.67 in1004.7 mb 0.00 in0.0 mm 0.00 in0.0 mm 0.00 in0.0 mm
05:55 PM 39.4°F4.1°C 31.5°F-0.3°C 73% 4.3 mph N6.9 kmh N 7.0 mph11.3 kmh 29.67 in1004.7 mb 0.00 in0.0 mm 0.00 in0.0 mm 0.00 in0.0 mm
05:56 PM 39.4°F4.1°C 31.5°F-0.3°C 73% 5.3 mph N8.5 kmh N 7.0 mph11.3 kmh 29.67 in1004.7 mb 0.00 in0.0 mm 0.00 in0.0 mm 0.00 in0.0 mm
05:57 PM 39.3°F4.1°C 31.4°F-0.3°C 73% 5.2 mph N8.4 kmh N 8.0 mph12.9 kmh 29.67 in1004.7 mb 0.00 in0.0 mm 0.00 in0.0 mm 0.00 in0.0 mm
05:58 PM 39.3°F4.1°C 31.4°F-0.3°C 73% 5.0 mph N8.0 kmh N 8.0 mph12.9 kmh 29.67 in1004.7 mb 0.00 in0.0 mm 0.00 in0.0 mm 0.00 in0.0 mm
05:59 PM 39.2°F4.0°C 31.3°F-0.4°C 73% 5.5 mph N8.9 kmh N 8.0 mph12.9 kmh 29.67 in1004.7 mb 0.00 in0.0 mm 0.00 in0.0 mm 0.00 in0.0 mm
06:00 PM 39.2°F4.0°C 31.3°F-0.4°C 73% 5.9 mph N9.5 kmh N 8.0 mph12.9 kmh 29.67 in1004.7 mb 0.00 in0.0 mm 0.00 in0.0 mm 0.00 in0.0 mm
06:01 PM 39.1°F3.9°C 31.2°F-0.4°C 73% 6.8 mph N10.9 kmh N 9.0 mph14.5 kmh 29.67 in1004.7 mb 0.00 in0.0 mm 0.00 in0.0 mm 0.00 in0.0 mm
06:02 PM 39.1°F3.9°C 31.2°F-0.4°C 73% 6.9 mph N11.1 kmh N 9.0 mph14.5 kmh 29.67 in1004.7 mb 0.00 in0.0 mm 0.00 in0.0 mm 0.00 in0.0 mm
06:03 PM 39.1°F3.9°C 31.2°F-0.4°C 73% 5.9 mph N9.5 kmh N 8.0 mph12.9 kmh 29.67 in1004.7 mb 0.00 in0.0 mm 0.00 in0.0 mm 0.00 in0.0 mm
06:04 PM 39.1°F3.9°C 31.2°F-0.4°C 73% 5.9 mph N9.5 kmh N 8.0 mph12.9 kmh 29.67 in1004.7 mb 0.00 in0.0 mm 0.00 in0.0 mm 0.00 in0.0 mm
06:05 PM 39.1°F3.9°C 31.2°F-0.4°C 73% 6.0 mph N9.7 kmh N 8.0 mph12.9 kmh 29.67 in1004.7 mb 0.00 in0.0 mm 0.00 in0.0 mm 0.00 in0.0 mm
06:06 PM 39.1°F3.9°C 31.2°F-0.4°C 73% 5.4 mph N8.7 kmh N 8.0 mph12.9 kmh 29.67 in1004.7 mb 0.00 in0.0 mm 0.00 in0.0 mm 0.00 in0.0 mm
06:07 PM 39.0°F3.9°C 31.1°F-0.5°C 73% 5.3 mph N8.5 kmh N 8.0 mph12.9 kmh 29.67 in1004.7 mb 0.00 in0.0 mm 0.00 in0.0 mm 0.00 in0.0 mm
06:08 PM 39.1°F3.9°C 31.2°F-0.4°C 73% 5.3 mph N8.5 kmh N 8.0 mph12.9 kmh 29.67 in1004.7 mb 0.00 in0.0 mm 0.00 in0.0 mm 0.00 in0.0 mm
06:09 PM 39.1°F3.9°C 31.2°F-0.4°C 73% 5.0 mph N8.0 kmh N 8.0 mph12.9 kmh 29.67 in1004.7 mb 0.00 in0.0 mm 0.00 in0.0 mm 0.00 in0.0 mm
06:10 PM 39.0°F3.9°C 31.1°F-0.5°C 73% 4.6 mph N7.4 kmh N 8.0 mph12.9 kmh 29.67 in1004.7 mb 0.00 in0.0 mm 0.00 in0.0 mm 0.00 in0.0 mm
06:11 PM 39.1°F3.9°C 31.2°F-0.4°C 73% 4.6 mph N7.4 kmh N 6.0 mph9.7 kmh 29.67 in1004.7 mb 0.00 in0.0 mm 0.00 in0.0 mm 0.00 in0.0 mm
06:12 PM 39.0°F3.9°C 31.1°F-0.5°C 73% 5.0 mph 8.0 kmh 6.0 mph9.7 kmh 29.67 in1004.7 mb 0.00 in0.0 mm 0.00 in0.0 mm 0.00 in0.0 mm
06:13 PM 39.0°F3.9°C 31.1°F-0.5°C 73% 4.0 mph 6.4 kmh 6.0 mph9.7 kmh 29.67 in1004.7 mb 0.00 in0.0 mm 0.00 in0.0 mm 0.00 in0.0 mm
06:14 PM 39.0°F3.9°C 31.1°F-0.5°C 73% 4.1 mph N6.6 kmh N 5.0 mph8.0 kmh 29.67 in1004.7 mb 0.00 in0.0 mm 0.00 in0.0 mm 0.00 in0.0 mm
06:15 PM 39.0°F3.9°C 31.1°F-0.5°C 73% 4.7 mph N7.6 kmh N 6.0 mph9.7 kmh 29.67 in1004.7 mb 0.00 in0.0 mm 0.00 in0.0 mm 0.00 in0.0 mm
06:16 PM 38.9°F3.8°C 31.0°F-0.6°C 73% 4.4 mph N7.1 kmh N 6.0 mph9.7 kmh 29.67 in1004.7 mb 0.00 in0.0 mm 0.00 in0.0 mm 0.00 in0.0 mm
06:17 PM 38.9°F3.8°C 31.0°F-0.6°C 73% 4.5 mph N7.2 kmh N 6.0 mph9.7 kmh 29.67 in1004.7 mb 0.00 in0.0 mm 0.00 in0.0 mm 0.00 in0.0 mm
06:18 PM 38.9°F3.8°C 31.0°F-0.6°C 73% 4.2 mph N6.8 kmh N 5.0 mph8.0 kmh 29.67 in1004.7 mb 0.00 in0.0 mm 0.00 in0.0 mm 0.00 in0.0 mm
06:19 PM 38.9°F3.8°C 31.0°F-0.6°C 73% 4.1 mph N6.6 kmh N 5.0 mph8.0 kmh 29.67 in1004.7 mb 0.00 in0.0 mm 0.00 in0.0 mm 0.00 in0.0 mm
06:20 PM 39.0°F3.9°C 31.1°F-0.5°C 73% 4.1 mph N6.6 kmh N 5.0 mph8.0 kmh 29.67 in1004.7 mb 0.00 in0.0 mm 0.00 in0.0 mm 0.00 in0.0 mm
06:21 PM 38.9°F3.8°C 31.3°F-0.4°C 74% 4.1 mph N6.6 kmh N 5.0 mph8.0 kmh 29.67 in1004.7 mb 0.00 in0.0 mm 0.00 in0.0 mm 0.00 in0.0 mm
06:22 PM 38.9°F3.8°C 31.3°F-0.4°C 74% 3.5 mph N5.6 kmh N 5.0 mph8.0 kmh 29.67 in1004.7 mb 0.00 in0.0 mm 0.00 in0.0 mm 0.00 in0.0 mm
06:23 PM 38.9°F3.8°C 31.3°F-0.4°C 74% 3.5 mph N5.6 kmh N 4.0 mph6.4 kmh 29.67 in1004.7 mb 0.00 in0.0 mm 0.00 in0.0 mm 0.00 in0.0 mm
06:24 PM 38.9°F3.8°C 31.3°F-0.4°C 74% 3.4 mph N5.5 kmh N 4.0 mph6.4 kmh 29.67 in1004.7 mb 0.00 in0.0 mm 0.00 in0.0 mm 0.00 in0.0 mm
06:25 PM 38.9°F3.8°C 31.3°F-0.4°C 74% 3.3 mph N5.3 kmh N 4.0 mph6.4 kmh 29.67 in1004.7 mb 0.00 in0.0 mm 0.00 in0.0 mm 0.00 in0.0 mm
06:26 PM 38.9°F3.8°C 31.3°F-0.4°C 74% 3.1 mph N5.0 kmh N 4.0 mph6.4 kmh 29.67 in1004.7 mb 0.00 in0.0 mm 0.00 in0.0 mm 0.00 in0.0 mm
06:27 PM 38.8°F3.8°C 31.2°F-0.4°C 74% 3.5 mph N5.6 kmh N 4.0 mph6.4 kmh 29.67 in1004.7 mb 0.00 in0.0 mm 0.00 in0.0 mm 0.00 in0.0 mm
06:28 PM 38.9°F3.8°C 31.3°F-0.4°C 74% 3.6 mph N5.8 kmh N 4.0 mph6.4 kmh 29.67 in1004.7 mb 0.00 in0.0 mm 0.00 in0.0 mm 0.00 in0.0 mm
06:29 PM 38.8°F3.8°C 31.2°F-0.4°C 74% 3.5 mph N5.6 kmh N 4.0 mph6.4 kmh 29.67 in1004.7 mb 0.00 in0.0 mm 0.00 in0.0 mm 0.00 in0.0 mm
06:30 PM 38.8°F3.8°C 31.2°F-0.4°C 74% 3.7 mph NNE6.0 kmh NNE 4.0 mph6.4 kmh 29.67 in1004.7 mb 0.00 in0.0 mm 0.00 in0.0 mm 0.00 in0.0 mm
06:31 PM 38.8°F3.8°C 31.2°F-0.4°C 74% 3.6 mph NNE5.8 kmh NNE 4.0 mph6.4 kmh 29.67 in1004.7 mb 0.00 in0.0 mm 0.00 in0.0 mm 0.00 in0.0 mm
06:32 PM 38.7°F3.7°C 31.1°F-0.5°C 74% 3.4 mph NNE5.5 kmh NNE 5.0 mph8.0 kmh 29.67 in1004.7 mb 0.00 in0.0 mm 0.00 in0.0 mm 0.00 in0.0 mm
06:33 PM 38.7°F3.7°C 31.1°F-0.5°C 74% 3.2 mph NNE5.1 kmh NNE 5.0 mph8.0 kmh 29.67 in1004.7 mb 0.00 in0.0 mm 0.00 in0.0 mm 0.00 in0.0 mm
06:34 PM 38.8°F3.8°C 31.2°F-0.4°C 74% 2.8 mph NNE4.5 kmh NNE 4.0 mph6.4 kmh 29.67 in1004.7 mb 0.00 in0.0 mm 0.00 in0.0 mm 0.00 in0.0 mm
06:35 PM 38.7°F3.7°C 31.1°F-0.5°C 74% 2.3 mph NNE3.7 kmh NNE 4.0 mph6.4 kmh 29.67 in1004.7 mb 0.00 in0.0 mm 0.00 in0.0 mm 0.00 in0.0 mm
06:36 PM 38.7°F3.7°C 31.1°F-0.5°C 74% 2.3 mph NNE3.7 kmh NNE 3.0 mph4.8 kmh 29.67 in1004.7 mb 0.00 in0.0 mm 0.00 in0.0 mm 0.00 in0.0 mm
06:37 PM 38.7°F3.7°C 31.1°F-0.5°C 74% 2.3 mph NNE3.7 kmh NNE 3.0 mph4.8 kmh 29.67 in1004.7 mb 0.00 in0.0 mm 0.00 in0.0 mm 0.00 in0.0 mm
06:38 PM 38.7°F3.7°C 31.1°F-0.5°C 74% 2.2 mph NNE3.5 kmh NNE 3.0 mph4.8 kmh 29.67 in1004.7 mb 0.00 in0.0 mm 0.00 in0.0 mm 0.00 in0.0 mm
06:39 PM 38.7°F3.7°C 31.1°F-0.5°C 74% 1.9 mph NNE3.1 kmh NNE 3.0 mph4.8 kmh 29.67 in1004.7 mb 0.00 in0.0 mm 0.00 in0.0 mm 0.00 in0.0 mm
06:40 PM 38.7°F3.7°C 31.1°F-0.5°C 74% 2.5 mph NNE4.0 kmh NNE 3.0 mph4.8 kmh 29.67 in1004.7 mb 0.00 in0.0 mm 0.00 in0.0 mm 0.00 in0.0 mm
06:41 PM 38.7°F3.7°C 31.1°F-0.5°C 74% 2.9 mph NNE4.7 kmh NNE 3.0 mph4.8 kmh 29.67 in1004.7 mb 0.00 in0.0 mm 0.00 in0.0 mm 0.00 in0.0 mm
06:42 PM 38.7°F3.7°C 31.1°F-0.5°C 74% 3.0 mph NNE4.8 kmh NNE 4.0 mph6.4 kmh 29.67 in1004.7 mb 0.00 in0.0 mm 0.00 in0.0 mm 0.00 in0.0 mm
06:43 PM 38.6°F3.7°C 31.0°F-0.6°C 74% 3.3 mph NNE5.3 kmh NNE 4.0 mph6.4 kmh 29.67 in1004.7 mb 0.00 in0.0 mm 0.00 in0.0 mm 0.00 in0.0 mm
06:44 PM 38.6°F3.7°C 31.0°F-0.6°C 74% 2.8 mph NNE4.5 kmh NNE 4.0 mph6.4 kmh 29.66 in1004.4 mb 0.00 in0.0 mm 0.00 in0.0 mm 0.00 in0.0 mm
06:45 PM 38.6°F3.7°C 31.0°F-0.6°C 74% 3.3 mph NNE5.3 kmh NNE 4.0 mph6.4 kmh 29.66 in1004.4 mb 0.00 in0.0 mm 0.00 in0.0 mm 0.00 in0.0 mm
06:46 PM 38.6°F3.7°C 31.0°F-0.6°C 74% 3.2 mph NNE5.1 kmh NNE 4.0 mph6.4 kmh 29.66 in1004.4 mb 0.00 in0.0 mm 0.00 in0.0 mm 0.00 in0.0 mm
06:47 PM 38.6°F3.7°C 31.0°F-0.6°C 74% 3.0 mph NNE4.8 kmh NNE 4.0 mph6.4 kmh 29.66 in1004.4 mb 0.00 in0.0 mm 0.00 in0.0 mm 0.00 in0.0 mm
06:48 PM 38.6°F3.7°C 31.0°F-0.6°C 74% 3.7 mph NE6.0 kmh NE 4.0 mph6.4 kmh 29.66 in1004.4 mb 0.00 in0.0 mm 0.00 in0.0 mm 0.00 in0.0 mm
06:49 PM 38.6°F3.7°C 31.0°F-0.6°C 74% 2.7 mph NE4.3 kmh NE 4.0 mph6.4 kmh 29.66 in1004.4 mb 0.00 in0.0 mm 0.00 in0.0 mm 0.00 in0.0 mm
06:50 PM 38.6°F3.7°C 31.0°F-0.6°C 74% 3.6 mph NNE5.8 kmh NNE 4.0 mph6.4 kmh 29.67 in1004.7 mb 0.00 in0.0 mm 0.00 in0.0 mm 0.00 in0.0 mm
06:51 PM 38.6°F3.7°C 31.0°F-0.6°C 74% 3.2 mph NNE5.1 kmh NNE 4.0 mph6.4 kmh 29.66 in1004.4 mb 0.00 in0.0 mm 0.00 in0.0 mm 0.00 in0.0 mm
06:52 PM 38.5°F3.6°C 30.9°F-0.6°C 74% 4.1 mph NNE6.6 kmh NNE 5.0 mph8.0 kmh 29.66 in1004.4 mb 0.00 in0.0 mm 0.00 in0.0 mm 0.00 in0.0 mm
06:53 PM 38.5°F3.6°C 30.9°F-0.6°C 74% 3.5 mph NNE5.6 kmh NNE 5.0 mph8.0 kmh 29.67 in1004.7 mb 0.00 in0.0 mm 0.00 in0.0 mm 0.00 in0.0 mm
06:54 PM 38.5°F3.6°C 30.9°F-0.6°C 74% 3.9 mph NNE6.3 kmh NNE 5.0 mph8.0 kmh 29.66 in1004.4 mb 0.00 in0.0 mm 0.00 in0.0 mm 0.00 in0.0 mm
06:55 PM 38.5°F3.6°C 30.9°F-0.6°C 74% 3.8 mph NNE6.1 kmh NNE 5.0 mph8.0 kmh 29.66 in1004.4 mb 0.00 in0.0 mm 0.00 in0.0 mm 0.00 in0.0 mm
06:56 PM 38.4°F3.6°C 30.8°F-0.7°C 74% 4.1 mph NNE6.6 kmh NNE 5.0 mph8.0 kmh 29.66 in1004.4 mb 0.00 in0.0 mm 0.00 in0.0 mm 0.00 in0.0 mm
06:57 PM 38.4°F3.6°C 30.8°F-0.7°C 74% 3.6 mph NNE5.8 kmh NNE 5.0 mph8.0 kmh 29.67 in1004.7 mb 0.00 in0.0 mm 0.00 in0.0 mm 0.00 in0.0 mm
06:58 PM 38.4°F3.6°C 30.8°F-0.7°C 74% 4.0 mph NNE6.4 kmh NNE 5.0 mph8.0 kmh 29.67 in1004.7 mb 0.00 in0.0 mm 0.00 in0.0 mm 0.00 in0.0 mm
06:59 PM 38.4°F3.6°C 30.8°F-0.7°C 74% 4.0 mph NNE6.4 kmh NNE 5.0 mph8.0 kmh 29.66 in1004.4 mb 0.00 in0.0 mm 0.00 in0.0 mm 0.00 in0.0 mm
07:00 PM 38.4°F3.6°C 30.8°F-0.7°C 74% 4.2 mph NNE6.8 kmh NNE 5.0 mph8.0 kmh 29.66 in1004.4 mb 0.00 in0.0 mm 0.00 in0.0 mm 0.00 in0.0 mm
07:01 PM 38.3°F3.5°C 30.8°F-0.7°C 74% 4.8 mph NNE7.7 kmh NNE 6.0 mph9.7 kmh 29.67 in1004.7 mb 0.00 in0.0 mm 0.00 in0.0 mm 0.00 in0.0 mm
07:02 PM 38.4°F3.6°C 30.8°F-0.7°C 74% 4.6 mph NNE7.4 kmh NNE 6.0 mph9.7 kmh 29.66 in1004.4 mb 0.00 in0.0 mm 0.00 in0.0 mm 0.00 in0.0 mm
07:03 PM 38.3°F3.5°C 30.8°F-0.7°C 74% 4.5 mph NNE7.2 kmh NNE 5.0 mph8.0 kmh 29.66 in1004.4 mb 0.00 in0.0 mm 0.00 in0.0 mm 0.00 in0.0 mm
07:04 PM 38.3°F3.5°C 30.8°F-0.7°C 74% 3.8 mph NNE6.1 kmh NNE 5.0 mph8.0 kmh 29.67 in1004.7 mb 0.00 in0.0 mm 0.00 in0.0 mm 0.00 in0.0 mm
07:05 PM 38.3°F3.5°C 30.8°F-0.7°C 74% 3.7 mph NNE6.0 kmh NNE 5.0 mph8.0 kmh 29.67 in1004.7 mb 0.00 in0.0 mm 0.00 in0.0 mm 0.00 in0.0 mm
07:06 PM 38.3°F3.5°C 31.1°F-0.5°C 75% 3.9 mph NNE6.3 kmh NNE 5.0 mph8.0 kmh 29.66 in1004.4 mb 0.00 in0.0 mm 0.00 in0.0 mm 0.00 in0.0 mm
07:07 PM 38.3°F3.5°C 31.1°F-0.5°C 75% 3.0 mph NNE4.8 kmh NNE 4.0 mph6.4 kmh 29.66 in1004.4 mb 0.00 in0.0 mm 0.00 in0.0 mm 0.00 in0.0 mm
07:08 PM 38.3°F3.5°C 31.1°F-0.5°C 75% 4.0 mph NNE6.4 kmh NNE 4.0 mph6.4 kmh 29.66 in1004.4 mb 0.00 in0.0 mm 0.00 in0.0 mm 0.00 in0.0 mm
07:09 PM 38.3°F3.5°C 31.1°F-0.5°C 75% 3.5 mph NNE5.6 kmh NNE 4.0 mph6.4 kmh 29.66 in1004.4 mb 0.00 in0.0 mm 0.00 in0.0 mm 0.00 in0.0 mm
07:10 PM 38.3°F3.5°C 31.1°F-0.5°C 75% 3.4 mph NNE5.5 kmh NNE 4.0 mph6.4 kmh 29.66 in1004.4 mb 0.00 in0.0 mm 0.00 in0.0 mm 0.00 in0.0 mm
07:11 PM 38.3°F3.5°C 31.1°F-0.5°C 75% 3.8 mph NNE6.1 kmh NNE 5.0 mph8.0 kmh 29.66 in1004.4 mb 0.00 in0.0 mm 0.00 in0.0 mm 0.00 in0.0 mm
07:12 PM 38.3°F3.5°C 31.1°F-0.5°C 75% 3.9 mph NNE6.3 kmh NNE 5.0 mph8.0 kmh 29.66 in1004.4 mb 0.00 in0.0 mm 0.00 in0.0 mm 0.00 in0.0 mm
07:13 PM 38.3°F3.5°C 31.1°F-0.5°C 75% 4.1 mph NNE6.6 kmh NNE 5.0 mph8.0 kmh 29.67 in1004.7 mb 0.00 in0.0 mm 0.00 in0.0 mm 0.00 in0.0 mm
07:14 PM 38.2°F3.4°C 31.0°F-0.6°C 75% 3.9 mph NNE6.3 kmh NNE 5.0 mph8.0 kmh 29.67 in1004.7 mb 0.00 in0.0 mm 0.00 in0.0 mm 0.00 in0.0 mm
07:15 PM 38.3°F3.5°C 31.1°F-0.5°C 75% 4.4 mph NNE7.1 kmh NNE 5.0 mph8.0 kmh 29.67 in1004.7 mb 0.00 in0.0 mm 0.00 in0.0 mm 0.00 in0.0 mm
07:16 PM 38.3°F3.5°C 31.1°F-0.5°C 75% 4.3 mph NNE6.9 kmh NNE 5.0 mph8.0 kmh 29.67 in1004.7 mb 0.00 in0.0 mm 0.00 in0.0 mm 0.00 in0.0 mm
07:17 PM 38.3°F3.5°C 31.1°F-0.5°C 75% 3.8 mph NNE6.1 kmh NNE 5.0 mph8.0 kmh 29.67 in1004.7 mb 0.00 in0.0 mm 0.00 in0.0 mm 0.00 in0.0 mm
07:18 PM 38.3°F3.5°C 31.1°F-0.5°C 75% 3.7 mph NNE6.0 kmh NNE 5.0 mph8.0 kmh 29.66 in1004.4 mb 0.00 in0.0 mm 0.00 in0.0 mm 0.00 in0.0 mm
07:19 PM 38.3°F3.5°C 31.1°F-0.5°C 75% 3.6 mph NNE5.8 kmh NNE 4.0 mph6.4 kmh 29.67 in1004.7 mb 0.00 in0.0 mm 0.00 in0.0 mm 0.00 in0.0 mm
07:20 PM 38.3°F3.5°C 31.1°F-0.5°C 75% 3.7 mph NNE6.0 kmh NNE 5.0 mph8.0 kmh 29.67 in1004.7 mb 0.00 in0.0 mm 0.00 in0.0 mm 0.00 in0.0 mm
07:21 PM 38.2°F3.4°C 31.0°F-0.6°C 75% 3.8 mph NNE6.1 kmh NNE 5.0 mph8.0 kmh 29.67 in1004.7 mb 0.00 in0.0 mm 0.00 in0.0 mm 0.00 in0.0 mm
07:22 PM 38.2°F3.4°C 31.0°F-0.6°C 75% 3.8 mph NNE6.1 kmh NNE 5.0 mph8.0 kmh 29.67 in1004.7 mb 0.00 in0.0 mm 0.00 in0.0 mm 0.00 in0.0 mm
07:23 PM 38.2°F3.4°C 31.0°F-0.6°C 75% 3.5 mph NNE5.6 kmh NNE 5.0 mph8.0 kmh 29.67 in1004.7 mb 0.00 in0.0 mm 0.00 in0.0 mm 0.00 in0.0 mm
07:24 PM 38.2°F3.4°C 31.0°F-0.6°C 75% 3.1 mph NNE5.0 kmh NNE 4.0 mph6.4 kmh 29.67 in1004.7 mb 0.00 in0.0 mm 0.00 in0.0 mm 0.00 in0.0 mm
07:25 PM 38.1°F3.4°C 30.9°F-0.6°C 75% 2.7 mph NNE4.3 kmh NNE 4.0 mph6.4 kmh 29.67 in1004.7 mb 0.00 in0.0 mm 0.00 in0.0 mm 0.00 in0.0 mm
07:26 PM 38.2°F3.4°C 31.0°F-0.6°C 75% 2.8 mph NNE4.5 kmh NNE 4.0 mph6.4 kmh 29.67 in1004.7 mb 0.00 in0.0 mm 0.00 in0.0 mm 0.00 in0.0 mm
07:27 PM 38.2°F3.4°C 31.0°F-0.6°C 75% 2.9 mph NNE4.7 kmh NNE 3.0 mph4.8 kmh 29.66 in1004.4 mb 0.00 in0.0 mm 0.00 in0.0 mm 0.00 in0.0 mm
07:28 PM 38.2°F3.4°C 31.0°F-0.6°C 75% 3.0 mph NNE4.8 kmh NNE 3.0 mph4.8 kmh 29.66 in1004.4 mb 0.00 in0.0 mm 0.00 in0.0 mm 0.00 in0.0 mm
07:29 PM 38.1°F3.4°C 30.9°F-0.6°C 75% 2.0 mph NNE3.2 kmh NNE 3.0 mph4.8 kmh 29.66 in1004.4 mb 0.00 in0.0 mm 0.00 in0.0 mm 0.00 in0.0 mm
07:30 PM 38.1°F3.4°C 30.9°F-0.6°C 75% 3.0 mph NNE4.8 kmh NNE 3.0 mph4.8 kmh 29.66 in1004.4 mb 0.00 in0.0 mm 0.00 in0.0 mm 0.00 in0.0 mm
07:31 PM 38.1°F3.4°C 30.9°F-0.6°C 75% 2.7 mph NNE4.3 kmh NNE 3.0 mph4.8 kmh 29.66 in1004.4 mb 0.00 in0.0 mm 0.00 in0.0 mm 0.00 in0.0 mm
07:32 PM 38.1°F3.4°C 30.9°F-0.6°C 75% 2.7 mph NNE4.3 kmh NNE 3.0 mph4.8 kmh 29.66 in1004.4 mb 0.00 in0.0 mm 0.00 in0.0 mm 0.00 in0.0 mm
07:33 PM 38.1°F3.4°C 30.9°F-0.6°C 75% 2.1 mph NNE3.4 kmh NNE 3.0 mph4.8 kmh 29.66 in1004.4 mb 0.00 in0.0 mm 0.00 in0.0 mm 0.00 in0.0 mm
07:34 PM 38.1°F3.4°C 30.9°F-0.6°C 75% 1.9 mph NNE3.1 kmh NNE 3.0 mph4.8 kmh 29.66 in1004.4 mb 0.00 in0.0 mm 0.00 in0.0 mm 0.00 in0.0 mm
07:35 PM 38.1°F3.4°C 30.9°F-0.6°C 75% 1.5 mph NNE2.4 kmh NNE 3.0 mph4.8 kmh 29.66 in1004.4 mb 0.00 in0.0 mm 0.00 in0.0 mm 0.00 in0.0 mm
07:36 PM 38.1°F3.4°C 30.9°F-0.6°C 75% 1.8 mph NNE2.9 kmh NNE 2.0 mph3.2 kmh 29.66 in1004.4 mb 0.00 in0.0 mm 0.00 in0.0 mm 0.00 in0.0 mm
07:37 PM 38.1°F3.4°C 30.9°F-0.6°C 75%